MYDAX CHILLER For Sector 8 Monochromators  S/N 120-0453             

Key: (Temperatures in Centigrade) 
A) System is ON or OFF
B) Actual Tank Temperature as sensed by the Output RTD                   
C) Set point Temperature 
D) Calculated temperature of the refrigerant line at the suction pressure transducer
E) Pressure in PSIg of the refrigerant line at the suction pressure transducer
F & G) Temperature in the refrigerant line at the Superheat and Condenser RTDs
H) Temperature in the refrigerant line at the Discharge RTD (2-stage design only)
I) Temperature in the refrigerant line at the Subcooler RTD (inactive)
J) Valve drives of evaporator 

----------- DATE ----------: A    B     C     D     E    F    G    H   I J

 last update: Thu May 19 01:53:33 PDT 2022
Thu May 19 01:52:41 PDT 2022 ON: 20.02 +20.0 19.89 -12.0 31.2 07 0A 2606 0901 Alarm State:  0
Thu May 19 01:51:39 PDT 2022 ON: 20.01 +20.0 19.89 -11.7 31.1 06 0A 242E 0916 Alarm State:  0
Thu May 19 01:50:38 PDT 2022 ON: 19.99 +20.0 19.86 -10.5 32.2 0A 0C 2506 0A02 Alarm State:  0
Thu May 19 01:49:36 PDT 2022 ON: 20.00 +20.0 19.87 -10.5 32.2 04 0B 2611 0917 Alarm State:  0
Thu May 19 01:48:35 PDT 2022 ON: 20.01 +20.0 19.87 -10.8 32.0 05 0B 270F 091D Alarm State:  0
Thu May 19 01:47:33 PDT 2022 ON: 20.01 +20.0 19.87 -11.0 31.8 06 0B 2727 0926 Alarm State:  0
Thu May 19 01:46:32 PDT 2022 ON: 20.00 +20.0 19.87 -10.7 31.9 00 0B 2813 0911 Alarm State:  0
Thu May 19 01:45:30 PDT 2022 ON: 20.00 +20.0 19.87 -10.4 32.3 04 0B 291E 0A12 Alarm State:  0
Thu May 19 01:44:29 PDT 2022 ON: 20.00 +20.0 19.86 -10.4 32.3 04 0B 2A28 091D Alarm State:  0
Thu May 19 01:43:27 PDT 2022 ON: 20.01 +20.0 19.88 -10.9 32.0 00 0A 2A1A 0901 Alarm State:  0
Thu May 19 01:42:26 PDT 2022 ON: 20.00 +20.0 19.88 -11.2 31.5 06 0A 2A13 0915 Alarm State:  0
Thu May 19 01:41:24 PDT 2022 ON: 20.00 +20.0 19.87 -10.7 31.9 00 0B 2B12 0A2A Alarm State:  0
Thu May 19 01:40:23 PDT 2022 ON: 19.99 +20.0 19.86 -10.1 32.4 03 0C 2C1C 0A0E Alarm State:  0
Thu May 19 01:39:21 PDT 2022 ON: 20.00 +20.0 19.86 -10.3 32.3 04 0B 2D27 090E Alarm State:  0
Thu May 19 01:38:20 PDT 2022 ON: 20.01 +20.0 19.87 -10.8 32.0 06 0B 2E09 0922 Alarm State:  0
Thu May 19 01:37:18 PDT 2022 ON: 20.01 +20.0 19.89 -10.9 31.6 06 0A 2C31 0A0E Alarm State:  0
Thu May 19 01:36:17 PDT 2022 ON: 19.99 +20.0 19.87 -10.4 32.1 0B 0C 2D1F 0B12 Alarm State:  0
Thu May 19 01:35:15 PDT 2022 ON: 19.99 +20.0 19.85 - 9.9 32.5 03 0C 2E2A 0A24 Alarm State:  0
Thu May 19 01:34:14 PDT 2022 ON: 20.00 +20.0 19.86 -10.3 32.3 05 0B 3001 0904 Alarm State:  0
Thu May 19 01:33:12 PDT 2022 ON: 20.01 +20.0 19.88 -11.0 31.8 06 0A 2F2A 0919 Alarm State:  0
Thu May 19 01:32:11 PDT 2022 ON: 20.00 +20.0 19.88 -11.2 31.3 06 0B 2F06 0A05 Alarm State:  0
Thu May 19 01:31:09 PDT 2022 ON: 19.98 +20.0 19.87 -10.1 32.2 04 0B 300E 0A23 Alarm State:  0
Thu May 19 01:30:08 PDT 2022 ON: 19.99 +20.0 19.86 - 9.6 32.5 00 0B 3119 0917 Alarm State:  0
Thu May 19 01:29:06 PDT 2022 ON: 20.01 +20.0 19.86 -10.6 32.1 00 0C 311E 0A01 Alarm State:  0
Thu May 19 01:28:05 PDT 2022 ON: 20.02 +20.0 19.89 -11.0 31.4 0C 0B 301F 0B16 Alarm State:  0
Thu May 19 01:27:03 PDT 2022 ON: 20.00 +20.0 19.88 -10.5 31.3 0B 0C 302C 0C28 Alarm State:  0
Thu May 19 01:26:02 PDT 2022 ON: 19.96 +20.0 19.85 - 8.9 32.6 09 0D 3204 0B29 Alarm State:  0
Thu May 19 01:25:00 PDT 2022 ON: 19.95 +20.0 19.82 - 7.2 33.4 00 0E 330E 0A1E Alarm State:  0
Thu May 19 01:23:59 PDT 2022 ON: 20.01 +20.0 19.87 -11.0 31.9 06 0B 340B 0905 Alarm State:  0
Thu May 19 01:22:57 PDT 2022 ON: 20.01 +20.0 19.87 -11.0 32.0 06 0B 3315 0919 Alarm State:  0
Thu May 19 01:21:56 PDT 2022 ON: 20.00 +20.0 19.87 -11.0 32.0 0D 0B 3323 0905 Alarm State:  0
Thu May 19 01:20:54 PDT 2022 ON: 20.01 +20.0 19.88 -11.0 32.0 06 0A 322F 0919 Alarm State:  0
Thu May 19 01:19:53 PDT 2022 ON: 20.01 +20.0 19.88 -11.1 31.9 06 0A 3219 0905 Alarm State:  0
Thu May 19 01:18:51 PDT 2022 ON: 20.00 +20.0 19.88 -11.1 31.9 00 0A 3220 0919 Alarm State:  0
Thu May 19 01:17:50 PDT 2022 ON: 20.00 +20.0 19.87 -11.0 32.0 06 0B 3208 0905 Alarm State:  0
Thu May 19 01:16:48 PDT 2022 ON: 20.01 +20.0 19.88 -11.0 32.0 06 0A 322B 0919 Alarm State:  0
Thu May 19 01:15:47 PDT 2022 ON: 20.00 +20.0 19.87 -11.1 31.9 01 0B 321B 0905 Alarm State:  0
Thu May 19 01:14:45 PDT 2022 ON: 20.01 +20.0 19.88 -11.1 31.9 06 0A 3216 0919 Alarm State:  0
Thu May 19 01:13:44 PDT 2022 ON: 20.01 +20.0 19.88 -11.0 31.9 06 0A 321A 0905 Alarm State:  0
Thu May 19 01:12:42 PDT 2022 ON: 20.01 +20.0 19.88 -11.0 32.0 06 0A 311A 0919 Alarm State:  0
Thu May 19 01:11:41 PDT 2022 ON: 20.00 +20.0 19.88 -11.0 32.0 06 0A 301F 0905 Alarm State:  0
Thu May 19 01:10:39 PDT 2022 ON: 20.00 +20.0 19.87 -11.1 31.9 06 0B 311D 0919 Alarm State:  0
Thu May 19 01:09:38 PDT 2022 ON: 20.00 +20.0 19.87 -11.0 31.9 06 0B 3115 0905 Alarm State:  0
Thu May 19 01:08:36 PDT 2022 ON: 20.01 +20.0 19.87 -11.1 31.9 0D 0B 3106 0919 Alarm State:  0
Thu May 19 01:07:35 PDT 2022 ON: 20.01 +20.0 19.88 -11.0 32.0 0A 0A 3021 0905 Alarm State:  0
Thu May 19 01:06:33 PDT 2022 ON: 20.00 +20.0 19.86 -11.0 32.0 06 0B 3026 0919 Alarm State:  0
Thu May 19 01:05:31 PDT 2022 ON: 20.00 +20.0 19.87 -11.1 32.0 06 0B 3028 0905 Alarm State:  0
Thu May 19 01:04:30 PDT 2022 ON: 20.01 +20.0 19.88 -11.1 31.9 06 0A 2F28 0919 Alarm State:  0
Thu May 19 01:03:28 PDT 2022 ON: 20.01 +20.0 19.87 -11.0 32.0 0A 0B 2F2A 0905 Alarm State:  0
Thu May 19 01:02:27 PDT 2022 ON: 20.00 +20.0 19.86 -11.0 32.0 06 0B 2F0D 0919 Alarm State:  0
Thu May 19 01:01:25 PDT 2022 ON: 20.00 +20.0 19.88 -11.0 31.9 00 0A 2E1C 0905 Alarm State:  0
Thu May 19 01:00:24 PDT 2022 ON: 20.00 +20.0 19.87 -11.0 31.9 0A 0B 2E09 0919 Alarm State:  0
Thu May 19 00:59:22 PDT 2022 ON: 20.00 +20.0 19.87 -11.1 31.9 06 0B 2E07 0905 Alarm State:  0
Thu May 19 00:58:21 PDT 2022 ON: 20.00 +20.0 19.87 -11.1 31.9 06 0B 2E12 0919 Alarm State:  0
Thu May 19 00:57:19 PDT 2022 ON: 20.01 +20.0 19.88 -11.0 31.9 00 0A 2E18 0905 Alarm State:  0
Thu May 19 00:56:18 PDT 2022 ON: 20.01 +20.0 19.88 -11.0 32.0 06 0A 2E19 0919 Alarm State:  0
Thu May 19 00:55:16 PDT 2022 ON: 20.01 +20.0 19.87 -11.0 32.0 06 0B 2D1A 0905 Alarm State:  0
Thu May 19 00:54:15 PDT 2022 ON: 20.00 +20.0 19.88 -11.1 31.9 06 0A 2C2C 0919 Alarm State:  0
Thu May 19 00:53:13 PDT 2022 ON: 20.00 +20.0 19.87 -11.1 31.9 06 0B 2D11 0905 Alarm State:  0
Thu May 19 00:52:12 PDT 2022 ON: 20.00 +20.0 19.88 -11.0 32.0 0D 0A 2D0E 0919 Alarm State:  0
Thu May 19 00:51:10 PDT 2022 ON: 20.00 +20.0 19.88 -11.0 32.0 06 0A 2D08 0905 Alarm State:  0
Thu May 19 00:50:09 PDT 2022 ON: 20.01 +20.0 19.88 -11.1 31.9 06 0A 2D11 0919 Alarm State:  0
Thu May 19 00:49:07 PDT 2022 ON: 20.01 +20.0 19.88 -11.1 31.9 00 0A 2C12 0905 Alarm State:  0
Thu May 19 00:48:06 PDT 2022 ON: 20.01 +20.0 19.88 -11.0 31.9 06 0A 2B0E 0919 Alarm State:  0
Thu May 19 00:47:04 PDT 2022 ON: 20.01 +20.0 19.88 -11.0 32.0 06 0A 2B08 0905 Alarm State:  0
Thu May 19 00:46:03 PDT 2022 ON: 20.01 +20.0 19.87 -11.0 32.0 06 0B 2A1C 0919 Alarm State:  0
Thu May 19 00:45:01 PDT 2022 ON: 20.00 +20.0 19.87 -11.1 31.9 00 0B 2A26 0905 Alarm State:  0
Thu May 19 00:44:00 PDT 2022 ON: 20.01 +20.0 19.88 -11.0 31.9 06 0A 2B22 0919 Alarm State:  0
Thu May 19 00:42:58 PDT 2022 ON: 20.01 +20.0 19.88 -11.0 31.9 06 0A 2B14 0905 Alarm State:  0
Thu May 19 00:41:57 PDT 2022 ON: 20.00 +20.0 19.88 -11.1 31.9 06 0A 2A1C 0919 Alarm State:  0
Thu May 19 00:40:55 PDT 2022 ON: 20.01 +20.0 19.87 -11.1 31.9 06 0B 2A28 0905 Alarm State:  0
Thu May 19 00:39:54 PDT 2022 ON: 20.01 +20.0 19.88 -11.0 32.0 06 0A 292E 0919 Alarm State:  0
Thu May 19 00:38:52 PDT 2022 ON: 20.00 +20.0 19.87 -11.0 31.9 06 0B 2926 0905 Alarm State:  0
Thu May 19 00:37:51 PDT 2022 ON: 20.00 +20.0 19.87 -11.0 31.9 06 0B 2A04 0919 Alarm State:  0
Thu May 19 00:36:49 PDT 2022 ON: 20.00 +20.0 19.87 -11.1 31.9 0C 0B 292B 0905 Alarm State:  0
Thu May 19 00:35:48 PDT 2022 ON: 20.01 +20.0 19.88 -11.0 31.9 09 0A 292A 0919 Alarm State:  0
Thu May 19 00:34:46 PDT 2022 ON: 20.01 +20.0 19.88 -11.0 31.9 06 0A 290A 0905 Alarm State:  0
Thu May 19 00:33:45 PDT 2022 ON: 20.01 +20.0 19.88 -11.1 31.9 06 0A 282E 0919 Alarm State:  0
Thu May 19 00:32:43 PDT 2022 ON: 20.01 +20.0 19.88 -11.0 31.9 09 0A 2814 0905 Alarm State:  0
Thu May 19 00:31:42 PDT 2022 ON: 20.00 +20.0 19.87 -11.0 32.0 06 0B 280D 0919 Alarm State:  0
Thu May 19 00:30:40 PDT 2022 ON: 20.00 +20.0 19.87 -11.0 31.9 06 0B 281B 0905 Alarm State:  0
Thu May 19 00:29:39 PDT 2022 ON: 20.00 +20.0 19.87 -11.0 31.9 09 0B 2903 0919 Alarm State:  0
Thu May 19 00:28:37 PDT 2022 ON: 20.00 +20.0 19.88 -11.1 31.9 06 0A 2808 0905 Alarm State:  0
Thu May 19 00:27:36 PDT 2022 ON: 20.00 +20.0 19.87 -11.1 31.9 06 0B 282D 0919 Alarm State:  0
Thu May 19 00:26:34 PDT 2022 ON: 20.01 +20.0 19.87 -11.0 32.0 0C 0B 282F 0905 Alarm State:  0
Thu May 19 00:25:33 PDT 2022 ON: 20.01 +20.0 19.87 -11.0 31.9 00 0B 2826 0919 Alarm State:  0
Thu May 19 00:24:31 PDT 2022 ON: 20.01 +20.0 19.88 -11.0 31.9 06 0A 281E 0905 Alarm State:  0
Thu May 19 00:23:30 PDT 2022 ON: 20.01 +20.0 19.88 -11.0 32.0 09 0A 281C 091A Alarm State:  0
Thu May 19 00:22:28 PDT 2022 ON: 20.00 +20.0 19.86 -11.1 31.9 06 0B 2811 0905 Alarm State:  0
Thu May 19 00:21:27 PDT 2022 ON: 20.01 +20.0 19.88 -11.1 31.9 01 0A 2813 091A Alarm State:  0
Thu May 19 00:20:25 PDT 2022 ON: 20.00 +20.0 19.87 -11.0 32.0 06 0B 2816 0905 Alarm State:  0
Thu May 19 00:19:24 PDT 2022 ON: 20.01 +20.0 19.88 -11.0 32.0 0C 0A 281E 091A Alarm State:  0
Thu May 19 00:18:22 PDT 2022 ON: 20.02 +20.0 19.88 -11.1 31.9 06 0A 280F 0905 Alarm State:  0
Thu May 19 00:17:21 PDT 2022 ON: 20.01 +20.0 19.88 -11.2 31.8 06 0A 2716 091A Alarm State:  0
Thu May 19 00:16:19 PDT 2022 ON: 20.01 +20.0 19.87 -11.1 31.9 06 0B 2630 0905 Alarm State:  0
Thu May 19 00:15:18 PDT 2022 ON: 20.00 +20.0 19.87 -10.9 32.0 05 0B 2624 091A Alarm State:  0
Thu May 19 00:14:16 PDT 2022 ON: 20.01 +20.0 19.88 -10.9 32.0 08 0A 262F 0905 Alarm State:  0
Thu May 19 00:13:15 PDT 2022 ON: 20.01 +20.0 19.88 -11.1 31.9 06 0A 262F 091A Alarm State:  0
Thu May 19 00:12:13 PDT 2022 ON: 20.00 +20.0 19.87 -11.2 31.7 06 0B 2602 0905 Alarm State:  0
Thu May 19 00:11:12 PDT 2022 ON: 20.01 +20.0 19.87 -11.1 31.8 06 0B 251D 091A Alarm State:  0
Thu May 19 00:10:10 PDT 2022 ON: 20.00 +20.0 19.88 -10.9 32.0 01 0A 2520 0905 Alarm State:  0
Thu May 19 00:09:09 PDT 2022 ON: 20.01 +20.0 19.87 -10.9 32.0 0C 0B 252E 091A Alarm State:  0
Thu May 19 00:08:07 PDT 2022 ON: 20.01 +20.0 19.88 -11.2 31.9 06 0A 2424 0905 Alarm State:  0
Thu May 19 00:07:06 PDT 2022 ON: 20.00 +20.0 19.88 -11.3 31.7 05 0A 2329 091A Alarm State:  0
Thu May 19 00:06:04 PDT 2022 ON: 20.00 +20.0 19.88 -11.1 31.8 01 0A 2314 0905 Alarm State:  0
Thu May 19 00:05:02 PDT 2022 ON: 20.01 +20.0 19.88 -10.9 32.0 05 0A 240D 091A Alarm State:  0
Thu May 19 00:04:01 PDT 2022 ON: 20.01 +20.0 19.88 -10.9 32.0 05 0A 2414 0905 Alarm State:  0
Thu May 19 00:02:59 PDT 2022 ON: 20.01 +20.0 19.88 -11.1 32.0 06 0A 2402 091A Alarm State:  0
Thu May 19 00:01:58 PDT 2022 ON: 20.00 +20.0 19.88 -11.2 31.8 09 0A 2405 0905 Alarm State:  0
Thu May 19 00:00:56 PDT 2022 ON: 20.01 +20.0 19.88 -11.2 31.8 08 0A 2314 091A Alarm State:  0
Wed May 18 23:59:55 PDT 2022 ON: 20.00 +20.0 19.88 -10.9 32.1 04 0A 2309 0905 Alarm State:  0
Wed May 18 23:58:53 PDT 2022 ON: 20.01 +20.0 19.87 -10.9 32.1 04 0B 231B 091A Alarm State:  0
Wed May 18 23:57:52 PDT 2022 ON: 20.01 +20.0 19.87 -11.1 31.9 05 0B 2227 0905 Alarm State:  0
Wed May 18 23:56:50 PDT 2022 ON: 20.01 +20.0 19.87 -11.4 31.7 0C 0B 212A 091A Alarm State:  0
Wed May 18 23:55:49 PDT 2022 ON: 20.01 +20.0 19.89 -11.2 31.7 05 0A 2111 0905 Alarm State:  0
Wed May 18 23:54:47 PDT 2022 ON: 20.00 +20.0 19.86 -10.7 32.1 04 0B 2131 091A Alarm State:  0
Wed May 18 23:53:46 PDT 2022 ON: 20.00 +20.0 19.86 -10.8 32.1 07 0B 222F 0926 Alarm State:  0
Wed May 18 23:52:44 PDT 2022 ON: 20.00 +20.0 19.87 -11.2 31.9 05 0B 2209 0912 Alarm State:  0
Wed May 18 23:51:43 PDT 2022 ON: 20.01 +20.0 19.88 -11.5 31.5 06 0A 210F 0926 Alarm State:  0
Wed May 18 23:50:41 PDT 2022 ON: 20.01 +20.0 19.88 -11.2 31.6 01 0A 2103 0912 Alarm State:  0
Wed May 18 23:49:40 PDT 2022 ON: 20.00 +20.0 19.86 -10.7 32.2 04 0B 2209 0910 Alarm State:  0
Wed May 18 23:48:38 PDT 2022 ON: 20.01 +20.0 19.88 -10.8 32.1 07 0A 230C 0907 Alarm State:  0
Wed May 18 23:47:37 PDT 2022 ON: 20.01 +20.0 19.88 -11.0 31.9 01 0A 230B 090D Alarm State:  0
Wed May 18 23:46:35 PDT 2022 ON: 20.00 +20.0 19.87 -10.9 31.9 04 0B 240C 0912 Alarm State:  0
Wed May 18 23:45:34 PDT 2022 ON: 20.00 +20.0 19.86 -10.6 32.2 04 0B 2510 0906 Alarm State:  0
Wed May 18 23:44:32 PDT 2022 ON: 20.01 +20.0 19.87 -10.6 32.2 00 0B 2611 0919 Alarm State:  0
Wed May 18 23:43:31 PDT 2022 ON: 20.00 +20.0 19.87 -10.9 32.0 0B 0B 260C 0904 Alarm State:  0
Wed May 18 23:42:29 PDT 2022 ON: 20.00 +20.0 19.87 -11.1 31.8 06 0B 270B 0919 Alarm State:  0
Wed May 18 23:41:28 PDT 2022 ON: 20.00 +20.0 19.87 -10.8 31.9 05 0B 2815 0904 Alarm State:  0
Wed May 18 23:40:26 PDT 2022 ON: 19.99 +20.0 19.86 -10.5 32.2 0A 0B 2920 091A Alarm State:  0
Wed May 18 23:39:25 PDT 2022 ON: 20.00 +20.0 19.87 -10.6 32.2 05 0B 2A28 0904 Alarm State:  0
Wed May 18 23:38:23 PDT 2022 ON: 20.00 +20.0 19.88 -11.0 32.0 06 0A 2B13 0919 Alarm State:  0
Wed May 18 23:37:22 PDT 2022 ON: 20.00 +20.0 19.87 -11.1 31.6 06 0B 2C0B 0904 Alarm State:  0
Wed May 18 23:36:20 PDT 2022 ON: 19.99 +20.0 19.87 -10.7 32.0 00 0B 2D16 0918 Alarm State:  0
Wed May 18 23:35:19 PDT 2022 ON: 20.00 +20.0 19.86 -10.3 32.3 05 0B 2E20 0904 Alarm State:  0
Wed May 18 23:34:17 PDT 2022 ON: 20.00 +20.0 19.88 -10.6 32.1 06 0A 2F23 0926 Alarm State:  0
Wed May 18 23:33:16 PDT 2022 ON: 20.01 +20.0 19.87 -11.1 31.8 00 0B 3011 0911 Alarm State:  0
Wed May 18 23:32:14 PDT 2022 ON: 20.01 +20.0 19.89 -11.2 31.5 06 0A 2F08 0926 Alarm State:  0
Wed May 18 23:31:13 PDT 2022 ON: 19.99 +20.0 19.86 -10.4 32.2 05 0C 2F21 0A00 Alarm State:  0
Wed May 18 23:30:11 PDT 2022 ON: 20.00 +20.0 19.86 -10.2 32.4 00 0B 302C 091E Alarm State:  0
Wed May 18 23:29:10 PDT 2022 ON: 20.01 +20.0 19.88 -10.7 32.1 00 0A 3114 0909 Alarm State:  0
Wed May 18 23:28:08 PDT 2022 ON: 20.02 +20.0 19.88 -11.5 31.4 07 0A 301D 091E Alarm State:  0
Wed May 18 23:27:07 PDT 2022 ON: 20.01 +20.0 19.89 -11.2 31.4 01 0A 2F13 0A09 Alarm State:  0
Wed May 18 23:26:05 PDT 2022 ON: 19.99 +20.0 19.87 -10.2 32.2 05 0C 2F2F 0B0A Alarm State:  0
Wed May 18 23:25:04 PDT 2022 ON: 19.99 +20.0 19.85 - 9.6 32.5 06 0C 3106 0A01 Alarm State:  0
Wed May 18 23:24:02 PDT 2022 ON: 20.01 +20.0 19.87 -10.7 32.0 00 0B 3104 0924 Alarm State:  0
Wed May 18 23:23:01 PDT 2022 ON: 20.03 +20.0 19.90 -11.7 31.1 07 0A 2F2D 0A0F Alarm State:  0
Wed May 18 23:21:59 PDT 2022 ON: 20.01 +20.0 19.91 -11.0 31.2 06 0A 2E22 0B24 Alarm State:  0
Wed May 18 23:20:58 PDT 2022 ON: 19.98 +20.0 19.88 -10.1 32.1 07 0B 2F12 0B2C Alarm State:  0
Wed May 18 23:19:56 PDT 2022 ON: 19.97 +20.0 19.86 - 9.1 32.7 00 0C 301D 0A20 Alarm State:  0
Wed May 18 23:18:55 PDT 2022 ON: 19.98 +20.0 19.78 - 6.8 32.8 02 0F 3127 0915 Alarm State:  0
Wed May 18 23:17:53 PDT 2022 ON: 20.01 +20.0 19.88 -11.4 31.6 07 0A 3119 0916 Alarm State:  0
Wed May 18 23:16:52 PDT 2022 ON: 20.00 +20.0 19.88 -11.0 32.0 0D 0A 3113 0902 Alarm State:  0
Wed May 18 23:15:50 PDT 2022 ON: 20.01 +20.0 19.87 -10.9 32.1 00 0B 302F 0916 Alarm State:  0
Wed May 18 23:14:49 PDT 2022 ON: 20.02 +20.0 19.88 -11.2 31.9 06 0A 2F2C 0902 Alarm State:  0
Wed May 18 23:13:47 PDT 2022 ON: 20.02 +20.0 19.89 -11.5 31.6 10 0A 2E24 0916 Alarm State:  0
Wed May 18 23:12:46 PDT 2022 ON: 20.00 +20.0 19.87 -11.2 31.7 01 0B 2E2A 0902 Alarm State:  0
Wed May 18 23:11:44 PDT 2022 ON: 20.00 +20.0 19.88 -10.8 32.1 06 0A 2E13 0916 Alarm State:  0
Wed May 18 23:10:43 PDT 2022 ON: 20.01 +20.0 19.87 -10.9 32.1 00 0B 2E23 0902 Alarm State:  0
Wed May 18 23:09:41 PDT 2022 ON: 20.01 +20.0 19.88 -11.4 31.7 0E 0A 2D19 0916 Alarm State:  0
Wed May 18 23:08:40 PDT 2022 ON: 20.01 +20.0 19.87 -11.4 31.6 06 0B 2C0E 0902 Alarm State:  0
Wed May 18 23:07:38 PDT 2022 ON: 20.01 +20.0 19.88 -11.0 32.0 06 0A 2B24 0916 Alarm State:  0
Wed May 18 23:06:37 PDT 2022 ON: 20.00 +20.0 19.86 -10.8 32.1 08 0B 2C03 0902 Alarm State:  0
Wed May 18 23:05:35 PDT 2022 ON: 20.01 +20.0 19.88 -11.2 31.9 06 0A 2B1F 0916 Alarm State:  0
Wed May 18 23:04:34 PDT 2022 ON: 20.01 +20.0 19.88 -11.5 31.6 06 0A 2A14 0902 Alarm State:  0
Wed May 18 23:03:32 PDT 2022 ON: 20.01 +20.0 19.88 -11.3 31.6 06 0A 2912 0916 Alarm State:  0
Wed May 18 23:02:30 PDT 2022 ON: 20.00 +20.0 19.87 -10.8 32.2 05 0B 2A01 0900 Alarm State:  0
Wed May 18 23:01:29 PDT 2022 ON: 20.01 +20.0 19.87 -10.8 32.1 05 0B 2929 0914 Alarm State:  0
Wed May 18 23:00:27 PDT 2022 ON: 20.01 +20.0 19.88 -11.4 31.7 06 0A 281E 0900 Alarm State:  0
Wed May 18 22:59:26 PDT 2022 ON: 20.01 +20.0 19.89 -11.7 31.3 06 0A 2714 0914 Alarm State:  0
Wed May 18 22:58:24 PDT 2022 ON: 20.00 +20.0 19.88 -11.1 31.8 01 0A 2615 0900 Alarm State:  0
Wed May 18 22:57:23 PDT 2022 ON: 20.00 +20.0 19.87 -10.6 32.2 0B 0B 271F 0910 Alarm State:  0
Wed May 18 22:56:21 PDT 2022 ON: 20.01 +20.0 19.87 -10.5 32.2 00 0B 2729 0925 Alarm State:  0
Wed May 18 22:55:20 PDT 2022 ON: 20.02 +20.0 19.89 -11.8 31.4 02 0A 261F 0910 Alarm State:  0
Wed May 18 22:54:18 PDT 2022 ON: 20.02 +20.0 19.89 -12.1 30.9 02 0A 2514 0925 Alarm State:  0
Wed May 18 22:53:17 PDT 2022 ON: 20.00 +20.0 19.88 -10.9 31.9 05 0B 250B 0A06 Alarm State:  0
Wed May 18 22:52:15 PDT 2022 ON: 20.00 +20.0 19.87 -10.5 32.3 04 0B 2616 0905 Alarm State:  0
Wed May 18 22:51:14 PDT 2022 ON: 20.02 +20.0 19.90 -12.1 29.9 02 09 2522 0919 Alarm State:  0
Wed May 18 22:50:12 PDT 2022 ON: 20.00 +20.0 19.89 -11.0 31.6 05 0A 2508 0A05 Alarm State:  0
Wed May 18 22:49:11 PDT 2022 ON: 19.99 +20.0 19.84 - 9.7 32.5 05 0C 2612 0928 Alarm State:  0
Wed May 18 22:48:09 PDT 2022 ON: 20.02 +20.0 19.91 -12.8 30.4 04 09 252D 0906 Alarm State:  0
Wed May 18 22:47:08 PDT 2022 ON: 20.00 +20.0 19.88 -11.1 31.2 01 0B 2520 0A1A Alarm State:  0
Wed May 18 22:46:06 PDT 2022 ON: 19.99 +20.0 19.86 - 9.9 32.2 06 0C 262B 0A22 Alarm State:  0
Wed May 18 22:45:05 PDT 2022 ON: 19.99 +20.0 19.81 - 8.1 32.5 04 0E 2802 0917 Alarm State:  0
Wed May 18 22:44:03 PDT 2022 ON: 20.01 +20.0 19.90 -11.8 30.7 02 0A 270B 0A22 Alarm State:  0
Wed May 18 22:43:02 PDT 2022 ON: 19.99 +20.0 19.86 -10.5 31.8 0A 0C 2714 0B2A Alarm State:  0
Wed May 18 22:42:00 PDT 2022 ON: 19.98 +20.0 19.85 - 9.8 32.2 00 0C 281F 0A30 Alarm State:  0
Wed May 18 22:40:59 PDT 2022 ON: 19.97 +20.0 19.85 - 8.2 33.0 02 0C 2929 0925 Alarm State:  0
Wed May 18 22:39:57 PDT 2022 ON: 20.03 +20.0 19.91 -12.2 31.0 00 09 292B 0906 Alarm State:  0
Wed May 18 22:38:56 PDT 2022 ON: 20.02 +20.0 19.90 -11.7 30.9 0A 09 2821 091A Alarm State:  0
Wed May 18 22:37:54 PDT 2022 ON: 19.99 +20.0 19.87 -10.5 32.0 04 0B 2829 0A2D Alarm State:  0
Wed May 18 22:36:53 PDT 2022 ON: 20.00 +20.0 19.86 - 9.7 32.6 02 0C 2A00 0A08 Alarm State:  0
Wed May 18 22:35:51 PDT 2022 ON: 20.02 +20.0 19.89 -11.8 30.5 00 0A 2A0C 0913 Alarm State:  0
Wed May 18 22:34:50 PDT 2022 ON: 20.01 +20.0 19.89 -11.5 31.1 0D 0A 2902 0927 Alarm State:  0
Wed May 18 22:33:48 PDT 2022 ON: 20.00 +20.0 19.88 -10.5 31.8 00 0B 2916 0B11 Alarm State:  0
Wed May 18 22:32:47 PDT 2022 ON: 19.98 +20.0 19.87 - 9.7 32.5 02 0B 2A20 0A1A Alarm State:  0
Wed May 18 22:31:45 PDT 2022 ON: 19.98 +20.0 19.79 - 7.8 32.6 04 0F 2B2B 090E Alarm State:  0
Wed May 18 22:30:44 PDT 2022 ON: 20.02 +20.0 19.90 -12.0 30.7 08 0A 2B0A 0A0E Alarm State:  0
Wed May 18 22:29:42 PDT 2022 ON: 19.99 +20.0 19.87 -10.5 31.9 04 0C 2A31 0B0B Alarm State:  0
Wed May 18 22:28:41 PDT 2022 ON: 19.98 +20.0 19.84 - 9.7 32.6 06 0D 2C08 0A00 Alarm State:  0
Wed May 18 22:27:39 PDT 2022 ON: 20.02 +20.0 19.86 -10.7 31.2 00 0B 2C2E 091A Alarm State:  0
Wed May 18 22:26:38 PDT 2022 ON: 20.01 +20.0 19.89 -11.6 31.1 0E 0A 2B24 0A05 Alarm State:  0
Wed May 18 22:25:36 PDT 2022 ON: 19.99 +20.0 19.86 -10.3 32.1 0A 0C 2C1B 0A1E Alarm State:  0
Wed May 18 22:24:35 PDT 2022 ON: 19.99 +20.0 19.84 - 9.4 32.4 02 0C 2D25 0915 Alarm State:  0
Wed May 18 22:23:33 PDT 2022 ON: 20.01 +20.0 19.89 -11.9 30.9 08 0A 2D1F 0912 Alarm State:  0
Wed May 18 22:22:32 PDT 2022 ON: 20.00 +20.0 19.88 -11.1 31.7 0D 0A 2D26 0920 Alarm State:  0
Wed May 18 22:21:30 PDT 2022 ON: 20.00 +20.0 19.87 -10.2 32.4 0E 0B 2E31 0915 Alarm State:  0
Wed May 18 22:20:29 PDT 2022 ON: 20.01 +20.0 19.85 -10.5 31.9 08 0C 2F2F 0928 Alarm State:  0
Wed May 18 22:19:27 PDT 2022 ON: 20.01 +20.0 19.89 -11.7 31.1 07 0A 2E24 0914 Alarm State:  0
Wed May 18 22:18:26 PDT 2022 ON: 19.99 +20.0 19.86 -10.7 32.0 06 0B 2E2D 0912 Alarm State:  0
Wed May 18 22:17:24 PDT 2022 ON: 20.00 +20.0 19.87 -10.1 32.4 04 0B 3001 0928 Alarm State:  0
Wed May 18 22:16:23 PDT 2022 ON: 20.03 +20.0 19.89 -12.0 30.9 00 0A 2E30 0913 Alarm State:  0
Wed May 18 22:15:21 PDT 2022 ON: 20.01 +20.0 19.89 -11.5 30.9 0E 0A 2D25 0A28 Alarm State:  0
Wed May 18 22:14:20 PDT 2022 ON: 19.99 +20.0 19.88 -10.2 32.3 08 0C 2D06 0C11 Alarm State:  0
Wed May 18 22:13:18 PDT 2022 ON: 19.99 +20.0 19.86 - 9.6 32.6 03 0C 2E11 0B09 Alarm State:  0
Wed May 18 22:12:17 PDT 2022 ON: 20.01 +20.0 19.84 - 9.4 31.7 00 0D 2F0F 0A1C Alarm State:  0
Wed May 18 22:11:15 PDT 2022 ON: 20.01 +20.0 19.90 -11.0 31.3 01 0B 2E04 0C08 Alarm State:  0
Wed May 18 22:10:14 PDT 2022 ON: 19.99 +20.0 19.87 -10.1 31.9 00 0C 2E15 0C27 Alarm State:  0
Wed May 18 22:09:12 PDT 2022 ON: 19.98 +20.0 19.86 - 9.4 32.7 00 0C 2F20 0B1B Alarm State:  0
Wed May 18 22:08:11 PDT 2022 ON: 19.99 +20.0 19.80 - 7.4 32.6 05 0F 302A 0A10 Alarm State:  0
Wed May 18 22:07:09 PDT 2022 ON: 20.02 +20.0 19.90 -11.8 30.8 0E 0A 2F2F 0B1D Alarm State:  0
Wed May 18 22:06:08 PDT 2022 ON: 19.99 +20.0 19.89 -10.4 32.1 00 0B 2F2C 0C2F Alarm State:  0
Wed May 18 22:05:06 PDT 2022 ON: 19.97 +20.0 19.87 - 9.7 31.6 03 0C 3104 0B23 Alarm State:  0
Wed May 18 22:04:05 PDT 2022 ON: 19.94 +20.0 19.79 - 6.3 33.6 02 0F 320F 0A17 Alarm State:  0
Wed May 18 22:03:03 PDT 2022 ON: 20.02 +20.0 19.88 -10.8 31.8 00 0A 3313 091E Alarm State:  0
Wed May 18 22:02:02 PDT 2022 ON: 20.01 +20.0 19.88 -11.3 31.8 06 0A 3303 090A Alarm State:  0
Wed May 18 22:01:00 PDT 2022 ON: 20.01 +20.0 19.88 -11.2 31.9 06 0A 3215 091E Alarm State:  0
Wed May 18 21:59:59 PDT 2022 ON: 20.02 +20.0 19.88 -11.2 31.9 06 0A 3122 090A Alarm State:  0
Wed May 18 21:58:57 PDT 2022 ON: 20.00 +20.0 19.87 -11.2 31.9 06 0B 3113 091E Alarm State:  0
Wed May 18 21:57:55 PDT 2022 ON: 20.02 +20.0 19.89 -11.3 31.8 06 0A 3030 090A Alarm State:  0
Wed May 18 21:56:54 PDT 2022 ON: 20.00 +20.0 19.88 -11.2 31.9 06 0A 3106 091E Alarm State:  0
Wed May 18 21:55:52 PDT 2022 ON: 20.01 +20.0 19.88 -11.2 31.9 06 0A 311C 090A Alarm State:  0
Wed May 18 21:54:51 PDT 2022 ON: 20.01 +20.0 19.89 -11.2 31.9 06 0A 3103 091E Alarm State:  0
Wed May 18 21:53:49 PDT 2022 ON: 20.00 +20.0 19.87 -11.3 31.9 06 0B 3014 090A Alarm State:  0
Wed May 18 21:52:48 PDT 2022 ON: 20.00 +20.0 19.87 -11.2 31.9 06 0B 2F20 091E Alarm State:  0
Wed May 18 21:51:46 PDT 2022 ON: 20.01 +20.0 19.87 -11.2 31.9 06 0B 2F26 090A Alarm State:  0
Wed May 18 21:50:45 PDT 2022 ON: 20.01 +20.0 19.87 -11.1 31.9 06 0B 2E2C 091E Alarm State:  0
Wed May 18 21:49:43 PDT 2022 ON: 20.00 +20.0 19.87 -11.2 31.9 06 0B 2E16 090A Alarm State:  0
Wed May 18 21:48:42 PDT 2022 ON: 20.02 +20.0 19.88 -11.3 31.8 06 0A 2E05 091E Alarm State:  0
Wed May 18 21:47:40 PDT 2022 ON: 20.01 +20.0 19.88 -11.2 31.8 06 0A 2D12 090A Alarm State:  0
Wed May 18 21:46:39 PDT 2022 ON: 20.00 +20.0 19.87 -11.2 31.9 06 0B 2D05 091E Alarm State:  0
Wed May 18 21:45:37 PDT 2022 ON: 20.00 +20.0 19.87 -11.1 31.9 06 0B 2D21 090A Alarm State:  0
Wed May 18 21:44:36 PDT 2022 ON: 20.01 +20.0 19.88 -11.2 31.9 06 0A 2D2C 091E Alarm State:  0
Wed May 18 21:43:34 PDT 2022 ON: 20.01 +20.0 19.88 -11.3 31.8 06 0A 2D0E 090A Alarm State:  0
Wed May 18 21:42:33 PDT 2022 ON: 20.00 +20.0 19.88 -11.3 31.8 0D 0A 2C20 091E Alarm State:  0
Wed May 18 21:41:31 PDT 2022 ON: 20.01 +20.0 19.88 -11.2 31.9 06 0A 2B2D 090A Alarm State:  0
Wed May 18 21:40:30 PDT 2022 ON: 20.01 +20.0 19.88 -11.2 31.9 06 0A 2B0C 091E Alarm State:  0
Wed May 18 21:39:28 PDT 2022 ON: 20.01 +20.0 19.88 -11.2 31.9 06 0A 2B1A 090A Alarm State:  0
Wed May 18 21:38:27 PDT 2022 ON: 20.01 +20.0 19.87 -11.2 31.9 0F 0B 2B01 091E Alarm State:  0
Wed May 18 21:37:25 PDT 2022 ON: 20.01 +20.0 19.87 -11.2 31.9 06 0B 2A02 090A Alarm State:  0
Wed May 18 21:36:24 PDT 2022 ON: 20.01 +20.0 19.88 -11.1 31.9 00 0A 292A 091E Alarm State:  0
Wed May 18 21:35:22 PDT 2022 ON: 20.01 +20.0 19.88 -11.2 31.9 06 0A 2829 090A Alarm State:  0
Wed May 18 21:34:21 PDT 2022 ON: 20.00 +20.0 19.88 -11.2 31.9 06 0A 2919 091E Alarm State:  0
Wed May 18 21:33:19 PDT 2022 ON: 20.00 +20.0 19.87 -11.2 31.9 06 0B 282C 090A Alarm State:  0
Wed May 18 21:32:18 PDT 2022 ON: 20.01 +20.0 19.88 -11.2 31.9 06 0A 2823 091E Alarm State:  0
Wed May 18 21:31:16 PDT 2022 ON: 20.00 +20.0 19.87 -11.2 31.9 06 0B 2807 090A Alarm State:  0
Wed May 18 21:30:15 PDT 2022 ON: 20.00 +20.0 19.87 -11.1 31.9 06 0B 2802 0916 Alarm State:  0
Wed May 18 21:29:13 PDT 2022 ON: 20.01 +20.0 19.87 -11.2 31.9 06 0B 280C 0900 Alarm State:  0
Wed May 18 21:28:12 PDT 2022 ON: 20.00 +20.0 19.88 -11.2 31.9 06 0A 2728 0914 Alarm State:  0
Wed May 18 21:27:10 PDT 2022 ON: 20.00 +20.0 19.87 -11.2 31.9 06 0B 2807 0900 Alarm State:  0
Wed May 18 21:26:09 PDT 2022 ON: 20.01 +20.0 19.87 -11.1 31.9 06 0B 2802 0914 Alarm State:  0
Wed May 18 21:25:07 PDT 2022 ON: 20.01 +20.0 19.87 -11.2 31.9 06 0B 2804 0900 Alarm State:  0
Wed May 18 21:24:06 PDT 2022 ON: 20.01 +20.0 19.88 -11.3 31.8 06 0A 270C 0914 Alarm State:  0
Wed May 18 21:23:04 PDT 2022 ON: 20.00 +20.0 19.87 -11.2 31.8 06 0B 2726 0900 Alarm State:  0
Wed May 18 21:22:03 PDT 2022 ON: 20.01 +20.0 19.87 -11.2 31.9 06 0B 271B 0914 Alarm State:  0
Wed May 18 21:21:01 PDT 2022 ON: 20.01 +20.0 19.88 -11.1 31.9 06 0A 272F 0900 Alarm State:  0
Wed May 18 21:20:00 PDT 2022 ON: 20.01 +20.0 19.87 -11.1 31.9 09 0B 2702 0914 Alarm State:  0
Wed May 18 21:18:58 PDT 2022 ON: 20.01 +20.0 19.88 -11.2 31.9 06 0A 2611 0900 Alarm State:  0
Wed May 18 21:17:57 PDT 2022 ON: 20.01 +20.0 19.87 -11.3 31.8 06 0B 2529 0914 Alarm State:  0
Wed May 18 21:16:55 PDT 2022 ON: 20.00 +20.0 19.88 -11.1 31.9 00 0A 2513 0900 Alarm State:  0
Wed May 18 21:15:54 PDT 2022 ON: 20.01 +20.0 19.87 -11.1 31.9 06 0B 250A 0914 Alarm State:  0
Wed May 18 21:14:52 PDT 2022 ON: 20.00 +20.0 19.87 -11.2 31.9 06 0B 2520 0900 Alarm State:  0
Wed May 18 21:13:51 PDT 2022 ON: 20.00 +20.0 19.87 -11.1 31.9 06 0B 260A 0914 Alarm State:  0
Wed May 18 21:12:49 PDT 2022 ON: 20.00 +20.0 19.87 -11.2 31.9 06 0B 2525 0900 Alarm State:  0
Wed May 18 21:11:48 PDT 2022 ON: 20.00 +20.0 19.87 -11.3 31.8 0C 0B 2532 0914 Alarm State:  0
Wed May 18 21:10:46 PDT 2022 ON: 20.00 +20.0 19.87 -11.1 32.0 06 0B 251A 0900 Alarm State:  0
Wed May 18 21:09:45 PDT 2022 ON: 20.00 +20.0 19.87 -11.1 32.0 06 0B 2616 0914 Alarm State:  0
Wed May 18 21:08:43 PDT 2022 ON: 20.00 +20.0 19.88 -11.2 31.9 09 0A 2630 0900 Alarm State:  0
Wed May 18 21:07:42 PDT 2022 ON: 20.01 +20.0 19.87 -11.3 31.8 06 0B 2532 0914 Alarm State:  0
Wed May 18 21:06:40 PDT 2022 ON: 20.01 +20.0 19.88 -11.2 31.9 06 0A 251A 0900 Alarm State:  0
Wed May 18 21:05:39 PDT 2022 ON: 20.00 +20.0 19.88 -11.1 32.0 06 0A 2527 090C Alarm State:  0
Wed May 18 21:04:37 PDT 2022 ON: 20.00 +20.0 19.87 -11.1 32.0 06 0B 2624 091D Alarm State:  0
Wed May 18 21:03:36 PDT 2022 ON: 20.01 +20.0 19.88 -11.2 31.9 06 0A 261D 0908 Alarm State:  0
Wed May 18 21:02:34 PDT 2022 ON: 20.00 +20.0 19.87 -11.3 31.8 06 0B 2710 091D Alarm State:  0
Wed May 18 21:01:33 PDT 2022 ON: 20.01 +20.0 19.88 -11.2 31.9 06 0A 2723 0908 Alarm State:  0
Wed May 18 21:00:31 PDT 2022 ON: 20.00 +20.0 19.87 -11.1 32.0 06 0B 2802 091D Alarm State:  0
Wed May 18 20:59:30 PDT 2022 ON: 20.01 +20.0 19.88 -11.2 31.9 01 0A 2805 0908 Alarm State:  0
Wed May 18 20:58:28 PDT 2022 ON: 20.01 +20.0 19.87 -11.2 31.9 01 0B 2817 091B Alarm State:  0
Wed May 18 20:57:27 PDT 2022 ON: 20.01 +20.0 19.88 -11.2 31.9 06 0A 2818 0906 Alarm State:  0
Wed May 18 20:56:25 PDT 2022 ON: 20.00 +20.0 19.88 -11.2 31.9 06 0A 280C 091B Alarm State:  0
Wed May 18 20:55:23 PDT 2022 ON: 20.00 +20.0 19.87 -11.2 31.9 06 0B 2818 0905 Alarm State:  0
Wed May 18 20:54:22 PDT 2022 ON: 20.00 +20.0 19.88 -11.1 31.9 09 0A 281D 0911 Alarm State:  0
Wed May 18 20:53:20 PDT 2022 ON: 20.00 +20.0 19.88 -11.2 31.9 06 0A 2906 0922 Alarm State:  0
Wed May 18 20:52:19 PDT 2022 ON: 20.00 +20.0 19.88 -11.2 31.9 0F 0A 291F 090D Alarm State:  0
Wed May 18 20:51:17 PDT 2022 ON: 20.00 +20.0 19.87 -11.1 31.9 0C 0B 2A0C 0920 Alarm State:  0
Wed May 18 20:50:16 PDT 2022 ON: 20.00 +20.0 19.88 -11.1 32.0 06 0A 2B00 090B Alarm State:  0
Wed May 18 20:49:14 PDT 2022 ON: 20.00 +20.0 19.87 -11.2 31.9 06 0B 2C05 0920 Alarm State:  0
Wed May 18 20:48:13 PDT 2022 ON: 20.00 +20.0 19.87 -11.3 31.8 01 0B 2C30 090B Alarm State:  0
Wed May 18 20:47:11 PDT 2022 ON: 20.01 +20.0 19.87 -11.2 31.9 06 0B 2C2A 0920 Alarm State:  0
Wed May 18 20:46:10 PDT 2022 ON: 20.01 +20.0 19.88 -11.0 32.0 06 0A 2D02 0905 Alarm State:  0
Wed May 18 20:45:08 PDT 2022 ON: 20.00 +20.0 19.87 -11.1 32.0 06 0B 2D0E 0918 Alarm State:  0
Wed May 18 20:44:07 PDT 2022 ON: 20.01 +20.0 19.87 -11.2 31.8 06 0B 2C22 0901 Alarm State:  0
Wed May 18 20:43:05 PDT 2022 ON: 20.01 +20.0 19.88 -11.3 31.7 0C 0A 2B2D 0916 Alarm State:  0
Wed May 18 20:42:04 PDT 2022 ON: 20.00 +20.0 19.88 -11.1 31.9 06 0A 2B0E 0901 Alarm State:  0
Wed May 18 20:41:02 PDT 2022 ON: 20.00 +20.0 19.87 -11.0 32.0 06 0B 2C17 0912 Alarm State:  0
Wed May 18 20:40:01 PDT 2022 ON: 20.00 +20.0 19.87 -11.1 31.9 09 0B 2C08 0926 Alarm State:  0
Wed May 18 20:38:59 PDT 2022 ON: 20.00 +20.0 19.87 -11.3 31.8 0C 0B 2C26 090E Alarm State:  0
Wed May 18 20:37:58 PDT 2022 ON: 20.01 +20.0 19.88 -11.2 31.8 06 0A 2C05 0922 Alarm State:  0
Wed May 18 20:36:56 PDT 2022 ON: 20.00 +20.0 19.87 -11.0 32.0 06 0B 2C17 090A Alarm State:  0
Wed May 18 20:35:55 PDT 2022 ON: 20.01 +20.0 19.87 -11.0 32.0 00 0B 2C22 091E Alarm State:  0
Wed May 18 20:34:53 PDT 2022 ON: 20.00 +20.0 19.87 -11.2 31.9 06 0B 2C14 090A Alarm State:  0
Wed May 18 20:33:52 PDT 2022 ON: 20.01 +20.0 19.87 -11.4 31.7 06 0B 2C0F 091E Alarm State:  0
Wed May 18 20:32:50 PDT 2022 ON: 20.00 +20.0 19.87 -11.2 31.8 01 0B 2B06 090A Alarm State:  0
Wed May 18 20:31:49 PDT 2022 ON: 20.00 +20.0 19.87 -10.9 32.1 0B 0B 2C10 0912 Alarm State:  0
Wed May 18 20:30:47 PDT 2022 ON: 20.01 +20.0 19.88 -11.0 32.0 06 0A 2B2F 0927 Alarm State:  0
Wed May 18 20:29:46 PDT 2022 ON: 20.01 +20.0 19.88 -11.3 31.8 06 0A 2B20 0912 Alarm State:  0
Wed May 18 20:28:44 PDT 2022 ON: 20.00 +20.0 19.88 -11.4 31.6 07 0A 2C1D 0927 Alarm State:  0
Wed May 18 20:27:43 PDT 2022 ON: 20.00 +20.0 19.87 -11.1 31.8 06 0B 2D23 0912 Alarm State:  0
Wed May 18 20:26:41 PDT 2022 ON: 20.01 +20.0 19.87 -10.8 32.2 06 0B 2D05 0927 Alarm State:  0
Wed May 18 20:25:40 PDT 2022 ON: 20.01 +20.0 19.87 -11.0 32.0 0A 0B 2E05 0912 Alarm State:  0
Wed May 18 20:24:38 PDT 2022 ON: 20.01 +20.0 19.88 -11.5 31.8 07 0A 2D0E 0927 Alarm State:  0
Wed May 18 20:23:37 PDT 2022 ON: 20.01 +20.0 19.89 -11.4 31.8 10 0A 2C16 0912 Alarm State:  0
Wed May 18 20:22:35 PDT 2022 ON: 20.01 +20.0 19.88 -11.3 31.9 06 0A 2B0D 0927 Alarm State:  0
Wed May 18 20:21:34 PDT 2022 ON: 20.01 +20.0 19.87 -11.4 31.8 06 0B 2B00 0912 Alarm State:  0
Wed May 18 20:20:32 PDT 2022 ON: 20.02 +20.0 19.88 -11.5 31.7 00 0A 2928 0927 Alarm State:  0
Wed May 18 20:19:31 PDT 2022 ON: 20.01 +20.0 19.87 -11.5 31.7 06 0B 2927 0912 Alarm State:  0
Wed May 18 20:18:29 PDT 2022 ON: 20.01 +20.0 19.87 -11.3 31.9 00 0B 2901 0927 Alarm State:  0
Wed May 18 20:17:28 PDT 2022 ON: 20.01 +20.0 19.88 -11.3 31.9 06 0A 2819 0912 Alarm State:  0
Wed May 18 20:16:26 PDT 2022 ON: 20.01 +20.0 19.87 -11.4 31.9 06 0B 272E 0927 Alarm State:  0
Wed May 18 20:15:25 PDT 2022 ON: 20.02 +20.0 19.88 -11.4 31.8 06 0A 2705 0912 Alarm State:  0
Wed May 18 20:14:23 PDT 2022 ON: 20.01 +20.0 19.88 -11.5 31.7 06 0A 252D 0927 Alarm State:  0
Wed May 18 20:13:22 PDT 2022 ON: 20.01 +20.0 19.89 -11.4 31.8 06 0A 2423 0912 Alarm State:  0
Wed May 18 20:12:20 PDT 2022 ON: 20.01 +20.0 19.88 -11.3 31.8 06 0A 2403 0927 Alarm State:  0
Wed May 18 20:11:19 PDT 2022 ON: 20.01 +20.0 19.87 -11.3 31.9 05 0B 2319 0912 Alarm State:  0
Wed May 18 20:10:17 PDT 2022 ON: 20.00 +20.0 19.87 -11.5 31.7 06 0B 2216 0927 Alarm State:  0
Wed May 18 20:09:16 PDT 2022 ON: 20.02 +20.0 19.88 -11.5 31.7 06 0A 2116 0912 Alarm State:  0
Wed May 18 20:08:14 PDT 2022 ON: 20.01 +20.0 19.89 -11.4 31.8 06 0A 201B 0927 Alarm State:  0
Wed May 18 20:07:13 PDT 2022 ON: 20.00 +20.0 19.87 -11.2 32.0 05 0B 2006 0912 Alarm State:  0
Wed May 18 20:06:11 PDT 2022 ON: 20.01 +20.0 19.88 -11.4 31.9 06 0A 1F05 0927 Alarm State:  0
Wed May 18 20:05:10 PDT 2022 ON: 20.02 +20.0 19.89 -11.7 31.6 06 0A 1D2E 0912 Alarm State:  0
Wed May 18 20:04:08 PDT 2022 ON: 20.02 +20.0 19.90 -11.7 31.4 02 09 1C23 0927 Alarm State:  0
Wed May 18 20:03:07 PDT 2022 ON: 20.01 +20.0 19.87 -11.1 32.0 05 0B 1B31 0912 Alarm State:  0
Wed May 18 20:02:05 PDT 2022 ON: 20.01 +20.0 19.87 -11.1 32.0 05 0B 1B13 0927 Alarm State:  0
Wed May 18 20:01:04 PDT 2022 ON: 20.02 +20.0 19.89 -11.6 31.8 00 0A 1A09 0912 Alarm State:  0
Wed May 18 20:00:02 PDT 2022 ON: 20.02 +20.0 19.90 -12.0 31.3 06 09 1831 0927 Alarm State:  0
Wed May 18 19:59:01 PDT 2022 ON: 20.01 +20.0 19.88 -11.7 31.4 02 0A 172D 0912 Alarm State:  0
Wed May 18 19:57:59 PDT 2022 ON: 20.01 +20.0 19.87 -11.1 32.0 04 0B 162A 0927 Alarm State:  0
Wed May 18 19:56:58 PDT 2022 ON: 20.00 +20.0 19.88 -11.0 31.9 07 0A 162F 0912 Alarm State:  0
Wed May 18 19:55:56 PDT 2022 ON: 20.01 +20.0 19.88 -11.0 31.9 01 0A 1718 0927 Alarm State:  0
Wed May 18 19:54:55 PDT 2022 ON: 20.00 +20.0 19.88 -11.0 32.0 04 0A 1731 0912 Alarm State:  0
Wed May 18 19:53:53 PDT 2022 ON: 20.00 +20.0 19.87 -11.0 32.0 04 0B 1804 0927 Alarm State:  0
Wed May 18 19:52:52 PDT 2022 ON: 20.00 +20.0 19.88 -11.0 31.9 00 0A 190E 090E Alarm State:  0
Wed May 18 19:51:50 PDT 2022 ON: 20.00 +20.0 19.87 -11.0 31.9 05 0B 1922 0923 Alarm State:  0
Wed May 18 19:50:48 PDT 2022 ON: 20.00 +20.0 19.87 -11.0 32.0 05 0B 1A04 0906 Alarm State:  0
Wed May 18 19:49:47 PDT 2022 ON: 20.01 +20.0 19.88 -11.0 32.0 05 0A 1A1C 0919 Alarm State:  0
Wed May 18 19:48:45 PDT 2022 ON: 20.01 +20.0 19.88 -11.0 31.9 0B 0A 1A2F 0927 Alarm State:  0
Wed May 18 19:47:44 PDT 2022 ON: 20.00 +20.0 19.87 -11.0 32.0 05 0B 1B12 090F Alarm State:  0
Wed May 18 19:46:42 PDT 2022 ON: 20.00 +20.0 19.87 -11.0 32.0 05 0B 1B25 0923 Alarm State:  0
Wed May 18 19:45:41 PDT 2022 ON: 20.00 +20.0 19.87 -11.0 32.0 05 0B 1C0A 090F Alarm State:  0
Wed May 18 19:44:39 PDT 2022 ON: 20.01 +20.0 19.88 -10.9 32.0 04 0A 1C1B 0923 Alarm State:  0
Wed May 18 19:43:38 PDT 2022 ON: 20.01 +20.0 19.88 -11.0 32.0 00 0A 1B2C 090F Alarm State:  0
Wed May 18 19:42:36 PDT 2022 ON: 20.00 +20.0 19.88 -11.1 31.9 05 0A 1C27 0920 Alarm State:  0
Wed May 18 19:41:35 PDT 2022 ON: 20.00 +20.0 19.87 -11.0 31.9 05 0B 1C12 090B Alarm State:  0
Wed May 18 19:40:33 PDT 2022 ON: 19.99 +20.0 19.87 -10.8 32.1 00 0B 1D1D 0920 Alarm State:  0
Wed May 18 19:39:32 PDT 2022 ON: 20.00 +20.0 19.88 -11.0 32.0 05 0A 1E21 0909 Alarm State:  0
Wed May 18 19:38:30 PDT 2022 ON: 20.00 +20.0 19.88 -11.2 31.8 05 0A 1E0D 091E Alarm State:  0
Wed May 18 19:37:29 PDT 2022 ON: 20.01 +20.0 19.88 -11.1 31.9 01 0A 1E32 0928 Alarm State:  0
Wed May 18 19:36:27 PDT 2022 ON: 20.01 +20.0 19.88 -10.9 32.0 00 0A 1F11 0906 Alarm State:  0
Wed May 18 19:35:26 PDT 2022 ON: 20.00 +20.0 19.87 -11.0 32.0 00 0B 1F1A 090E Alarm State:  0
Wed May 18 19:34:24 PDT 2022 ON: 20.00 +20.0 19.88 -11.2 31.9 0E 0A 1F22 0923 Alarm State:  0
Wed May 18 19:33:23 PDT 2022 ON: 20.01 +20.0 19.87 -11.1 31.9 05 0B 1F2B 090E Alarm State:  0
Wed May 18 19:32:21 PDT 2022 ON: 20.00 +20.0 19.86 -10.9 32.0 04 0B 2016 0921 Alarm State:  0
Wed May 18 19:31:20 PDT 2022 ON: 20.01 +20.0 19.88 -11.0 32.0 0B 0A 2029 090A Alarm State:  0
Wed May 18 19:30:18 PDT 2022 ON: 20.01 +20.0 19.88 -11.1 32.0 05 0A 2100 0917 Alarm State:  0
Wed May 18 19:29:17 PDT 2022 ON: 20.00 +20.0 19.86 -11.1 31.9 05 0B 2113 0900 Alarm State:  0
Wed May 18 19:28:15 PDT 2022 ON: 20.00 +20.0 19.87 -11.0 32.0 00 0B 2121 0915 Alarm State:  0
Wed May 18 19:27:14 PDT 2022 ON: 20.01 +20.0 19.87 -11.0 31.9 05 0B 2207 0925 Alarm State:  0
Wed May 18 19:26:12 PDT 2022 ON: 20.00 +20.0 19.88 -10.9 32.0 04 0A 221F 0909 Alarm State:  0
Wed May 18 19:25:11 PDT 2022 ON: 20.00 +20.0 19.86 -11.1 32.0 05 0B 2313 0913 Alarm State:  0
Wed May 18 19:24:09 PDT 2022 ON: 20.01 +20.0 19.88 -11.3 31.7 00 0A 2307 0922 Alarm State:  0
Wed May 18 19:23:08 PDT 2022 ON: 20.01 +20.0 19.88 -11.2 31.8 01 0A 2229 0909 Alarm State:  0
Wed May 18 19:22:06 PDT 2022 ON: 20.00 +20.0 19.87 -10.7 32.2 04 0B 231A 090A Alarm State:  0
Wed May 18 19:21:05 PDT 2022 ON: 20.01 +20.0 19.88 -10.8 32.2 00 0A 241E 091E Alarm State:  0
Wed May 18 19:20:03 PDT 2022 ON: 20.00 +20.0 19.88 -11.1 31.9 05 0A 232F 0904 Alarm State:  0
Wed May 18 19:19:02 PDT 2022 ON: 20.01 +20.0 19.88 -11.3 31.6 00 0A 2328 0918 Alarm State:  0
Wed May 18 19:18:00 PDT 2022 ON: 20.00 +20.0 19.87 -11.0 31.9 05 0B 2322 0923 Alarm State:  0
Wed May 18 19:16:59 PDT 2022 ON: 20.00 +20.0 19.88 -10.6 32.2 00 0A 242C 090C Alarm State:  0
Wed May 18 19:15:57 PDT 2022 ON: 20.01 +20.0 19.87 -11.0 32.0 06 0B 2521 0919 Alarm State:  0
Wed May 18 19:14:56 PDT 2022 ON: 20.00 +20.0 19.87 -11.2 31.8 00 0B 2514 0904 Alarm State:  0
Wed May 18 19:13:54 PDT 2022 ON: 19.99 +20.0 19.87 -11.2 31.7 06 0B 251C 0919 Alarm State:  0
Wed May 18 19:12:53 PDT 2022 ON: 20.01 +20.0 19.87 -11.0 32.0 0C 0B 2604 0900 Alarm State:  0
Wed May 18 19:11:51 PDT 2022 ON: 20.00 +20.0 19.87 -10.6 32.2 05 0B 270B 0920 Alarm State:  0
Wed May 18 19:10:50 PDT 2022 ON: 20.00 +20.0 19.87 -10.9 32.0 00 0B 272E 0920 Alarm State:  0
Wed May 18 19:09:48 PDT 2022 ON: 20.00 +20.0 19.87 -11.4 31.6 02 0B 2716 090C Alarm State:  0
Wed May 18 19:08:47 PDT 2022 ON: 20.00 +20.0 19.88 -11.3 31.5 06 0A 2717 091A Alarm State:  0
Wed May 18 19:07:45 PDT 2022 ON: 20.00 +20.0 19.87 -10.6 32.1 05 0B 281C 092A Alarm State:  0
Wed May 18 19:06:44 PDT 2022 ON: 19.99 +20.0 19.85 -10.3 32.4 00 0C 2926 0903 Alarm State:  0
Wed May 18 19:05:42 PDT 2022 ON: 20.01 +20.0 19.87 -11.0 32.0 01 0B 2A01 0912 Alarm State:  0
Wed May 18 19:04:41 PDT 2022 ON: 20.02 +20.0 19.89 -11.9 31.1 07 0A 282A 0926 Alarm State:  0
Wed May 18 19:03:39 PDT 2022 ON: 20.02 +20.0 19.90 -11.5 31.4 06 0A 271F 0A12 Alarm State:  0
Wed May 18 19:02:38 PDT 2022 ON: 20.00 +20.0 19.89 -11.0 31.4 0C 0B 2629 0B26 Alarm State:  0
Wed May 18 19:01:36 PDT 2022 ON: 19.98 +20.0 19.86 -10.1 32.2 0A 0C 2801 0B00 Alarm State:  0
Wed May 18 19:00:35 PDT 2022 ON: 19.97 +20.0 19.83 - 8.9 32.8 00 0D 290B 0927 Alarm State:  0
Wed May 18 18:59:33 PDT 2022 ON: 20.02 +20.0 19.91 -12.5 30.4 03 09 2913 0A04 Alarm State:  0
Wed May 18 18:58:32 PDT 2022 ON: 20.00 +20.0 19.88 -10.9 31.5 08 0B 2829 0B10 Alarm State:  0
Wed May 18 18:57:30 PDT 2022 ON: 19.99 +20.0 19.86 - 9.8 32.4 0A 0C 2A01 0A24 Alarm State:  0
Wed May 18 18:56:29 PDT 2022 ON: 20.00 +20.0 19.83 - 8.8 32.0 00 0D 2B09 0906 Alarm State:  0
Wed May 18 18:55:27 PDT 2022 ON: 20.01 +20.0 19.90 -11.9 30.6 0E 0A 2A06 0A1B Alarm State:  0
Wed May 18 18:54:26 PDT 2022 ON: 19.99 +20.0 19.86 -10.1 32.3 00 0C 2A25 0A25 Alarm State:  0
Wed May 18 18:53:24 PDT 2022 ON: 19.98 +20.0 19.85 - 9.2 32.6 05 0C 2B30 0919 Alarm State:  0
Wed May 18 18:52:23 PDT 2022 ON: 20.01 +20.0 19.90 -12.1 30.6 0E 0A 2B25 0A0F Alarm State:  0
Wed May 18 18:51:21 PDT 2022 ON: 19.99 +20.0 19.87 -10.4 32.4 00 0B 2C0E 0A11 Alarm State:  0
Wed May 18 18:50:20 PDT 2022 ON: 20.01 +20.0 19.84 -10.0 31.8 03 0C 2D10 0924 Alarm State:  0
Wed May 18 18:49:18 PDT 2022 ON: 20.01 +20.0 19.89 -11.7 31.2 0E 0A 2C13 0A10 Alarm State:  0
Wed May 18 18:48:17 PDT 2022 ON: 19.99 +20.0 19.86 -10.1 32.4 0A 0C 2D13 0A0B Alarm State:  0
Wed May 18 18:47:15 PDT 2022 ON: 20.00 +20.0 19.84 - 9.4 32.3 00 0C 2E1E 0911 Alarm State:  0
Wed May 18 18:46:14 PDT 2022 ON: 20.01 +20.0 19.89 -12.0 30.9 08 0A 2D24 0925 Alarm State:  0
Wed May 18 18:45:12 PDT 2022 ON: 20.01 +20.0 19.88 -11.0 31.2 01 0B 2C21 0B11 Alarm State:  0
Wed May 18 18:44:10 PDT 2022 ON: 19.98 +20.0 19.87 -10.0 32.1 00 0C 2D25 0B19 Alarm State:  0
Wed May 18 18:43:09 PDT 2022 ON: 19.97 +20.0 19.84 - 8.6 32.9 02 0D 2E30 0A0D Alarm State:  0
Wed May 18 18:42:07 PDT 2022 ON: 20.01 +20.0 19.88 -11.5 31.6 07 0A 2F1C 0928 Alarm State:  0
Wed May 18 18:41:06 PDT 2022 ON: 20.00 +20.0 19.87 -11.2 31.8 06 0B 2F04 0914 Alarm State:  0
Wed May 18 18:40:04 PDT 2022 ON: 20.00 +20.0 19.88 -11.0 32.1 06 0A 2E1A 0928 Alarm State:  0
Wed May 18 18:39:03 PDT 2022 ON: 20.00 +20.0 19.88 -11.1 32.0 00 0A 2E28 0914 Alarm State:  0
Wed May 18 18:38:01 PDT 2022 ON: 20.01 +20.0 19.87 -11.4 31.7 07 0B 2E01 0928 Alarm State:  0
Wed May 18 18:37:00 PDT 2022 ON: 20.00 +20.0 19.87 -11.3 31.8 06 0B 2D10 0914 Alarm State:  0
Wed May 18 18:35:58 PDT 2022 ON: 20.01 +20.0 19.88 -11.0 32.0 06 0A 2D07 0928 Alarm State:  0
Wed May 18 18:34:57 PDT 2022 ON: 20.00 +20.0 19.86 -11.1 32.0 06 0B 2D07 0914 Alarm State:  0
Wed May 18 18:33:55 PDT 2022 ON: 20.00 +20.0 19.87 -11.3 31.8 09 0B 2C1F 0928 Alarm State:  0
Wed May 18 18:32:54 PDT 2022 ON: 20.01 +20.0 19.87 -11.3 31.7 06 0B 2B28 0914 Alarm State:  0
Wed May 18 18:31:52 PDT 2022 ON: 20.00 +20.0 19.87 -11.2 31.9 06 0B 2B24 0900 Alarm State:  0
Wed May 18 18:30:51 PDT 2022 ON: 20.00 +20.0 19.87 -11.0 32.1 01 0B 2C02 0912 Alarm State:  0
Wed May 18 18:29:49 PDT 2022 ON: 20.01 +20.0 19.88 -11.1 32.0 00 0A 2B2F 0927 Alarm State:  0
Wed May 18 18:28:48 PDT 2022 ON: 20.01 +20.0 19.88 -11.4 31.7 06 0A 2B12 0912 Alarm State:  0
Wed May 18 18:27:46 PDT 2022 ON: 20.01 +20.0 19.88 -11.4 31.6 06 0A 2A23 0927 Alarm State:  0
Wed May 18 18:26:45 PDT 2022 ON: 20.00 +20.0 19.87 -11.1 31.9 06 0B 2A28 0912 Alarm State:  0
Wed May 18 18:25:43 PDT 2022 ON: 20.01 +20.0 19.87 -11.0 32.1 06 0B 2A2C 0923 Alarm State:  0
Wed May 18 18:24:42 PDT 2022 ON: 20.01 +20.0 19.88 -11.3 31.8 00 0A 2A03 090E Alarm State:  0
Wed May 18 18:23:40 PDT 2022 ON: 20.01 +20.0 19.87 -11.2 31.9 09 0B 2922 0923 Alarm State:  0
Wed May 18 18:22:39 PDT 2022 ON: 20.00 +20.0 19.87 -11.3 31.8 00 0B 2909 090E Alarm State:  0
Wed May 18 18:21:37 PDT 2022 ON: 20.00 +20.0 19.88 -11.2 31.9 06 0A 2A04 0923 Alarm State:  0
Wed May 18 18:20:36 PDT 2022 ON: 20.00 +20.0 19.86 -11.0 32.0 06 0B 2A25 090C Alarm State:  0
Wed May 18 18:19:34 PDT 2022 ON: 20.00 +20.0 19.86 -11.2 32.0 01 0B 2A1F 091F Alarm State:  0
Wed May 18 18:18:33 PDT 2022 ON: 20.02 +20.0 19.88 -11.3 31.8 06 0A 2929 090A Alarm State:  0
Wed May 18 18:17:31 PDT 2022 ON: 20.01 +20.0 19.87 -11.4 31.8 06 0B 2826 091F Alarm State:  0
Wed May 18 18:16:30 PDT 2022 ON: 20.01 +20.0 19.87 -11.4 31.7 02 0B 2815 090A Alarm State:  0
Wed May 18 18:15:28 PDT 2022 ON: 20.00 +20.0 19.88 -11.1 31.9 01 0A 2900 091F Alarm State:  0
Wed May 18 18:14:27 PDT 2022 ON: 20.01 +20.0 19.88 -10.8 32.2 05 0A 2919 0900 Alarm State:  0
Wed May 18 18:13:25 PDT 2022 ON: 20.02 +20.0 19.89 -11.1 32.0 00 0A 2925 0915 Alarm State:  0
Wed May 18 18:12:24 PDT 2022 ON: 20.01 +20.0 19.88 -11.4 31.7 0A 0A 2904 0900 Alarm State:  0
Wed May 18 18:11:22 PDT 2022 ON: 20.01 +20.0 19.88 -11.3 31.8 06 0A 2801 0915 Alarm State:  0
Wed May 18 18:10:21 PDT 2022 ON: 20.00 +20.0 19.87 -11.1 31.9 06 0B 271D 0900 Alarm State:  0
Wed May 18 18:09:19 PDT 2022 ON: 19.99 +20.0 19.87 -11.0 32.0 06 0B 2816 0915 Alarm State:  0
Wed May 18 18:08:18 PDT 2022 ON: 20.01 +20.0 19.88 -11.2 32.0 06 0A 2724 0927 Alarm State:  0
Wed May 18 18:07:16 PDT 2022 ON: 20.01 +20.0 19.87 -11.4 31.7 10 0B 270A 0913 Alarm State:  0
Wed May 18 18:06:15 PDT 2022 ON: 20.00 +20.0 19.87 -11.3 31.7 06 0B 262E 0927 Alarm State:  0
Wed May 18 18:05:13 PDT 2022 ON: 20.00 +20.0 19.88 -11.1 31.9 06 0A 261E 0913 Alarm State:  0
Wed May 18 18:04:12 PDT 2022 ON: 20.00 +20.0 19.87 -11.0 32.1 06 0B 2700 0927 Alarm State:  0
Wed May 18 18:03:10 PDT 2022 ON: 20.00 +20.0 19.87 -11.2 31.9 06 0B 2706 090F Alarm State:  0
Wed May 18 18:02:09 PDT 2022 ON: 20.01 +20.0 19.88 -11.4 31.7 06 0A 260C 0923 Alarm State:  0
Wed May 18 18:01:07 PDT 2022 ON: 20.01 +20.0 19.88 -11.3 31.8 06 0A 252F 090F Alarm State:  0
Wed May 18 18:00:06 PDT 2022 ON: 20.01 +20.0 19.88 -11.1 31.9 06 0A 2619 0923 Alarm State:  0
Wed May 18 17:59:04 PDT 2022 ON: 20.01 +20.0 19.87 -10.9 32.1 05 0B 2607 090F Alarm State:  0
Wed May 18 17:58:03 PDT 2022 ON: 20.01 +20.0 19.87 -11.1 32.0 06 0B 2531 091F Alarm State:  0
Wed May 18 17:57:01 PDT 2022 ON: 20.01 +20.0 19.88 -11.3 31.8 06 0A 2426 090B Alarm State:  0
Wed May 18 17:56:00 PDT 2022 ON: 20.00 +20.0 19.87 -11.4 31.7 06 0B 2401 091F Alarm State:  0
Wed May 18 17:54:58 PDT 2022 ON: 20.00 +20.0 19.87 -11.3 31.7 00 0B 2320 090B Alarm State:  0
Wed May 18 17:53:57 PDT 2022 ON: 20.00 +20.0 19.86 -11.0 32.0 01 0B 231D 0911 Alarm State:  0
Wed May 18 17:52:55 PDT 2022 ON: 20.00 +20.0 19.87 -10.9 32.1 04 0B 240C 0922 Alarm State:  0
Wed May 18 17:51:54 PDT 2022 ON: 20.01 +20.0 19.88 -11.2 31.9 08 0A 2324 090D Alarm State:  0
Wed May 18 17:50:52 PDT 2022 ON: 20.00 +20.0 19.87 -11.6 31.5 0C 0B 2225 0922 Alarm State:  0
Wed May 18 17:49:51 PDT 2022 ON: 20.00 +20.0 19.88 -11.3 31.6 01 0A 2216 090D Alarm State:  0
Wed May 18 17:48:49 PDT 2022 ON: 20.00 +20.0 19.87 -10.9 32.1 04 0B 2313 091E Alarm State:  0
Wed May 18 17:47:48 PDT 2022 ON: 20.01 +20.0 19.87 -11.1 32.0 0E 0B 2326 0909 Alarm State:  0
Wed May 18 17:46:46 PDT 2022 ON: 20.01 +20.0 19.88 -11.3 31.8 05 0A 230E 091A Alarm State:  0
Wed May 18 17:45:45 PDT 2022 ON: 20.01 +20.0 19.89 -11.4 31.8 06 0A 230B 0905 Alarm State:  0
Wed May 18 17:44:43 PDT 2022 ON: 20.01 +20.0 19.87 -11.6 31.4 06 0B 2317 091A Alarm State:  0
Wed May 18 17:43:41 PDT 2022 ON: 20.00 +20.0 19.87 -11.1 31.9 05 0B 2322 0905 Alarm State:  0
Wed May 18 17:42:40 PDT 2022 ON: 20.00 +20.0 19.87 -10.7 32.2 07 0B 2425 0904 Alarm State:  0
Wed May 18 17:41:38 PDT 2022 ON: 20.01 +20.0 19.88 -11.0 32.0 06 0A 2420 0918 Alarm State:  0
Wed May 18 17:40:37 PDT 2022 ON: 20.00 +20.0 19.87 -11.6 31.6 06 0B 232D 0904 Alarm State:  0
Wed May 18 17:39:35 PDT 2022 ON: 20.01 +20.0 19.89 -11.4 31.6 06 0A 2322 0918 Alarm State:  0
Wed May 18 17:38:34 PDT 2022 ON: 20.01 +20.0 19.88 -11.1 32.0 05 0A 231C 0904 Alarm State:  0
Wed May 18 17:37:32 PDT 2022 ON: 20.01 +20.0 19.87 -11.1 32.0 05 0B 231D 0918 Alarm State:  0
Wed May 18 17:36:31 PDT 2022 ON: 20.01 +20.0 19.88 -11.2 32.0 05 0A 231D 0904 Alarm State:  0
Wed May 18 17:35:29 PDT 2022 ON: 20.00 +20.0 19.87 -11.2 31.8 05 0B 230E 0918 Alarm State:  0
Wed May 18 17:34:28 PDT 2022 ON: 20.01 +20.0 19.88 -11.1 31.9 05 0A 231A 0904 Alarm State:  0
Wed May 18 17:33:26 PDT 2022 ON: 20.00 +20.0 19.88 -11.3 31.9 05 0A 2307 0916 Alarm State:  0
Wed May 18 17:32:25 PDT 2022 ON: 20.00 +20.0 19.88 -11.3 31.7 05 0A 2230 0902 Alarm State:  0
Wed May 18 17:31:23 PDT 2022 ON: 20.00 +20.0 19.88 -10.8 32.1 04 0A 2324 0912 Alarm State:  0
Wed May 18 17:30:22 PDT 2022 ON: 20.01 +20.0 19.88 -10.9 32.1 08 0A 241F 091B Alarm State:  0
Wed May 18 17:29:20 PDT 2022 ON: 20.00 +20.0 19.87 -11.4 31.7 09 0B 2408 0906 Alarm State:  0
Wed May 18 17:28:19 PDT 2022 ON: 20.01 +20.0 19.88 -11.5 31.6 0C 0A 2327 091B Alarm State:  0
Wed May 18 17:27:17 PDT 2022 ON: 20.01 +20.0 19.88 -11.2 31.8 05 0A 2332 0902 Alarm State:  0
Wed May 18 17:26:16 PDT 2022 ON: 20.01 +20.0 19.87 -11.0 32.0 05 0B 2413 0911 Alarm State:  0
Wed May 18 17:25:14 PDT 2022 ON: 20.01 +20.0 19.88 -11.0 32.0 06 0A 2417 091E Alarm State:  0
Wed May 18 17:24:13 PDT 2022 ON: 20.00 +20.0 19.87 -11.2 31.9 00 0B 2426 0909 Alarm State:  0
Wed May 18 17:23:11 PDT 2022 ON: 20.01 +20.0 19.89 -11.5 31.5 06 0A 232B 091E Alarm State:  0
Wed May 18 17:22:10 PDT 2022 ON: 20.01 +20.0 19.88 -11.1 31.8 06 0A 2409 0909 Alarm State:  0
Wed May 18 17:21:08 PDT 2022 ON: 20.00 +20.0 19.87 -10.9 32.1 04 0B 231E 091E Alarm State:  0
Wed May 18 17:20:07 PDT 2022 ON: 20.00 +20.0 19.87 -11.0 32.0 05 0B 2410 0903 Alarm State:  0
Wed May 18 17:19:05 PDT 2022 ON: 20.00 +20.0 19.88 -11.2 31.8 06 0A 2418 0918 Alarm State:  0
Wed May 18 17:18:04 PDT 2022 ON: 20.00 +20.0 19.87 -11.4 31.7 06 0B 2324 0903 Alarm State:  0
Wed May 18 17:17:02 PDT 2022 ON: 20.01 +20.0 19.88 -11.4 31.6 02 0A 2326 0918 Alarm State:  0
Wed May 18 17:16:01 PDT 2022 ON: 20.01 +20.0 19.87 -10.9 32.1 04 0B 240A 0922 Alarm State:  0
Wed May 18 17:14:59 PDT 2022 ON: 20.00 +20.0 19.87 -11.0 32.1 05 0B 241C 0904 Alarm State:  0
Wed May 18 17:13:58 PDT 2022 ON: 20.01 +20.0 19.87 -11.2 31.9 00 0B 2423 0918 Alarm State:  0
Wed May 18 17:12:56 PDT 2022 ON: 20.01 +20.0 19.88 -11.5 31.6 06 0A 231A 0904 Alarm State:  0
Wed May 18 17:11:55 PDT 2022 ON: 20.00 +20.0 19.87 -11.2 31.8 05 0B 222E 0918 Alarm State:  0
Wed May 18 17:10:53 PDT 2022 ON: 20.00 +20.0 19.87 -10.9 32.1 04 0B 2331 0913 Alarm State:  0
Wed May 18 17:09:52 PDT 2022 ON: 20.01 +20.0 19.88 -11.0 32.0 06 0A 2407 0927 Alarm State:  0
Wed May 18 17:08:50 PDT 2022 ON: 20.01 +20.0 19.87 -11.3 31.8 08 0B 232C 0913 Alarm State:  0
Wed May 18 17:07:49 PDT 2022 ON: 20.01 +20.0 19.87 -11.3 31.8 0E 0B 230D 0927 Alarm State:  0
Wed May 18 17:06:47 PDT 2022 ON: 20.00 +20.0 19.87 -11.3 31.8 05 0B 2222 0913 Alarm State:  0
Wed May 18 17:05:46 PDT 2022 ON: 20.00 +20.0 19.88 -11.1 32.0 0B 0A 222B 0927 Alarm State:  0
Wed May 18 17:04:44 PDT 2022 ON: 19.99 +20.0 19.86 -10.9 32.1 04 0B 2324 0903 Alarm State:  0
Wed May 18 17:03:43 PDT 2022 ON: 20.00 +20.0 19.88 -11.1 32.0 00 0A 232F 0915 Alarm State:  0
Wed May 18 17:02:41 PDT 2022 ON: 20.01 +20.0 19.88 -11.4 31.8 00 0A 231F 0901 Alarm State:  0
Wed May 18 17:01:40 PDT 2022 ON: 20.00 +20.0 19.88 -11.5 31.5 06 0A 221B 0915 Alarm State:  0
Wed May 18 17:00:38 PDT 2022 ON: 20.00 +20.0 19.88 -11.0 31.9 05 0A 230C 0901 Alarm State:  0
Wed May 18 16:59:37 PDT 2022 ON: 20.00 +20.0 19.87 -10.7 32.2 00 0B 2416 0912 Alarm State:  0
Wed May 18 16:58:35 PDT 2022 ON: 20.01 +20.0 19.87 -11.1 32.0 05 0B 2424 0927 Alarm State:  0
Wed May 18 16:57:34 PDT 2022 ON: 20.00 +20.0 19.88 -11.4 31.6 09 0A 2332 0912 Alarm State:  0
Wed May 18 16:56:32 PDT 2022 ON: 20.00 +20.0 19.88 -11.3 31.7 05 0A 232A 0927 Alarm State:  0
Wed May 18 16:55:31 PDT 2022 ON: 20.00 +20.0 19.88 -11.1 31.9 0B 0A 2315 0912 Alarm State:  0
Wed May 18 16:54:29 PDT 2022 ON: 20.00 +20.0 19.87 -11.1 31.9 05 0B 2311 0927 Alarm State:  0
Wed May 18 16:53:28 PDT 2022 ON: 20.00 +20.0 19.87 -11.1 31.8 05 0B 2401 0910 Alarm State:  0
Wed May 18 16:52:26 PDT 2022 ON: 20.01 +20.0 19.87 -10.8 32.1 07 0B 2411 0925 Alarm State:  0
Wed May 18 16:51:25 PDT 2022 ON: 20.01 +20.0 19.87 -11.2 31.9 08 0B 2404 0908 Alarm State:  0
Wed May 18 16:50:23 PDT 2022 ON: 20.01 +20.0 19.89 -11.5 31.5 10 0A 2305 091D Alarm State:  0
Wed May 18 16:49:22 PDT 2022 ON: 20.00 +20.0 19.86 -11.1 31.8 05 0B 2302 0906 Alarm State:  0
Wed May 18 16:48:20 PDT 2022 ON: 20.00 +20.0 19.87 -11.1 32.0 05 0B 231E 0913 Alarm State:  0
Wed May 18 16:47:19 PDT 2022 ON: 20.00 +20.0 19.86 -11.2 31.8 05 0B 2321 0925 Alarm State:  0
Wed May 18 16:46:17 PDT 2022 ON: 20.00 +20.0 19.87 -11.2 31.9 05 0B 241E 0911 Alarm State:  0
Wed May 18 16:45:16 PDT 2022 ON: 20.00 +20.0 19.88 -11.1 32.0 01 0A 250C 091D Alarm State:  0
Wed May 18 16:44:14 PDT 2022 ON: 20.00 +20.0 19.87 -11.0 32.0 06 0B 2520 0909 Alarm State:  0
Wed May 18 16:43:12 PDT 2022 ON: 20.01 +20.0 19.88 -11.1 32.0 0C 0A 252B 0913 Alarm State:  0
Wed May 18 16:42:11 PDT 2022 ON: 20.01 +20.0 19.88 -11.3 31.8 06 0A 2602 0926 Alarm State:  0
Wed May 18 16:41:09 PDT 2022 ON: 20.01 +20.0 19.88 -11.4 31.7 06 0A 2617 0911 Alarm State:  0
Wed May 18 16:40:08 PDT 2022 ON: 19.99 +20.0 19.87 -11.1 31.9 06 0B 2619 0918 Alarm State:  0
Wed May 18 16:39:06 PDT 2022 ON: 20.01 +20.0 19.88 -10.7 32.2 05 0A 270D 0928 Alarm State:  0
Wed May 18 16:38:05 PDT 2022 ON: 20.01 +20.0 19.88 -11.1 32.0 06 0A 2729 0914 Alarm State:  0
Wed May 18 16:37:03 PDT 2022 ON: 20.00 +20.0 19.88 -11.6 31.5 06 0A 2706 0928 Alarm State:  0
Wed May 18 16:36:02 PDT 2022 ON: 20.00 +20.0 19.87 -11.4 31.5 02 0B 270A 0914 Alarm State:  0
Wed May 18 16:35:00 PDT 2022 ON: 20.00 +20.0 19.87 -10.7 32.2 00 0B 272D 0928 Alarm State:  0
Wed May 18 16:33:59 PDT 2022 ON: 20.00 +20.0 19.87 -10.7 32.2 00 0B 2905 0906 Alarm State:  0
Wed May 18 16:32:57 PDT 2022 ON: 20.01 +20.0 19.88 -11.2 31.9 09 0A 2910 091A Alarm State:  0
Wed May 18 16:31:56 PDT 2022 ON: 20.01 +20.0 19.88 -11.7 31.4 06 0A 2829 0906 Alarm State:  0
Wed May 18 16:30:54 PDT 2022 ON: 20.00 +20.0 19.88 -11.3 31.6 0C 0A 281E 091A Alarm State:  0
Wed May 18 16:29:53 PDT 2022 ON: 19.99 +20.0 19.85 -10.6 32.2 00 0C 2927 092A Alarm State:  0
Wed May 18 16:28:51 PDT 2022 ON: 20.00 +20.0 19.87 -10.7 32.1 00 0B 2A2D 0924 Alarm State:  0
Wed May 18 16:27:50 PDT 2022 ON: 20.01 +20.0 19.88 -11.3 31.8 06 0A 2A29 0910 Alarm State:  0
Wed May 18 16:26:48 PDT 2022 ON: 20.01 +20.0 19.88 -11.7 31.4 06 0A 292D 0924 Alarm State:  0
Wed May 18 16:25:47 PDT 2022 ON: 19.99 +20.0 19.87 -11.2 31.6 01 0B 2A10 090E Alarm State:  0
Wed May 18 16:24:45 PDT 2022 ON: 19.99 +20.0 19.87 -10.6 32.3 0B 0B 2B14 0A00 Alarm State:  0
Wed May 18 16:23:44 PDT 2022 ON: 20.00 +20.0 19.86 -10.5 32.2 04 0B 2C11 090F Alarm State:  0
Wed May 18 16:22:42 PDT 2022 ON: 20.02 +20.0 19.89 -11.6 31.6 0A 0A 2B27 0923 Alarm State:  0
Wed May 18 16:21:41 PDT 2022 ON: 20.01 +20.0 19.89 -12.0 30.9 10 0A 2A1E 090F Alarm State:  0
Wed May 18 16:20:39 PDT 2022 ON: 20.00 +20.0 19.86 -11.1 31.7 09 0B 2A31 0919 Alarm State:  0
Wed May 18 16:19:38 PDT 2022 ON: 20.00 +20.0 19.86 -10.3 32.3 04 0C 2C09 0A01 Alarm State:  0
Wed May 18 16:18:36 PDT 2022 ON: 20.01 +20.0 19.86 -10.7 31.6 00 0C 2C13 0A0A Alarm State:  0
Wed May 18 16:17:35 PDT 2022 ON: 20.01 +20.0 19.90 -11.7 30.6 07 0A 2B09 0B1E Alarm State:  0
Wed May 18 16:16:33 PDT 2022 ON: 19.97 +20.0 19.87 -10.0 31.9 00 0C 2C12 0B15 Alarm State:  0
Wed May 18 16:15:32 PDT 2022 ON: 19.95 +20.0 19.82 - 7.9 33.2 02 0E 2D1C 0A0A Alarm State:  0
Wed May 18 16:14:30 PDT 2022 ON: 20.01 +20.0 19.86 - 9.5 31.5 00 0B 2E1B 090E Alarm State:  0
Wed May 18 16:13:29 PDT 2022 ON: 20.01 +20.0 19.88 -11.4 31.8 02 0A 2D2B 0922 Alarm State:  0
Wed May 18 16:12:27 PDT 2022 ON: 20.01 +20.0 19.88 -11.2 31.9 0D 0A 2C20 090E Alarm State:  0
Wed May 18 16:11:26 PDT 2022 ON: 20.01 +20.0 19.87 -11.3 31.9 06 0B 2B20 0922 Alarm State:  0
Wed May 18 16:10:24 PDT 2022 ON: 20.02 +20.0 19.89 -11.5 31.8 0A 0A 2A15 090E Alarm State:  0
Wed May 18 16:09:23 PDT 2022 ON: 20.01 +20.0 19.89 -12.0 31.4 02 0A 290B 0922 Alarm State:  0
Wed May 18 16:08:21 PDT 2022 ON: 20.00 +20.0 19.87 -11.5 31.5 02 0B 2808 090E Alarm State:  0
Wed May 18 16:07:20 PDT 2022 ON: 20.01 +20.0 19.88 -10.9 32.1 00 0A 271E 0922 Alarm State:  0
Wed May 18 16:06:18 PDT 2022 ON: 20.02 +20.0 19.88 -11.3 31.9 09 0A 2631 090E Alarm State:  0
Wed May 18 16:05:17 PDT 2022 ON: 20.02 +20.0 19.89 -11.9 31.4 07 0A 2527 0922 Alarm State:  0
Wed May 18 16:04:15 PDT 2022 ON: 20.02 +20.0 19.90 -11.8 31.4 07 09 241C 090E Alarm State:  0
Wed May 18 16:03:14 PDT 2022 ON: 20.01 +20.0 19.87 -11.2 32.0 05 0B 232E 0922 Alarm State:  0
Wed May 18 16:02:12 PDT 2022 ON: 20.02 +20.0 19.88 -11.1 32.0 05 0A 2316 090E Alarm State:  0
Wed May 18 16:01:11 PDT 2022 ON: 20.03 +20.0 19.89 -11.8 31.6 0A 0A 220C 0922 Alarm State:  0
Wed May 18 16:00:09 PDT 2022 ON: 20.02 +20.0 19.90 -12.4 30.8 00 09 2101 090E Alarm State:  0
Wed May 18 15:59:08 PDT 2022 ON: 20.00 +20.0 19.87 -11.2 31.5 01 0B 200B 0922 Alarm State:  0
Wed May 18 15:58:06 PDT 2022 ON: 20.00 +20.0 19.87 -10.6 32.3 04 0B 2116 0901 Alarm State:  0
Wed May 18 15:57:05 PDT 2022 ON: 20.03 +20.0 19.88 -11.4 31.6 09 0A 2111 0905 Alarm State:  0
Wed May 18 15:56:03 PDT 2022 ON: 20.01 +20.0 19.90 -12.4 30.5 0E 09 2006 091A Alarm State:  0
Wed May 18 15:55:02 PDT 2022 ON: 19.99 +20.0 19.87 -10.8 31.8 00 0B 202D 0918 Alarm State:  0
Wed May 18 15:54:00 PDT 2022 ON: 20.00 +20.0 19.84 - 9.2 32.3 01 0C 2205 090A Alarm State:  0
Wed May 18 15:52:59 PDT 2022 ON: 20.01 +20.0 19.89 -12.5 30.6 00 0A 2107 091E Alarm State:  0
Wed May 18 15:51:57 PDT 2022 ON: 20.00 +20.0 19.88 -11.3 31.7 0B 0A 202C 090A Alarm State:  0
Wed May 18 15:50:56 PDT 2022 ON: 19.99 +20.0 19.86 -10.3 32.3 00 0B 2203 0919 Alarm State:  0
Wed May 18 15:49:54 PDT 2022 ON: 20.03 +20.0 19.87 -11.3 31.3 00 0B 2215 091A Alarm State:  0
Wed May 18 15:48:53 PDT 2022 ON: 20.01 +20.0 19.90 -12.1 30.9 02 09 210F 0905 Alarm State:  0
Wed May 18 15:47:51 PDT 2022 ON: 19.99 +20.0 19.86 -10.5 32.3 03 0B 2206 0924 Alarm State:  0
Wed May 18 15:46:50 PDT 2022 ON: 20.00 +20.0 19.88 -11.0 32.0 08 0A 2209 091E Alarm State:  0
Wed May 18 15:45:48 PDT 2022 ON: 20.00 +20.0 19.87 -11.3 31.6 05 0B 2205 0902 Alarm State:  0
Wed May 18 15:44:47 PDT 2022 ON: 20.00 +20.0 19.88 -11.0 31.9 05 0A 212F 0916 Alarm State:  0
Wed May 18 15:43:45 PDT 2022 ON: 20.00 +20.0 19.88 -10.9 32.0 04 0A 2109 0902 Alarm State:  0
Wed May 18 15:42:44 PDT 2022 ON: 20.00 +20.0 19.87 -10.9 32.1 04 0B 2106 0916 Alarm State:  0
Wed May 18 15:41:42 PDT 2022 ON: 20.00 +20.0 19.88 -11.1 31.9 05 0A 2203 0902 Alarm State:  0
Wed May 18 15:40:40 PDT 2022 ON: 20.00 +20.0 19.88 -11.0 31.9 05 0A 230D 0906 Alarm State:  0
Wed May 18 15:39:39 PDT 2022 ON: 20.00 +20.0 19.87 -10.8 32.1 00 0B 2311 0915 Alarm State:  0
Wed May 18 15:38:37 PDT 2022 ON: 20.00 +20.0 19.87 -10.8 32.1 04 0B 2324 0915 Alarm State:  0
Wed May 18 15:37:36 PDT 2022 ON: 20.01 +20.0 19.88 -11.1 31.9 06 0A 240D 0901 Alarm State:  0
Wed May 18 15:36:34 PDT 2022 ON: 20.00 +20.0 19.87 -11.2 31.8 05 0B 240C 0915 Alarm State:  0
Wed May 18 15:35:33 PDT 2022 ON: 20.00 +20.0 19.88 -10.8 32.0 05 0A 2426 0901 Alarm State:  0
Wed May 18 15:34:31 PDT 2022 ON: 20.01 +20.0 19.87 -10.7 32.2 05 0B 252C 091E Alarm State:  0
Wed May 18 15:33:30 PDT 2022 ON: 20.01 +20.0 19.88 -11.0 32.0 06 0A 260B 0908 Alarm State:  0
Wed May 18 15:32:28 PDT 2022 ON: 20.01 +20.0 19.87 -11.2 31.8 06 0B 2614 091C Alarm State:  0
Wed May 18 15:31:27 PDT 2022 ON: 20.01 +20.0 19.88 -11.0 31.9 06 0A 261A 0906 Alarm State:  0
Wed May 18 15:30:25 PDT 2022 ON: 20.01 +20.0 19.88 -10.8 32.1 05 0A 2631 0918 Alarm State:  0
Wed May 18 15:29:24 PDT 2022 ON: 20.00 +20.0 19.87 -10.7 32.2 05 0B 2726 0904 Alarm State:  0
Wed May 18 15:28:22 PDT 2022 ON: 20.01 +20.0 19.88 -11.0 32.0 06 0A 2826 0918 Alarm State:  0
Wed May 18 15:27:21 PDT 2022 ON: 20.01 +20.0 19.88 -11.4 31.5 06 0A 281C 0904 Alarm State:  0
Wed May 18 15:26:19 PDT 2022 ON: 19.99 +20.0 19.87 -11.0 31.8 01 0B 282D 0A12 Alarm State:  0
Wed May 18 15:25:18 PDT 2022 ON: 19.99 +20.0 19.86 -10.4 32.3 04 0B 2A05 090E Alarm State:  0
Wed May 18 15:24:16 PDT 2022 ON: 20.00 +20.0 19.87 -10.8 32.1 05 0B 2A20 0906 Alarm State:  0
Wed May 18 15:23:15 PDT 2022 ON: 20.00 +20.0 19.87 -11.3 31.7 06 0B 292D 091B Alarm State:  0
Wed May 18 15:22:13 PDT 2022 ON: 20.00 +20.0 19.87 -11.4 31.5 06 0B 2A15 0906 Alarm State:  0
Wed May 18 15:21:12 PDT 2022 ON: 19.99 +20.0 19.88 -10.8 32.0 05 0A 2A29 0924 Alarm State:  0
Wed May 18 15:20:10 PDT 2022 ON: 19.99 +20.0 19.85 -10.4 32.3 0E 0C 2C00 092C Alarm State:  0
Wed May 18 15:19:09 PDT 2022 ON: 20.00 +20.0 19.87 -10.6 32.1 05 0B 2C2E 0906 Alarm State:  0
Wed May 18 15:18:07 PDT 2022 ON: 20.01 +20.0 19.88 -11.4 31.6 07 0A 2D2A 091A Alarm State:  0
Wed May 18 15:17:06 PDT 2022 ON: 20.01 +20.0 19.88 -11.4 31.6 07 0A 2C2B 0906 Alarm State:  0
Wed May 18 15:16:04 PDT 2022 ON: 20.00 +20.0 19.87 -10.8 32.2 06 0B 2D0B 091A Alarm State:  0
Wed May 18 15:15:03 PDT 2022 ON: 20.01 +20.0 19.87 -10.9 32.1 06 0B 2D17 091D Alarm State:  0
Wed May 18 15:14:01 PDT 2022 ON: 20.01 +20.0 19.88 -11.3 31.9 06 0A 2C11 0908 Alarm State:  0
Wed May 18 15:13:00 PDT 2022 ON: 20.01 +20.0 19.88 -11.7 31.3 06 0A 2B06 091D Alarm State:  0
Wed May 18 15:11:58 PDT 2022 ON: 20.01 +20.0 19.88 -11.2 31.8 06 0A 2A10 0908 Alarm State:  0
Wed May 18 15:10:57 PDT 2022 ON: 20.00 +20.0 19.86 -10.8 32.1 05 0B 2A2A 091B Alarm State:  0
Wed May 18 15:09:55 PDT 2022 ON: 20.01 +20.0 19.88 -11.0 32.0 09 0A 2A1D 0906 Alarm State:  0
Wed May 18 15:08:54 PDT 2022 ON: 20.02 +20.0 19.89 -11.6 31.6 06 0A 2920 091B Alarm State:  0
Wed May 18 15:07:52 PDT 2022 ON: 20.01 +20.0 19.88 -11.6 31.4 02 0A 281B 0907 Alarm State:  0
Wed May 18 15:06:51 PDT 2022 ON: 20.00 +20.0 19.86 -11.0 32.0 06 0B 2828 091B Alarm State:  0
Wed May 18 15:05:49 PDT 2022 ON: 20.00 +20.0 19.87 -10.7 32.2 05 0B 291B 0903 Alarm State:  0
Wed May 18 15:04:48 PDT 2022 ON: 20.00 +20.0 19.86 -11.1 32.0 06 0B 2908 0917 Alarm State:  0
Wed May 18 15:03:46 PDT 2022 ON: 20.02 +20.0 19.89 -11.8 31.4 07 0A 2732 0903 Alarm State:  0
Wed May 18 15:02:45 PDT 2022 ON: 20.01 +20.0 19.89 -11.6 31.3 06 0A 2628 0917 Alarm State:  0
Wed May 18 15:01:43 PDT 2022 ON: 20.00 +20.0 19.88 -10.7 32.1 0B 0B 271B 0A01 Alarm State:  0
Wed May 18 15:00:42 PDT 2022 ON: 20.00 +20.0 19.86 -10.2 32.4 04 0B 2825 0924 Alarm State:  0
Wed May 18 14:59:40 PDT 2022 ON: 20.02 +20.0 19.86 -11.3 31.3 01 0B 2910 0917 Alarm State:  0
Wed May 18 14:58:39 PDT 2022 ON: 20.01 +20.0 19.89 -11.9 30.7 0E 0A 2806 0A02 Alarm State:  0
Wed May 18 14:57:37 PDT 2022 ON: 19.99 +20.0 19.87 -10.6 32.0 00 0B 2810 0A2F Alarm State:  0
Wed May 18 14:56:36 PDT 2022 ON: 19.99 +20.0 19.85 - 9.9 32.5 03 0C 291A 0924 Alarm State:  0
Wed May 18 14:55:34 PDT 2022 ON: 20.02 +20.0 19.87 -10.8 31.5 00 0B 2A05 0926 Alarm State:  0
Wed May 18 14:54:33 PDT 2022 ON: 20.01 +20.0 19.89 -11.9 30.7 0A 0A 2901 0A11 Alarm State:  0
Wed May 18 14:53:31 PDT 2022 ON: 19.99 +20.0 19.86 -10.4 32.1 04 0C 2925 0A0B Alarm State:  0
Wed May 18 14:52:30 PDT 2022 ON: 20.00 +20.0 19.87 - 9.8 32.6 03 0B 2A2F 0920 Alarm State:  0
Wed May 18 14:51:28 PDT 2022 ON: 20.03 +20.0 19.90 -11.6 30.5 07 0A 2A27 0A11 Alarm State:  0
Wed May 18 14:50:27 PDT 2022 ON: 20.01 +20.0 19.91 -11.4 31.1 02 0A 291D 0B25 Alarm State:  0
Wed May 18 14:49:25 PDT 2022 ON: 19.99 +20.0 19.88 -10.3 31.7 0A 0B 292F 0B2F Alarm State:  0
Wed May 18 14:48:24 PDT 2022 ON: 19.97 +20.0 19.83 - 8.3 33.0 02 0D 2B06 0A24 Alarm State:  0
Wed May 18 14:47:22 PDT 2022 ON: 20.02 +20.0 19.88 -10.1 31.2 00 0A 2C01 0907 Alarm State:  0
Wed May 18 14:46:21 PDT 2022 ON: 20.01 +20.0 19.88 -11.4 31.5 06 0A 2A2E 091B Alarm State:  0
Wed May 18 14:45:19 PDT 2022 ON: 20.00 +20.0 19.88 -10.8 32.1 0B 0A 2B0F 0928 Alarm State:  0
Wed May 18 14:44:18 PDT 2022 ON: 20.01 +20.0 19.87 -10.6 32.2 0B 0B 2B28 090F Alarm State:  0
Wed May 18 14:43:16 PDT 2022 ON: 20.01 +20.0 19.87 -11.3 31.8 0A 0B 2A27 0924 Alarm State:  0
Wed May 18 14:42:15 PDT 2022 ON: 20.02 +20.0 19.89 -12.1 31.1 07 0A 291D 090F Alarm State:  0
Wed May 18 14:41:13 PDT 2022 ON: 20.00 +20.0 19.89 -11.5 31.4 0D 0A 2824 0924 Alarm State:  0
Wed May 18 14:40:12 PDT 2022 ON: 20.00 +20.0 19.87 -10.5 32.3 00 0B 291E 0924 Alarm State:  0
Wed May 18 14:39:10 PDT 2022 ON: 20.01 +20.0 19.87 -10.8 31.9 00 0B 2932 0902 Alarm State:  0
Wed May 18 14:38:08 PDT 2022 ON: 20.01 +20.0 19.90 -12.2 30.7 03 09 2828 0916 Alarm State:  0
Wed May 18 14:37:07 PDT 2022 ON: 20.00 +20.0 19.88 -10.9 32.0 00 0A 2915 092B Alarm State:  0
Wed May 18 14:36:05 PDT 2022 ON: 20.01 +20.0 19.86 -10.2 32.3 04 0B 2A1D 090D Alarm State:  0
Wed May 18 14:35:04 PDT 2022 ON: 20.02 +20.0 19.88 -11.4 31.7 0A 0A 2922 0922 Alarm State:  0
Wed May 18 14:34:02 PDT 2022 ON: 20.01 +20.0 19.90 -12.0 30.9 02 09 2818 090D Alarm State:  0
Wed May 18 14:33:01 PDT 2022 ON: 20.00 +20.0 19.88 -10.8 31.9 05 0A 2832 091C Alarm State:  0
Wed May 18 14:31:59 PDT 2022 ON: 20.00 +20.0 19.85 -10.1 32.3 00 0C 2922 0924 Alarm State:  0
Wed May 18 14:30:58 PDT 2022 ON: 20.01 +20.0 19.89 -11.7 31.3 07 0A 2902 0910 Alarm State:  0
Wed May 18 14:29:56 PDT 2022 ON: 20.01 +20.0 19.89 -11.8 31.1 07 0A 272B 0924 Alarm State:  0
Wed May 18 14:28:55 PDT 2022 ON: 19.99 +20.0 19.86 -10.7 32.0 0B 0B 280C 0908 Alarm State:  0
Wed May 18 14:27:53 PDT 2022 ON: 20.00 +20.0 19.85 -10.1 32.2 00 0C 2819 090A Alarm State:  0
Wed May 18 14:26:52 PDT 2022 ON: 20.02 +20.0 19.89 -12.3 30.8 08 0A 2728 091F Alarm State:  0
Wed May 18 14:25:50 PDT 2022 ON: 20.00 +20.0 19.87 -11.4 31.6 0A 0B 2626 090A Alarm State:  0
Wed May 18 14:24:49 PDT 2022 ON: 20.00 +20.0 19.87 -10.6 32.2 0B 0B 2709 091D Alarm State:  0
Wed May 18 14:23:47 PDT 2022 ON: 20.01 +20.0 19.88 -11.6 30.8 00 0A 2704 0908 Alarm State:  0
Wed May 18 14:22:46 PDT 2022 ON: 20.01 +20.0 19.89 -11.6 31.3 0D 0A 252C 091D Alarm State:  0
Wed May 18 14:21:44 PDT 2022 ON: 19.99 +20.0 19.87 -10.5 32.3 04 0B 260E 0930 Alarm State:  0
Wed May 18 14:20:43 PDT 2022 ON: 20.01 +20.0 19.87 -10.7 32.0 00 0B 2616 090A Alarm State:  0
Wed May 18 14:19:41 PDT 2022 ON: 20.03 +20.0 19.91 -12.5 30.6 0E 09 250C 091E Alarm State:  0
Wed May 18 14:18:40 PDT 2022 ON: 20.01 +20.0 19.88 -11.2 31.7 0C 0A 241D 090A Alarm State:  0
Wed May 18 14:17:38 PDT 2022 ON: 20.00 +20.0 19.85 -10.1 32.3 00 0C 2519 090E Alarm State:  0
Wed May 18 14:16:37 PDT 2022 ON: 20.02 +20.0 19.88 -11.9 31.1 00 0A 2420 0923 Alarm State:  0
Wed May 18 14:15:35 PDT 2022 ON: 20.01 +20.0 19.89 -11.8 31.2 07 0A 2316 090E Alarm State:  0
Wed May 18 14:14:34 PDT 2022 ON: 20.00 +20.0 19.86 -10.8 32.1 04 0B 231A 0923 Alarm State:  0
Wed May 18 14:13:32 PDT 2022 ON: 20.01 +20.0 19.85 -10.1 32.0 00 0C 2410 0923 Alarm State:  0
Wed May 18 14:12:31 PDT 2022 ON: 20.01 +20.0 19.89 -12.5 30.5 0B 0A 2305 090F Alarm State:  0
Wed May 18 14:11:29 PDT 2022 ON: 20.00 +20.0 19.87 -10.5 32.2 0A 0B 2318 0923 Alarm State:  0
Wed May 18 14:10:28 PDT 2022 ON: 20.01 +20.0 19.85 - 9.6 32.1 00 0C 241F 090E Alarm State:  0
Wed May 18 14:09:26 PDT 2022 ON: 20.02 +20.0 19.90 -12.4 30.5 08 09 231B 0922 Alarm State:  0
Wed May 18 14:08:25 PDT 2022 ON: 20.00 +20.0 19.87 -10.9 31.8 07 0B 231B 0A0E Alarm State:  0
Wed May 18 14:07:23 PDT 2022 ON: 19.99 +20.0 19.86 - 9.8 32.5 02 0B 2425 091D Alarm State:  0
Wed May 18 14:06:22 PDT 2022 ON: 20.01 +20.0 19.90 -12.8 30.2 0C 09 2417 0912 Alarm State:  0
Wed May 18 14:05:20 PDT 2022 ON: 20.00 +20.0 19.86 -10.5 32.3 0A 0B 250D 0911 Alarm State:  0
Wed May 18 14:04:19 PDT 2022 ON: 20.00 +20.0 19.86 -10.5 32.2 00 0B 2616 0922 Alarm State:  0
Wed May 18 14:03:17 PDT 2022 ON: 20.01 +20.0 19.88 -11.4 31.6 0A 0A 251C 090D Alarm State:  0
Wed May 18 14:02:16 PDT 2022 ON: 20.01 +20.0 19.88 -11.4 31.4 06 0A 2411 0922 Alarm State:  0
Wed May 18 14:01:14 PDT 2022 ON: 20.00 +20.0 19.87 -10.9 32.0 0B 0B 2507 090D Alarm State:  0
Wed May 18 14:00:13 PDT 2022 ON: 20.00 +20.0 19.87 -10.5 32.3 04 0B 2604 0914 Alarm State:  0
Wed May 18 13:59:11 PDT 2022 ON: 20.00 +20.0 19.86 -10.9 32.1 05 0B 270C 0928 Alarm State:  0
Wed May 18 13:58:10 PDT 2022 ON: 20.00 +20.0 19.87 -11.4 31.6 0D 0B 2708 0914 Alarm State:  0
Wed May 18 13:57:08 PDT 2022 ON: 20.00 +20.0 19.87 -11.2 31.6 0C 0B 2705 0928 Alarm State:  0
Wed May 18 13:56:07 PDT 2022 ON: 20.00 +20.0 19.86 -10.5 32.3 04 0B 2731 0919 Alarm State:  0
Wed May 18 13:55:05 PDT 2022 ON: 20.00 +20.0 19.87 -10.6 32.2 05 0B 2900 0925 Alarm State:  0
Wed May 18 13:54:04 PDT 2022 ON: 20.01 +20.0 19.88 -11.2 31.9 06 0A 282F 0911 Alarm State:  0
Wed May 18 13:53:02 PDT 2022 ON: 20.00 +20.0 19.87 -11.4 31.5 0D 0B 280C 0925 Alarm State:  0
Wed May 18 13:52:01 PDT 2022 ON: 19.99 +20.0 19.87 -10.9 31.9 0B 0B 2812 0901 Alarm State:  0
Wed May 18 13:50:59 PDT 2022 ON: 20.00 +20.0 19.86 -10.4 32.3 04 0B 291D 0915 Alarm State:  0
Wed May 18 13:49:58 PDT 2022 ON: 20.01 +20.0 19.87 -10.7 32.1 05 0B 2A11 0925 Alarm State:  0
Wed May 18 13:48:56 PDT 2022 ON: 20.01 +20.0 19.88 -11.3 31.7 06 0A 292C 0911 Alarm State:  0
Wed May 18 13:47:55 PDT 2022 ON: 20.01 +20.0 19.88 -11.3 31.5 01 0A 2921 0925 Alarm State:  0
Wed May 18 13:46:53 PDT 2022 ON: 20.00 +20.0 19.87 -10.6 32.2 0B 0B 2A22 0928 Alarm State:  0
Wed May 18 13:45:52 PDT 2022 ON: 20.00 +20.0 19.86 -10.4 32.3 04 0B 2B2A 0905 Alarm State:  0
Wed May 18 13:44:50 PDT 2022 ON: 20.01 +20.0 19.88 -11.1 32.0 0A 0A 2C01 0918 Alarm State:  0
Wed May 18 13:43:49 PDT 2022 ON: 20.00 +20.0 19.87 -11.5 31.4 06 0B 2B0B 0903 Alarm State:  0
Wed May 18 13:42:47 PDT 2022 ON: 20.00 +20.0 19.88 -10.8 32.0 06 0A 2C02 0902 Alarm State:  0
Wed May 18 13:41:46 PDT 2022 ON: 20.00 +20.0 19.86 -10.4 32.3 04 0B 2D0C 090D Alarm State:  0
Wed May 18 13:40:44 PDT 2022 ON: 20.01 +20.0 19.88 -11.0 32.0 06 0A 2D22 0922 Alarm State:  0
Wed May 18 13:39:43 PDT 2022 ON: 20.01 +20.0 19.88 -11.5 31.4 07 0A 2D15 090D Alarm State:  0
Wed May 18 13:38:41 PDT 2022 ON: 20.01 +20.0 19.88 -11.0 31.8 01 0A 2D13 0922 Alarm State:  0
Wed May 18 13:37:40 PDT 2022 ON: 19.99 +20.0 19.86 -10.4 32.2 05 0B 2E11 0908 Alarm State:  0
Wed May 18 13:36:38 PDT 2022 ON: 20.01 +20.0 19.86 -10.3 32.3 05 0B 2E2B 090F Alarm State:  0
Wed May 18 13:35:37 PDT 2022 ON: 20.01 +20.0 19.88 -11.4 31.8 07 0A 2D21 0923 Alarm State:  0
Wed May 18 13:34:35 PDT 2022 ON: 20.02 +20.0 19.89 -11.6 31.2 0E 0A 2C16 090F Alarm State:  0
Wed May 18 13:33:34 PDT 2022 ON: 20.01 +20.0 19.88 -10.8 32.0 00 0A 2C11 0923 Alarm State:  0
Wed May 18 13:32:32 PDT 2022 ON: 19.99 +20.0 19.86 -10.3 32.4 04 0B 2D0C 092D Alarm State:  0
Wed May 18 13:31:31 PDT 2022 ON: 20.01 +20.0 19.88 -10.6 32.2 00 0A 2D2F 0920 Alarm State:  0
Wed May 18 13:30:29 PDT 2022 ON: 20.02 +20.0 19.89 -11.5 31.4 07 0A 2C24 090C Alarm State:  0
Wed May 18 13:29:27 PDT 2022 ON: 20.01 +20.0 19.89 -11.3 31.5 06 0A 2B1A 0920 Alarm State:  0
Wed May 18 13:28:26 PDT 2022 ON: 19.99 +20.0 19.87 -10.6 32.1 05 0B 2B20 0A17 Alarm State:  0
Wed May 18 13:27:24 PDT 2022 ON: 19.99 +20.0 19.86 -10.3 32.4 04 0B 2C2A 091E Alarm State:  0
Wed May 18 13:26:23 PDT 2022 ON: 20.01 +20.0 19.86 -10.3 32.2 04 0B 2D09 0902 Alarm State:  0
Wed May 18 13:25:21 PDT 2022 ON: 20.02 +20.0 19.88 -11.7 31.2 07 0A 2C0B 0916 Alarm State:  0
Wed May 18 13:24:20 PDT 2022 ON: 20.01 +20.0 19.90 -11.6 31.4 02 09 2B00 0902 Alarm State:  0
Wed May 18 13:23:18 PDT 2022 ON: 20.01 +20.0 19.88 -10.6 32.2 05 0A 2B05 0916 Alarm State:  0
Wed May 18 13:22:17 PDT 2022 ON: 20.02 +20.0 19.87 -10.9 31.7 00 0B 2B19 0927 Alarm State:  0
Wed May 18 13:21:15 PDT 2022 ON: 20.01 +20.0 19.90 -11.8 31.1 0E 09 2A0F 0912 Alarm State:  0
Wed May 18 13:20:14 PDT 2022 ON: 20.00 +20.0 19.87 -10.6 32.2 05 0B 2A2D 0925 Alarm State:  0
Wed May 18 13:19:12 PDT 2022 ON: 20.00 +20.0 19.85 - 9.9 32.2 00 0C 2B29 0902 Alarm State:  0
Wed May 18 13:18:11 PDT 2022 ON: 20.02 +20.0 19.90 -12.1 30.9 02 09 2A30 0917 Alarm State:  0
Wed May 18 13:17:09 PDT 2022 ON: 20.00 +20.0 19.88 -10.9 32.0 0B 0A 2A1B 0902 Alarm State:  0
Wed May 18 13:16:08 PDT 2022 ON: 20.01 +20.0 19.86 -10.3 32.0 00 0B 2B00 090F Alarm State:  0
Wed May 18 13:15:06 PDT 2022 ON: 20.01 +20.0 19.90 -12.0 31.1 0E 09 2929 0923 Alarm State:  0
Wed May 18 13:14:05 PDT 2022 ON: 20.00 +20.0 19.87 -10.8 32.1 00 0B 2915 090F Alarm State:  0
Wed May 18 13:13:03 PDT 2022 ON: 20.02 +20.0 19.87 -10.6 31.9 08 0B 2908 0923 Alarm State:  0
Wed May 18 13:12:02 PDT 2022 ON: 20.02 +20.0 19.89 -12.4 30.6 08 0A 2730 090F Alarm State:  0
Wed May 18 13:11:00 PDT 2022 ON: 19.99 +20.0 19.87 -10.9 31.9 00 0B 271B 0921 Alarm State:  0
Wed May 18 13:09:59 PDT 2022 ON: 19.99 +20.0 19.87 -10.0 32.5 03 0B 2824 0928 Alarm State:  0
Wed May 18 13:08:57 PDT 2022 ON: 20.02 +20.0 19.88 -10.8 31.5 00 0A 290A 090D Alarm State:  0
Wed May 18 13:07:56 PDT 2022 ON: 20.00 +20.0 19.89 -11.7 31.1 0A 0A 2809 0922 Alarm State:  0
Wed May 18 13:06:54 PDT 2022 ON: 19.99 +20.0 19.87 -10.3 32.4 00 0B 2913 092A Alarm State:  0
Wed May 18 13:05:53 PDT 2022 ON: 19.99 +20.0 19.83 - 9.3 32.3 08 0D 2A1E 090C Alarm State:  0
Wed May 18 13:04:51 PDT 2022 ON: 20.02 +20.0 19.90 -12.3 30.5 0E 09 2926 091A Alarm State:  0
Wed May 18 13:03:50 PDT 2022 ON: 20.00 +20.0 19.89 -10.7 31.9 05 0A 2A01 0A06 Alarm State:  0
Wed May 18 13:02:48 PDT 2022 ON: 19.99 +20.0 19.86 -10.0 32.5 03 0C 2B0B 0A00 Alarm State:  0
Wed May 18 13:01:47 PDT 2022 ON: 20.02 +20.0 19.86 -10.7 31.6 05 0B 2B1D 091F Alarm State:  0
Wed May 18 13:00:45 PDT 2022 ON: 20.02 +20.0 19.90 -11.7 31.0 0E 0A 2A13 0A0A Alarm State:  0
Wed May 18 12:59:44 PDT 2022 ON: 19.99 +20.0 19.86 -10.1 32.2 03 0C 2B04 0A12 Alarm State:  0
Wed May 18 12:58:42 PDT 2022 ON: 20.00 +20.0 19.82 - 9.0 32.4 08 0D 2C0E 0902 Alarm State:  0
Wed May 18 12:57:41 PDT 2022 ON: 20.01 +20.0 19.90 -12.0 30.6 0E 0A 2B0F 0A17 Alarm State:  0
Wed May 18 12:56:39 PDT 2022 ON: 19.99 +20.0 19.88 -10.3 31.8 00 0B 2B2C 0B21 Alarm State:  0
Wed May 18 12:55:38 PDT 2022 ON: 19.98 +20.0 19.85 - 8.9 32.9 05 0C 2D04 0A19 Alarm State:  0
Wed May 18 12:54:36 PDT 2022 ON: 20.00 +20.0 19.82 - 8.6 32.0 00 0D 2E0E 0912 Alarm State:  0
Wed May 18 12:53:35 PDT 2022 ON: 20.01 +20.0 19.88 -11.4 31.7 02 0A 2D07 0927 Alarm State:  0
Wed May 18 12:52:33 PDT 2022 ON: 20.01 +20.0 19.87 -10.9 32.1 05 0B 2C05 0912 Alarm State:  0
Wed May 18 12:51:32 PDT 2022 ON: 20.02 +20.0 19.88 -11.1 32.0 06 0A 2A2D 0927 Alarm State:  0
Wed May 18 12:50:30 PDT 2022 ON: 20.03 +20.0 19.89 -11.8 31.5 07 0A 2923 0912 Alarm State:  0
Wed May 18 12:49:29 PDT 2022 ON: 20.01 +20.0 19.89 -11.7 31.3 06 0A 2818 0927 Alarm State:  0
Wed May 18 12:48:27 PDT 2022 ON: 20.00 +20.0 19.87 -10.9 32.1 0B 0B 2817 0912 Alarm State:  0
Wed May 18 12:47:26 PDT 2022 ON: 20.01 +20.0 19.87 -10.7 32.2 05 0B 272A 0927 Alarm State:  0
Wed May 18 12:46:24 PDT 2022 ON: 20.02 +20.0 19.89 -11.5 31.8 06 0A 261F 0913 Alarm State:  0
Wed May 18 12:45:23 PDT 2022 ON: 20.02 +20.0 19.89 -12.1 31.0 07 0A 2515 0927 Alarm State:  0
Wed May 18 12:44:21 PDT 2022 ON: 20.00 +20.0 19.88 -11.5 31.5 02 0A 2424 0913 Alarm State:  0
Wed May 18 12:43:20 PDT 2022 ON: 19.99 +20.0 19.86 -10.6 32.2 04 0B 252E 0927 Alarm State:  0
Wed May 18 12:42:18 PDT 2022 ON: 20.01 +20.0 19.86 -10.1 32.2 07 0B 2625 0908 Alarm State:  0
Wed May 18 12:41:17 PDT 2022 ON: 20.03 +20.0 19.90 -12.3 30.7 0B 09 251D 091C Alarm State:  0
Wed May 18 12:40:15 PDT 2022 ON: 20.00 +20.0 19.88 -11.2 31.7 06 0A 2507 0908 Alarm State:  0
Wed May 18 12:39:14 PDT 2022 ON: 20.00 +20.0 19.88 -10.6 32.3 05 0A 251A 091C Alarm State:  0
Wed May 18 12:38:12 PDT 2022 ON: 20.03 +20.0 19.89 -11.6 31.2 02 0A 250A 0923 Alarm State:  0
Wed May 18 12:37:11 PDT 2022 ON: 20.01 +20.0 19.88 -11.7 31.3 02 0A 2402 090E Alarm State:  0
Wed May 18 12:36:09 PDT 2022 ON: 20.00 +20.0 19.86 -10.4 32.3 03 0B 250B 0903 Alarm State:  0
Wed May 18 12:35:08 PDT 2022 ON: 20.02 +20.0 19.87 -10.9 31.6 05 0B 2520 090F Alarm State:  0
Wed May 18 12:34:06 PDT 2022 ON: 20.01 +20.0 19.88 -11.8 31.2 0A 0A 241B 0924 Alarm State:  0
Wed May 18 12:33:05 PDT 2022 ON: 20.00 +20.0 19.87 -10.4 32.3 03 0B 240C 090F Alarm State:  0
Wed May 18 12:32:03 PDT 2022 ON: 20.03 +20.0 19.87 -11.0 31.5 00 0B 2420 0920 Alarm State:  0
Wed May 18 12:31:01 PDT 2022 ON: 20.01 +20.0 19.90 -11.8 31.3 07 09 2316 090B Alarm State:  0
Wed May 18 12:30:00 PDT 2022 ON: 20.00 +20.0 19.86 -10.2 32.4 0A 0B 232E 0920 Alarm State:  0
Wed May 18 12:28:58 PDT 2022 ON: 20.02 +20.0 19.87 -11.7 30.7 02 0B 231D 0903 Alarm State:  0
Wed May 18 12:27:57 PDT 2022 ON: 20.00 +20.0 19.88 -11.7 31.3 02 0A 222A 0918 Alarm State:  0
Wed May 18 12:26:55 PDT 2022 ON: 19.99 +20.0 19.87 -10.6 32.4 0A 0B 232E 090E Alarm State:  0
Wed May 18 12:25:54 PDT 2022 ON: 20.01 +20.0 19.85 -10.0 32.0 00 0C 242B 0914 Alarm State:  0
Wed May 18 12:24:52 PDT 2022 ON: 20.02 +20.0 19.90 -12.4 30.5 0E 09 2321 0928 Alarm State:  0
Wed May 18 12:23:51 PDT 2022 ON: 19.99 +20.0 19.86 -10.5 32.3 00 0B 231B 0922 Alarm State:  0
Wed May 18 12:22:49 PDT 2022 ON: 20.00 +20.0 19.86 - 9.9 32.4 09 0B 2425 091E Alarm State:  0
Wed May 18 12:21:48 PDT 2022 ON: 20.02 +20.0 19.90 -12.7 30.3 0F 09 232E 090A Alarm State:  0
Wed May 18 12:20:46 PDT 2022 ON: 20.00 +20.0 19.88 -10.9 31.6 00 0A 2321 091E Alarm State:  0
Wed May 18 12:19:45 PDT 2022 ON: 20.00 +20.0 19.86 - 9.9 32.5 00 0B 242C 0905 Alarm State:  0
Wed May 18 12:18:43 PDT 2022 ON: 20.02 +20.0 19.90 -12.1 30.3 00 09 2423 090F Alarm State:  0
Wed May 18 12:17:42 PDT 2022 ON: 20.00 +20.0 19.89 -11.3 31.5 09 0A 2332 0924 Alarm State:  0
Wed May 18 12:16:40 PDT 2022 ON: 19.99 +20.0 19.85 - 9.8 32.5 02 0C 2509 0A06 Alarm State:  0
Wed May 18 12:15:39 PDT 2022 ON: 20.02 +20.0 19.86 -10.7 31.1 00 0B 2606 091A Alarm State:  0
Wed May 18 12:14:37 PDT 2022 ON: 20.01 +20.0 19.88 -11.0 31.5 06 0B 242F 0A05 Alarm State:  0
Wed May 18 12:13:36 PDT 2022 ON: 19.98 +20.0 19.86 -10.0 32.0 02 0C 2530 0A2E Alarm State:  0
Wed May 18 12:12:34 PDT 2022 ON: 19.98 +20.0 19.86 - 8.8 32.8 00 0B 2707 0923 Alarm State:  0
Wed May 18 12:11:33 PDT 2022 ON: 20.03 +20.0 19.90 -12.5 30.4 0E 09 270D 0900 Alarm State:  0
Wed May 18 12:10:31 PDT 2022 ON: 20.00 +20.0 19.89 -11.0 31.6 0C 0A 262F 0A14 Alarm State:  0
Wed May 18 12:09:30 PDT 2022 ON: 19.99 +20.0 19.85 -10.1 32.4 03 0C 2807 0924 Alarm State:  0
Wed May 18 12:08:28 PDT 2022 ON: 20.00 +20.0 19.85 - 9.4 32.1 02 0C 2911 0911 Alarm State:  0
Wed May 18 12:07:27 PDT 2022 ON: 20.02 +20.0 19.90 -12.3 30.9 0E 09 280E 0926 Alarm State:  0
Wed May 18 12:06:25 PDT 2022 ON: 20.00 +20.0 19.88 -11.0 31.5 01 0B 2726 0A11 Alarm State:  0
Wed May 18 12:05:24 PDT 2022 ON: 19.99 +20.0 19.86 -10.0 32.2 03 0C 282F 0A2E Alarm State:  0
Wed May 18 12:04:22 PDT 2022 ON: 19.99 +20.0 19.86 - 9.2 32.8 02 0B 2A06 0923 Alarm State:  0
Wed May 18 12:03:21 PDT 2022 ON: 20.02 +20.0 19.90 -12.4 30.6 03 09 2A0C 090A Alarm State:  0
Wed May 18 12:02:19 PDT 2022 ON: 20.00 +20.0 19.88 -11.2 31.5 01 0A 2926 091C Alarm State:  0
Wed May 18 12:01:18 PDT 2022 ON: 19.99 +20.0 19.87 -10.2 32.4 0A 0B 2A31 0A03 Alarm State:  0
Wed May 18 12:00:16 PDT 2022 ON: 20.01 +20.0 19.84 - 9.7 32.1 02 0C 2C06 0902 Alarm State:  0
Wed May 18 11:59:15 PDT 2022 ON: 20.03 +20.0 19.91 -11.9 30.9 0E 09 2A2E 0A17 Alarm State:  0
Wed May 18 11:58:13 PDT 2022 ON: 20.00 +20.0 19.90 -10.7 31.7 0B 0B 292C 0C02 Alarm State:  0
Wed May 18 11:57:12 PDT 2022 ON: 19.99 +20.0 19.86 - 9.8 32.2 00 0C 2B04 0B08 Alarm State:  0
Wed May 18 11:56:10 PDT 2022 ON: 19.98 +20.0 19.81 - 8.3 32.6 0B 0E 2C0E 092F Alarm State:  0
Wed May 18 11:55:09 PDT 2022 ON: 20.02 +20.0 19.91 -11.9 30.6 0E 09 2B29 0A0D Alarm State:  0
Wed May 18 11:54:07 PDT 2022 ON: 20.00 +20.0 19.88 -10.1 32.0 03 0B 2B24 0B21 Alarm State:  0
Wed May 18 11:53:06 PDT 2022 ON: 19.98 +20.0 19.85 - 9.1 32.7 02 0C 2C2F 0A1B Alarm State:  0
Wed May 18 11:52:04 PDT 2022 ON: 20.03 +20.0 19.91 -11.9 30.4 00 09 2D17 0911 Alarm State:  0
Wed May 18 11:51:03 PDT 2022 ON: 19.99 +20.0 19.88 -10.8 31.8 0C 0B 2C28 0A20 Alarm State:  0
Wed May 18 11:50:01 PDT 2022 ON: 19.99 +20.0 19.84 - 9.8 32.5 03 0C 2D32 0929 Alarm State:  0
Wed May 18 11:49:00 PDT 2022 ON: 20.01 +20.0 19.85 -10.3 31.9 04 0C 2E29 0919 Alarm State:  0
Wed May 18 11:47:58 PDT 2022 ON: 20.01 +20.0 19.90 -11.7 30.8 0E 0A 2D1F 0A04 Alarm State:  0
Wed May 18 11:46:57 PDT 2022 ON: 20.00 +20.0 19.87 -10.1 32.2 04 0B 2E0E 0A1C Alarm State:  0
Wed May 18 11:45:55 PDT 2022 ON: 20.00 +20.0 19.87 - 9.5 32.7 03 0B 2F18 0908 Alarm State:  0
Wed May 18 11:44:54 PDT 2022 ON: 20.03 +20.0 19.89 -11.7 30.0 00 0A 2F0C 0A19 Alarm State:  0
Wed May 18 11:43:52 PDT 2022 ON: 20.00 +20.0 19.89 -10.6 31.9 00 0B 2E0E 0C04 Alarm State:  0
Wed May 18 11:42:51 PDT 2022 ON: 19.98 +20.0 19.87 - 9.5 32.2 03 0C 2F17 0C31 Alarm State:  0
Wed May 18 11:41:49 PDT 2022 ON: 19.97 +20.0 19.83 - 8.5 33.0 08 0E 3022 0B25 Alarm State:  0
Wed May 18 11:40:48 PDT 2022 ON: 20.01 +20.0 19.83 - 9.2 31.9 00 0E 3124 0B03 Alarm State:  0
Wed May 18 11:39:46 PDT 2022 ON: 20.01 +20.0 19.90 -11.1 30.9 01 0B 3019 0C18 Alarm State:  0
Wed May 18 11:38:45 PDT 2022 ON: 19.97 +20.0 19.86 - 9.5 32.1 03 0C 3115 0B31 Alarm State:  0
Wed May 18 11:37:43 PDT 2022 ON: 19.95 +20.0 19.85 - 9.3 31.6 02 0C 3220 0A25 Alarm State:  0
Wed May 18 11:36:42 PDT 2022 ON: 19.95 +20.0 19.72 - 4.4 33.2 00 12 332F 091A Alarm State:  0
Wed May 18 11:35:40 PDT 2022 ON: 20.00 +20.0 19.87 -11.0 32.0 06 0B 3327 0913 Alarm State:  0
Wed May 18 11:34:39 PDT 2022 ON: 20.01 +20.0 19.88 -11.2 31.8 06 0A 322D 0927 Alarm State:  0
Wed May 18 11:33:37 PDT 2022 ON: 20.00 +20.0 19.87 -11.0 31.9 0D 0B 3227 0913 Alarm State:  0
Wed May 18 11:32:36 PDT 2022 ON: 20.01 +20.0 19.87 -10.6 32.2 06 0B 330D 0927 Alarm State:  0
Wed May 18 11:31:34 PDT 2022 ON: 20.00 +20.0 19.87 -10.8 32.1 06 0B 322A 0913 Alarm State:  0
Wed May 18 11:30:32 PDT 2022 ON: 20.01 +20.0 19.88 -11.2 31.7 06 0A 320D 0927 Alarm State:  0
Wed May 18 11:29:31 PDT 2022 ON: 20.01 +20.0 19.87 -11.1 31.8 06 0B 3126 0913 Alarm State:  0
Wed May 18 11:28:29 PDT 2022 ON: 20.00 +20.0 19.87 -10.7 32.2 06 0B 3127 0927 Alarm State:  0
Wed May 18 11:27:28 PDT 2022 ON: 20.01 +20.0 19.88 -10.7 32.2 06 0A 321E 090F Alarm State:  0
Wed May 18 11:26:26 PDT 2022 ON: 20.00 +20.0 19.87 -10.9 32.0 06 0B 3217 0923 Alarm State:  0
Wed May 18 11:25:25 PDT 2022 ON: 20.00 +20.0 19.87 -11.2 31.8 06 0B 3207 090F Alarm State:  0
Wed May 18 11:24:23 PDT 2022 ON: 20.00 +20.0 19.87 -11.1 31.7 06 0B 311F 0923 Alarm State:  0
Wed May 18 11:23:22 PDT 2022 ON: 20.00 +20.0 19.87 -10.7 32.1 06 0B 312D 090F Alarm State:  0
Wed May 18 11:22:20 PDT 2022 ON: 20.01 +20.0 19.88 -10.6 32.2 00 0A 3221 0905 Alarm State:  0
Wed May 18 11:21:19 PDT 2022 ON: 20.01 +20.0 19.87 -10.9 32.1 00 0B 3215 091A Alarm State:  0
Wed May 18 11:20:17 PDT 2022 ON: 20.01 +20.0 19.88 -11.3 31.7 06 0A 3200 0905 Alarm State:  0
Wed May 18 11:19:16 PDT 2022 ON: 20.00 +20.0 19.88 -11.0 31.7 0D 0A 3117 091A Alarm State:  0
Wed May 18 11:18:14 PDT 2022 ON: 20.00 +20.0 19.87 -10.5 32.3 00 0B 3132 0924 Alarm State:  0
Wed May 18 11:17:13 PDT 2022 ON: 20.00 +20.0 19.87 -10.8 32.1 09 0B 3205 090C Alarm State:  0
Wed May 18 11:16:11 PDT 2022 ON: 20.00 +20.0 19.88 -11.1 31.9 06 0A 3127 0920 Alarm State:  0
Wed May 18 11:15:10 PDT 2022 ON: 20.01 +20.0 19.88 -11.2 31.8 06 0A 3123 090C Alarm State:  0
Wed May 18 11:14:08 PDT 2022 ON: 20.00 +20.0 19.88 -10.9 31.9 06 0A 3104 0920 Alarm State:  0
Wed May 18 11:13:07 PDT 2022 ON: 20.00 +20.0 19.86 -10.7 32.2 06 0B 312E 090C Alarm State:  0
Wed May 18 11:12:05 PDT 2022 ON: 20.01 +20.0 19.87 -10.7 32.1 09 0B 312D 0920 Alarm State:  0
Wed May 18 11:11:04 PDT 2022 ON: 20.00 +20.0 19.87 -11.1 32.0 06 0B 3123 090C Alarm State:  0
Wed May 18 11:10:02 PDT 2022 ON: 20.01 +20.0 19.88 -11.2 31.7 06 0A 302F 0920 Alarm State:  0
Wed May 18 11:09:01 PDT 2022 ON: 20.01 +20.0 19.88 -10.9 31.9 06 0A 3021 090C Alarm State:  0
Wed May 18 11:07:59 PDT 2022 ON: 20.00 +20.0 19.87 -10.8 32.1 06 0B 3026 0920 Alarm State:  0
Wed May 18 11:06:58 PDT 2022 ON: 20.00 +20.0 19.87 -10.8 32.1 06 0B 302A 090C Alarm State:  0
Wed May 18 11:05:56 PDT 2022 ON: 20.01 +20.0 19.88 -11.0 32.0 06 0A 302B 0920 Alarm State:  0
Wed May 18 11:04:55 PDT 2022 ON: 20.00 +20.0 19.87 -11.2 31.7 06 0B 301F 090C Alarm State:  0
Wed May 18 11:03:53 PDT 2022 ON: 20.00 +20.0 19.87 -10.9 31.9 06 0B 302E 0920 Alarm State:  0
Wed May 18 11:02:52 PDT 2022 ON: 20.00 +20.0 19.87 -10.6 32.2 0C 0B 312B 091D Alarm State:  0
Wed May 18 11:01:50 PDT 2022 ON: 20.01 +20.0 19.87 -10.6 32.2 06 0B 3207 0906 Alarm State:  0
Wed May 18 11:00:49 PDT 2022 ON: 20.01 +20.0 19.88 -11.1 32.0 0A 0A 3114 091B Alarm State:  0
Wed May 18 10:59:47 PDT 2022 ON: 20.01 +20.0 19.87 -11.5 31.4 07 0B 300E 0906 Alarm State:  0
Wed May 18 10:58:46 PDT 2022 ON: 20.00 +20.0 19.88 -11.0 31.8 0D 0A 300C 091B Alarm State:  0
Wed May 18 10:57:44 PDT 2022 ON: 19.99 +20.0 19.86 -10.4 32.4 0B 0B 3112 090D Alarm State:  0
Wed May 18 10:56:43 PDT 2022 ON: 20.00 +20.0 19.87 -10.7 32.2 06 0B 311E 090A Alarm State:  0
Wed May 18 10:55:41 PDT 2022 ON: 20.02 +20.0 19.88 -11.3 31.8 06 0A 3105 091E Alarm State:  0
Wed May 18 10:54:40 PDT 2022 ON: 20.00 +20.0 19.87 -11.3 31.6 06 0B 3002 090A Alarm State:  0
Wed May 18 10:53:38 PDT 2022 ON: 20.01 +20.0 19.88 -10.8 32.0 06 0A 2F1D 091F Alarm State:  0
Wed May 18 10:52:37 PDT 2022 ON: 20.00 +20.0 19.86 -10.6 32.2 06 0B 2F2E 0902 Alarm State:  0
Wed May 18 10:51:35 PDT 2022 ON: 20.02 +20.0 19.89 -10.9 32.1 0F 0A 3007 0917 Alarm State:  0
Wed May 18 10:50:34 PDT 2022 ON: 20.00 +20.0 19.88 -11.3 31.7 06 0A 2F29 0902 Alarm State:  0
Wed May 18 10:49:32 PDT 2022 ON: 20.00 +20.0 19.88 -11.0 31.8 06 0A 3020 0917 Alarm State:  0
Wed May 18 10:48:31 PDT 2022 ON: 20.01 +20.0 19.87 -10.6 32.2 09 0B 3116 0927 Alarm State:  0
Wed May 18 10:47:29 PDT 2022 ON: 20.00 +20.0 19.87 -10.8 32.1 06 0B 3104 0911 Alarm State:  0
Wed May 18 10:46:28 PDT 2022 ON: 20.00 +20.0 19.87 -11.1 31.9 06 0B 311D 0925 Alarm State:  0
Wed May 18 10:45:26 PDT 2022 ON: 20.01 +20.0 19.88 -11.1 31.8 06 0A 302C 0911 Alarm State:  0
Wed May 18 10:44:24 PDT 2022 ON: 20.00 +20.0 19.87 -10.7 32.1 06 0B 3013 0925 Alarm State:  0
Wed May 18 10:43:23 PDT 2022 ON: 20.00 +20.0 19.87 -10.7 32.2 06 0B 3019 0911 Alarm State:  0
Wed May 18 10:42:21 PDT 2022 ON: 20.01 +20.0 19.88 -11.0 32.0 00 0A 3105 0925 Alarm State:  0
Wed May 18 10:41:20 PDT 2022 ON: 20.01 +20.0 19.89 -11.2 31.6 06 0A 3012 0911 Alarm State:  0
Wed May 18 10:40:18 PDT 2022 ON: 20.00 +20.0 19.87 -10.8 32.0 00 0B 301F 0925 Alarm State:  0
Wed May 18 10:39:17 PDT 2022 ON: 20.01 +20.0 19.88 -10.6 32.2 06 0A 311C 0911 Alarm State:  0
Wed May 18 10:38:15 PDT 2022 ON: 20.01 +20.0 19.88 -10.9 32.0 06 0A 3200 0925 Alarm State:  0
Wed May 18 10:37:14 PDT 2022 ON: 20.01 +20.0 19.87 -11.2 31.8 06 0B 3105 0911 Alarm State:  0
Wed May 18 10:36:12 PDT 2022 ON: 20.00 +20.0 19.88 -11.1 31.8 06 0A 3027 0925 Alarm State:  0
Wed May 18 10:35:11 PDT 2022 ON: 20.00 +20.0 19.86 -10.7 32.1 00 0B 3108 0905 Alarm State:  0
Wed May 18 10:34:09 PDT 2022 ON: 20.00 +20.0 19.87 -10.6 32.2 00 0B 3123 0919 Alarm State:  0
Wed May 18 10:33:08 PDT 2022 ON: 20.01 +20.0 19.88 -11.1 32.0 06 0A 311B 0905 Alarm State:  0
Wed May 18 10:32:06 PDT 2022 ON: 20.00 +20.0 19.88 -11.1 31.7 06 0A 3102 0919 Alarm State:  0
Wed May 18 10:31:05 PDT 2022 ON: 20.00 +20.0 19.87 -11.0 32.0 01 0B 3029 0905 Alarm State:  0
Wed May 18 10:30:03 PDT 2022 ON: 20.00 +20.0 19.87 -10.9 31.9 06 0B 3109 0919 Alarm State:  0
Wed May 18 10:29:02 PDT 2022 ON: 20.01 +20.0 19.87 -10.7 32.1 00 0B 3103 0905 Alarm State:  0
Wed May 18 10:28:00 PDT 2022 ON: 20.01 +20.0 19.87 -10.8 32.1 06 0B 301F 0919 Alarm State:  0
Wed May 18 10:26:59 PDT 2022 ON: 20.01 +20.0 19.88 -11.1 31.9 0A 0A 2F26 0905 Alarm State:  0
Wed May 18 10:25:57 PDT 2022 ON: 20.00 +20.0 19.87 -11.1 31.8 06 0B 2F1D 0919 Alarm State:  0
Wed May 18 10:24:56 PDT 2022 ON: 20.00 +20.0 19.87 -10.8 32.1 06 0B 2F09 0905 Alarm State:  0
Wed May 18 10:23:54 PDT 2022 ON: 20.00 +20.0 19.87 -10.7 32.2 06 0B 2F1A 0919 Alarm State:  0
Wed May 18 10:22:53 PDT 2022 ON: 20.00 +20.0 19.86 -10.9 32.1 06 0B 3001 0905 Alarm State:  0
Wed May 18 10:21:51 PDT 2022 ON: 20.00 +20.0 19.87 -11.1 31.8 06 0B 2F25 0919 Alarm State:  0
Wed May 18 10:20:50 PDT 2022 ON: 20.01 +20.0 19.88 -11.1 31.7 06 0A 2F11 0905 Alarm State:  0
Wed May 18 10:19:48 PDT 2022 ON: 20.00 +20.0 19.87 -10.8 32.1 09 0B 2F06 0919 Alarm State:  0
Wed May 18 10:18:47 PDT 2022 ON: 20.01 +20.0 19.88 -10.7 32.2 06 0A 2F0A 0928 Alarm State:  0
Wed May 18 10:17:45 PDT 2022 ON: 20.01 +20.0 19.87 -10.9 32.1 09 0B 2E10 0913 Alarm State:  0
Wed May 18 10:16:44 PDT 2022 ON: 20.00 +20.0 19.87 -11.2 31.9 06 0B 2E0A 0928 Alarm State:  0
Wed May 18 10:15:42 PDT 2022 ON: 20.00 +20.0 19.88 -11.1 31.7 01 0A 2D1C 0913 Alarm State:  0
Wed May 18 10:14:41 PDT 2022 ON: 20.00 +20.0 19.88 -10.7 32.1 06 0A 2E13 0928 Alarm State:  0
Wed May 18 10:13:39 PDT 2022 ON: 20.01 +20.0 19.87 -10.6 32.2 00 0B 2F17 0913 Alarm State:  0
Wed May 18 10:12:38 PDT 2022 ON: 20.02 +20.0 19.88 -10.9 32.0 06 0A 2F03 0928 Alarm State:  0
Wed May 18 10:11:36 PDT 2022 ON: 20.01 +20.0 19.88 -11.2 31.8 06 0A 2E21 0913 Alarm State:  0
Wed May 18 10:10:35 PDT 2022 ON: 20.00 +20.0 19.88 -11.1 31.7 06 0A 2E27 0928 Alarm State:  0
Wed May 18 10:09:33 PDT 2022 ON: 20.00 +20.0 19.87 -10.6 32.2 00 0B 2F03 0901 Alarm State:  0
Wed May 18 10:08:32 PDT 2022 ON: 20.00 +20.0 19.87 -10.7 32.2 06 0B 2F1F 0916 Alarm State:  0
Wed May 18 10:07:30 PDT 2022 ON: 20.02 +20.0 19.90 -11.1 31.9 0A 09 2E23 0901 Alarm State:  0
Wed May 18 10:06:29 PDT 2022 ON: 20.01 +20.0 19.88 -11.4 31.5 07 0A 2D28 0916 Alarm State:  0
Wed May 18 10:05:27 PDT 2022 ON: 20.01 +20.0 19.88 -10.8 31.8 06 0B 2C2C 0A01 Alarm State:  0
Wed May 18 10:04:26 PDT 2022 ON: 20.00 +20.0 19.86 -10.4 32.3 00 0B 2D27 0921 Alarm State:  0
Wed May 18 10:03:24 PDT 2022 ON: 20.00 +20.0 19.86 -10.5 32.2 05 0B 2E29 0927 Alarm State:  0
Wed May 18 10:02:23 PDT 2022 ON: 20.01 +20.0 19.89 -11.4 31.7 07 0A 2D28 0913 Alarm State:  0
Wed May 18 10:01:21 PDT 2022 ON: 20.00 +20.0 19.88 -11.3 31.7 0D 0A 2C28 0927 Alarm State:  0
Wed May 18 10:00:20 PDT 2022 ON: 20.01 +20.0 19.87 -11.0 32.0 09 0B 2C18 0913 Alarm State:  0
Wed May 18 09:59:18 PDT 2022 ON: 20.02 +20.0 19.89 -11.2 32.0 0A 0A 2B18 0927 Alarm State:  0
Wed May 18 09:58:17 PDT 2022 ON: 20.02 +20.0 19.89 -11.4 31.7 06 0A 2A0D 0913 Alarm State:  0
Wed May 18 09:57:15 PDT 2022 ON: 20.01 +20.0 19.88 -11.5 31.5 0A 0A 2903 0927 Alarm State:  0
Wed May 18 09:56:14 PDT 2022 ON: 20.01 +20.0 19.88 -11.2 31.8 06 0A 272D 0913 Alarm State:  0
Wed May 18 09:55:12 PDT 2022 ON: 20.01 +20.0 19.88 -11.0 32.1 06 0A 2716 0927 Alarm State:  0
Wed May 18 09:54:11 PDT 2022 ON: 20.02 +20.0 19.88 -11.1 32.0 06 0A 2625 0913 Alarm State:  0
Wed May 18 09:53:09 PDT 2022 ON: 20.02 +20.0 19.89 -11.5 31.7 06 0A 251B 0927 Alarm State:  0
Wed May 18 09:52:08 PDT 2022 ON: 20.01 +20.0 19.89 -11.7 31.5 02 0A 2410 0913 Alarm State:  0
Wed May 18 09:51:06 PDT 2022 ON: 20.01 +20.0 19.88 -11.2 31.9 05 0A 2328 0927 Alarm State:  0
Wed May 18 09:50:05 PDT 2022 ON: 20.01 +20.0 19.87 -10.9 32.1 04 0B 222D 0913 Alarm State:  0
Wed May 18 09:49:03 PDT 2022 ON: 20.02 +20.0 19.88 -11.2 32.0 00 0A 212B 0927 Alarm State:  0
Wed May 18 09:48:02 PDT 2022 ON: 20.02 +20.0 19.89 -11.7 31.6 06 0A 2020 0913 Alarm State:  0
Wed May 18 09:47:00 PDT 2022 ON: 20.01 +20.0 19.89 -11.8 31.3 06 0A 1F16 0927 Alarm State:  0
Wed May 18 09:45:59 PDT 2022 ON: 20.01 +20.0 19.88 -11.0 32.0 05 0A 1F04 0913 Alarm State:  0
Wed May 18 09:44:57 PDT 2022 ON: 20.00 +20.0 19.87 -10.9 32.0 04 0B 1F01 0927 Alarm State:  0
Wed May 18 09:43:56 PDT 2022 ON: 20.01 +20.0 19.88 -11.0 32.0 05 0A 200C 0913 Alarm State:  0
Wed May 18 09:42:54 PDT 2022 ON: 20.01 +20.0 19.88 -10.9 32.0 04 0A 2007 0927 Alarm State:  0
Wed May 18 09:41:53 PDT 2022 ON: 20.00 +20.0 19.86 -10.9 32.0 04 0B 202B 0911 Alarm State:  0
Wed May 18 09:40:51 PDT 2022 ON: 20.01 +20.0 19.87 -11.0 32.0 05 0B 2025 0924 Alarm State:  0
Wed May 18 09:39:49 PDT 2022 ON: 20.01 +20.0 19.88 -11.0 31.9 05 0A 201E 090F Alarm State:  0
Wed May 18 09:38:48 PDT 2022 ON: 20.00 +20.0 19.86 -10.9 32.0 04 0B 2109 0924 Alarm State:  0
Wed May 18 09:37:46 PDT 2022 ON: 20.00 +20.0 19.87 -10.9 32.1 04 0B 211A 090F Alarm State:  0
Wed May 18 09:36:45 PDT 2022 ON: 20.00 +20.0 19.87 -11.0 32.0 05 0B 211C 0924 Alarm State:  0
Wed May 18 09:35:43 PDT 2022 ON: 20.01 +20.0 19.88 -11.0 32.0 05 0A 2121 090F Alarm State:  0
Wed May 18 09:34:42 PDT 2022 ON: 20.00 +20.0 19.87 -10.9 32.0 00 0B 212B 0924 Alarm State:  0
Wed May 18 09:33:40 PDT 2022 ON: 20.00 +20.0 19.87 -10.9 32.0 04 0B 221B 090F Alarm State:  0
Wed May 18 09:32:39 PDT 2022 ON: 20.01 +20.0 19.88 -10.9 32.0 04 0A 222B 0924 Alarm State:  0
Wed May 18 09:31:37 PDT 2022 ON: 20.01 +20.0 19.87 -10.9 32.0 00 0B 222C 090F Alarm State:  0
Wed May 18 09:30:36 PDT 2022 ON: 20.01 +20.0 19.88 -11.0 32.0 05 0A 2214 0924 Alarm State:  0
Wed May 18 09:29:34 PDT 2022 ON: 20.00 +20.0 19.87 -10.9 32.0 07 0B 2217 090D Alarm State:  0
Wed May 18 09:28:33 PDT 2022 ON: 20.01 +20.0 19.87 -10.9 32.1 04 0B 220D 0912 Alarm State:  0
Wed May 18 09:27:31 PDT 2022 ON: 20.01 +20.0 19.87 -10.9 32.0 04 0B 2230 0926 Alarm State:  0
Wed May 18 09:26:30 PDT 2022 ON: 20.01 +20.0 19.88 -11.0 31.9 01 0A 2301 0912 Alarm State:  0
Wed May 18 09:25:28 PDT 2022 ON: 20.01 +20.0 19.88 -10.9 32.0 00 0A 2207 0926 Alarm State:  0
Wed May 18 09:24:27 PDT 2022 ON: 20.00 +20.0 19.87 -10.8 32.1 04 0B 222F 0906 Alarm State:  0
Wed May 18 09:23:25 PDT 2022 ON: 20.00 +20.0 19.87 -11.0 32.0 05 0B 2214 091A Alarm State:  0
Wed May 18 09:22:24 PDT 2022 ON: 20.00 +20.0 19.87 -11.1 31.9 05 0B 2301 0906 Alarm State:  0
Wed May 18 09:21:22 PDT 2022 ON: 20.00 +20.0 19.88 -11.0 31.9 05 0A 2328 091A Alarm State:  0
Wed May 18 09:20:21 PDT 2022 ON: 20.01 +20.0 19.87 -10.7 32.2 00 0B 2314 0906 Alarm State:  0
Wed May 18 09:19:19 PDT 2022 ON: 20.00 +20.0 19.86 -10.8 32.1 04 0B 2412 091A Alarm State:  0
Wed May 18 09:18:18 PDT 2022 ON: 20.01 +20.0 19.87 -11.1 31.9 08 0B 232D 0906 Alarm State:  0
Wed May 18 09:17:16 PDT 2022 ON: 20.00 +20.0 19.87 -11.2 31.7 05 0B 2330 091A Alarm State:  0
Wed May 18 09:16:15 PDT 2022 ON: 20.01 +20.0 19.87 -10.7 32.1 0E 0B 2411 091D Alarm State:  0
Wed May 18 09:15:13 PDT 2022 ON: 20.01 +20.0 19.87 -10.6 32.2 04 0B 2430 0908 Alarm State:  0
Wed May 18 09:14:12 PDT 2022 ON: 20.01 +20.0 19.87 -10.9 32.1 05 0B 250B 0919 Alarm State:  0
Wed May 18 09:13:10 PDT 2022 ON: 20.01 +20.0 19.88 -11.2 31.8 06 0A 241F 0904 Alarm State:  0
Wed May 18 09:12:09 PDT 2022 ON: 20.00 +20.0 19.87 -11.1 31.7 05 0B 2427 0919 Alarm State:  0
Wed May 18 09:11:07 PDT 2022 ON: 20.00 +20.0 19.87 -10.7 32.1 00 0B 2511 0919 Alarm State:  0
Wed May 18 09:10:06 PDT 2022 ON: 20.00 +20.0 19.87 -10.6 32.2 05 0B 2606 0905 Alarm State:  0
Wed May 18 09:09:04 PDT 2022 ON: 20.01 +20.0 19.87 -11.0 32.0 06 0B 2603 0915 Alarm State:  0
Wed May 18 09:08:03 PDT 2022 ON: 20.00 +20.0 19.87 -11.3 31.6 06 0B 251C 0901 Alarm State:  0
Wed May 18 09:07:01 PDT 2022 ON: 20.00 +20.0 19.87 -10.9 31.9 05 0B 2527 0915 Alarm State:  0
Wed May 18 09:06:00 PDT 2022 ON: 19.99 +20.0 19.86 -10.5 32.3 04 0B 2626 090E Alarm State:  0
Wed May 18 09:04:58 PDT 2022 ON: 20.01 +20.0 19.86 -10.8 32.1 05 0B 2706 090E Alarm State:  0
Wed May 18 09:03:57 PDT 2022 ON: 20.01 +20.0 19.88 -11.3 31.7 06 0A 262F 0923 Alarm State:  0
Wed May 18 09:02:55 PDT 2022 ON: 20.01 +20.0 19.88 -11.2 31.7 01 0A 261A 090A Alarm State:  0
Wed May 18 09:01:54 PDT 2022 ON: 20.00 +20.0 19.87 -10.7 32.2 05 0B 271D 0917 Alarm State:  0
Wed May 18 09:00:52 PDT 2022 ON: 20.00 +20.0 19.86 -10.6 32.2 05 0B 281D 0905 Alarm State:  0
Wed May 18 08:59:51 PDT 2022 ON: 20.01 +20.0 19.87 -11.0 32.0 06 0B 2900 0916 Alarm State:  0
Wed May 18 08:58:49 PDT 2022 ON: 20.00 +20.0 19.88 -11.3 31.7 06 0A 2826 0901 Alarm State:  0
Wed May 18 08:57:48 PDT 2022 ON: 20.00 +20.0 19.87 -11.0 31.8 06 0B 2909 0916 Alarm State:  0
Wed May 18 08:56:46 PDT 2022 ON: 20.01 +20.0 19.87 -10.6 32.3 0B 0B 2A0B 090C Alarm State:  0
Wed May 18 08:55:45 PDT 2022 ON: 20.01 +20.0 19.87 -10.7 32.2 05 0B 2A29 090B Alarm State:  0
Wed May 18 08:54:43 PDT 2022 ON: 20.00 +20.0 19.87 -11.1 31.9 06 0B 2A28 091F Alarm State:  0
Wed May 18 08:53:42 PDT 2022 ON: 20.00 +20.0 19.87 -11.2 31.7 00 0B 292F 090B Alarm State:  0
Wed May 18 08:52:40 PDT 2022 ON: 20.00 +20.0 19.87 -10.9 31.9 00 0B 2B00 0909 Alarm State:  0
Wed May 18 08:51:39 PDT 2022 ON: 20.00 +20.0 19.87 -10.5 32.3 04 0B 2B2C 091C Alarm State:  0
Wed May 18 08:50:37 PDT 2022 ON: 20.01 +20.0 19.87 -10.8 32.1 05 0B 2C10 0918 Alarm State:  0
Wed May 18 08:49:36 PDT 2022 ON: 20.00 +20.0 19.88 -11.2 31.8 06 0A 2B27 0904 Alarm State:  0
Wed May 18 08:48:34 PDT 2022 ON: 20.00 +20.0 19.88 -11.2 31.6 0C 0A 2B20 0918 Alarm State:  0
Wed May 18 08:47:33 PDT 2022 ON: 20.00 +20.0 19.87 -10.6 32.2 05 0B 2C1D 0919 Alarm State:  0
Wed May 18 08:46:31 PDT 2022 ON: 20.00 +20.0 19.87 -10.5 32.2 08 0B 2D27 0927 Alarm State:  0
Wed May 18 08:45:30 PDT 2022 ON: 20.01 +20.0 19.87 -11.0 32.0 00 0B 2E0E 0913 Alarm State:  0
Wed May 18 08:44:28 PDT 2022 ON: 20.02 +20.0 19.88 -11.3 31.6 06 0A 2D0A 0927 Alarm State:  0
Wed May 18 08:43:27 PDT 2022 ON: 20.01 +20.0 19.89 -11.0 31.8 06 0A 2C07 0A13 Alarm State:  0
Wed May 18 08:42:25 PDT 2022 ON: 19.99 +20.0 19.85 -10.4 32.3 04 0C 2D0B 0924 Alarm State:  0
Wed May 18 08:41:24 PDT 2022 ON: 20.01 +20.0 19.87 -10.6 32.2 06 0B 2D13 090C Alarm State:  0
Wed May 18 08:40:22 PDT 2022 ON: 20.01 +20.0 19.88 -11.3 31.8 06 0A 2C2D 0920 Alarm State:  0
Wed May 18 08:39:21 PDT 2022 ON: 20.00 +20.0 19.88 -11.3 31.5 06 0A 2B2E 090C Alarm State:  0
Wed May 18 08:38:19 PDT 2022 ON: 19.99 +20.0 19.87 -10.7 32.1 0B 0B 2C14 0A08 Alarm State:  0
Wed May 18 08:37:18 PDT 2022 ON: 20.00 +20.0 19.86 -10.3 32.4 0A 0B 2D1F 0901 Alarm State:  0
Wed May 18 08:36:16 PDT 2022 ON: 20.01 +20.0 19.87 -10.7 32.1 00 0B 2D32 0913 Alarm State:  0
Wed May 18 08:35:14 PDT 2022 ON: 20.02 +20.0 19.89 -11.7 31.3 00 0A 2C27 0928 Alarm State:  0
Wed May 18 08:34:13 PDT 2022 ON: 20.01 +20.0 19.88 -11.4 31.2 02 0A 2B2F 0913 Alarm State:  0
Wed May 18 08:33:11 PDT 2022 ON: 20.00 +20.0 19.86 -10.3 32.3 0A 0B 2C24 0928 Alarm State:  0
Wed May 18 08:32:10 PDT 2022 ON: 20.00 +20.0 19.85 - 9.9 32.4 03 0C 2D2E 090B Alarm State:  0
Wed May 18 08:31:08 PDT 2022 ON: 20.02 +20.0 19.89 -11.1 31.8 0A 0A 2D10 0920 Alarm State:  0
Wed May 18 08:30:07 PDT 2022 ON: 20.01 +20.0 19.89 -11.4 31.1 07 0B 2C06 0B0B Alarm State:  0
Wed May 18 08:29:05 PDT 2022 ON: 19.99 +20.0 19.89 -10.7 31.1 00 0B 2B25 0C08 Alarm State:  0
Wed May 18 08:28:04 PDT 2022 ON: 19.97 +20.0 19.84 - 9.0 32.5 05 0D 2C2F 0B07 Alarm State:  0
Wed May 18 08:27:02 PDT 2022 ON: 19.96 +20.0 19.84 - 7.4 33.3 00 0C 2E07 092D Alarm State:  0
Wed May 18 08:26:01 PDT 2022 ON: 20.01 +20.0 19.88 -11.6 31.4 07 0A 2E0C 0905 Alarm State:  0
Wed May 18 08:24:59 PDT 2022 ON: 20.01 +20.0 19.88 -11.1 32.0 0D 0A 2D17 091A Alarm State:  0
Wed May 18 08:23:58 PDT 2022 ON: 20.01 +20.0 19.87 -10.9 32.1 05 0B 2C1A 0906 Alarm State:  0
Wed May 18 08:22:56 PDT 2022 ON: 20.02 +20.0 19.88 -11.4 31.9 06 0A 2B10 091A Alarm State:  0
Wed May 18 08:21:55 PDT 2022 ON: 20.02 +20.0 19.89 -11.7 31.4 10 0A 2A05 0906 Alarm State:  0
Wed May 18 08:20:53 PDT 2022 ON: 20.00 +20.0 19.88 -11.4 31.6 06 0A 2905 091A Alarm State:  0
Wed May 18 08:19:52 PDT 2022 ON: 20.01 +20.0 19.88 -10.9 32.2 0B 0A 2915 0906 Alarm State:  0
Wed May 18 08:18:50 PDT 2022 ON: 20.00 +20.0 19.87 -11.0 32.0 06 0B 281D 091A Alarm State:  0
Wed May 18 08:17:49 PDT 2022 ON: 20.02 +20.0 19.89 -11.6 31.7 06 0A 2718 0906 Alarm State:  0
Wed May 18 08:16:47 PDT 2022 ON: 20.02 +20.0 19.90 -11.8 31.3 02 09 260E 091A Alarm State:  0
Wed May 18 08:15:46 PDT 2022 ON: 20.00 +20.0 19.88 -11.1 31.9 06 0A 2505 0906 Alarm State:  0
Wed May 18 08:14:44 PDT 2022 ON: 20.01 +20.0 19.87 -10.7 32.2 00 0B 2524 0916 Alarm State:  0
Wed May 18 08:13:43 PDT 2022 ON: 20.02 +20.0 19.87 -10.7 32.1 05 0B 250A 0902 Alarm State:  0
Wed May 18 08:12:41 PDT 2022 ON: 20.03 +20.0 19.89 -12.0 31.3 07 0A 2400 0916 Alarm State:  0
Wed May 18 08:11:40 PDT 2022 ON: 20.02 +20.0 19.90 -12.2 30.7 08 09 2228 0902 Alarm State:  0
Wed May 18 08:10:38 PDT 2022 ON: 20.00 +20.0 19.88 -11.0 31.8 0B 0A 2225 0916 Alarm State:  0
Wed May 18 08:09:37 PDT 2022 ON: 19.99 +20.0 19.86 -10.3 32.4 03 0B 232E 090D Alarm State:  0
Wed May 18 08:08:35 PDT 2022 ON: 20.02 +20.0 19.88 -11.3 31.3 00 0A 2406 0911 Alarm State:  0
Wed May 18 08:07:34 PDT 2022 ON: 20.01 +20.0 19.88 -12.0 30.9 06 0A 222E 0926 Alarm State:  0
Wed May 18 08:06:32 PDT 2022 ON: 20.00 +20.0 19.86 -10.8 32.2 0A 0B 2203 0907 Alarm State:  0
Wed May 18 08:05:31 PDT 2022 ON: 20.00 +20.0 19.87 -10.9 32.0 04 0B 2207 091C Alarm State:  0
Wed May 18 08:04:29 PDT 2022 ON: 20.00 +20.0 19.88 -10.9 31.9 04 0A 2222 0928 Alarm State:  0
Wed May 18 08:03:28 PDT 2022 ON: 20.00 +20.0 19.87 -10.8 32.0 00 0B 2317 090E Alarm State:  0
Wed May 18 08:02:26 PDT 2022 ON: 20.00 +20.0 19.87 -10.7 32.1 04 0B 2403 091C Alarm State:  0
Wed May 18 08:01:25 PDT 2022 ON: 20.00 +20.0 19.87 -10.8 32.1 0A 0B 242B 0902 Alarm State:  0
Wed May 18 08:00:23 PDT 2022 ON: 20.00 +20.0 19.87 -10.9 32.0 05 0B 2511 0916 Alarm State:  0
Wed May 18 07:59:22 PDT 2022 ON: 20.00 +20.0 19.88 -11.0 31.9 06 0A 2525 0902 Alarm State:  0
Wed May 18 07:58:20 PDT 2022 ON: 20.00 +20.0 19.87 -10.8 32.0 08 0B 2613 0914 Alarm State:  0
Wed May 18 07:57:19 PDT 2022 ON: 20.00 +20.0 19.87 -10.6 32.2 05 0B 2716 090F Alarm State:  0
Wed May 18 07:56:17 PDT 2022 ON: 20.00 +20.0 19.87 -10.8 32.1 08 0B 272D 0923 Alarm State:  0
Wed May 18 07:55:16 PDT 2022 ON: 20.00 +20.0 19.88 -11.0 31.9 00 0A 262E 090F Alarm State:  0
Wed May 18 07:54:14 PDT 2022 ON: 20.01 +20.0 19.88 -11.0 31.9 06 0A 270E 0923 Alarm State:  0
Wed May 18 07:53:13 PDT 2022 ON: 20.00 +20.0 19.87 -10.9 32.0 00 0B 271C 090F Alarm State:  0
Wed May 18 07:52:11 PDT 2022 ON: 20.00 +20.0 19.87 -10.7 32.1 00 0B 2822 0911 Alarm State:  0
Wed May 18 07:51:10 PDT 2022 ON: 20.00 +20.0 19.87 -10.7 32.2 05 0B 291D 0926 Alarm State:  0
Wed May 18 07:50:08 PDT 2022 ON: 20.01 +20.0 19.87 -11.0 32.0 09 0B 2A0F 090D Alarm State:  0
Wed May 18 07:49:07 PDT 2022 ON: 20.00 +20.0 19.88 -11.1 31.8 06 0A 2A13 0922 Alarm State:  0
Wed May 18 07:48:05 PDT 2022 ON: 20.00 +20.0 19.86 -10.9 31.9 05 0B 2A20 090D Alarm State:  0
Wed May 18 07:47:04 PDT 2022 ON: 20.00 +20.0 19.86 -10.6 32.2 05 0B 2B1B 090E Alarm State:  0
Wed May 18 07:46:02 PDT 2022 ON: 20.00 +20.0 19.86 -10.6 32.2 05 0B 2C21 0914 Alarm State:  0
Wed May 18 07:45:01 PDT 2022 ON: 20.00 +20.0 19.87 -10.9 32.0 00 0B 2D04 0900 Alarm State:  0
Wed May 18 07:43:59 PDT 2022 ON: 20.01 +20.0 19.88 -11.2 31.7 06 0A 2C0E 0914 Alarm State:  0
Wed May 18 07:42:58 PDT 2022 ON: 20.01 +20.0 19.89 -11.0 31.8 06 0A 2B2B 0A00 Alarm State:  0
Wed May 18 07:41:56 PDT 2022 ON: 20.00 +20.0 19.86 -10.5 32.3 04 0B 2C13 0925 Alarm State:  0
Wed May 18 07:40:55 PDT 2022 ON: 20.00 +20.0 19.86 -10.6 32.2 05 0B 2C31 090B Alarm State:  0
Wed May 18 07:39:53 PDT 2022 ON: 20.01 +20.0 19.89 -11.0 32.0 06 0A 2D03 091F Alarm State:  0
Wed May 18 07:38:52 PDT 2022 ON: 20.00 +20.0 19.88 -11.3 31.5 06 0A 2C24 090B Alarm State:  0
Wed May 18 07:37:50 PDT 2022 ON: 19.99 +20.0 19.87 -10.9 31.8 06 0B 2D18 091D Alarm State:  0
Wed May 18 07:36:49 PDT 2022 ON: 20.00 +20.0 19.86 -10.3 32.3 05 0B 2E23 090E Alarm State:  0
Wed May 18 07:35:47 PDT 2022 ON: 20.01 +20.0 19.87 -10.5 32.2 08 0B 2F29 0920 Alarm State:  0
Wed May 18 07:34:46 PDT 2022 ON: 20.01 +20.0 19.87 -11.2 31.8 06 0B 2E28 090C Alarm State:  0
Wed May 18 07:33:44 PDT 2022 ON: 20.01 +20.0 19.88 -11.5 31.2 07 0A 2D2A 0920 Alarm State:  0
Wed May 18 07:32:43 PDT 2022 ON: 20.00 +20.0 19.88 -10.8 31.9 00 0B 2D1A 0A1D Alarm State:  0
Wed May 18 07:31:41 PDT 2022 ON: 19.99 +20.0 19.87 - 9.9 32.4 04 0B 2E24 0A18 Alarm State:  0
Wed May 18 07:30:40 PDT 2022 ON: 20.00 +20.0 19.85 - 9.6 32.3 06 0C 2F2F 090E Alarm State:  0
Wed May 18 07:29:38 PDT 2022 ON: 20.01 +20.0 19.88 -11.5 31.6 0E 0A 2F02 0922 Alarm State:  0
Wed May 18 07:28:37 PDT 2022 ON: 20.01 +20.0 19.88 -11.1 31.9 0D 0A 2E25 090E Alarm State:  0
Wed May 18 07:27:35 PDT 2022 ON: 20.00 +20.0 19.87 -10.9 32.1 06 0B 2E02 0922 Alarm State:  0
Wed May 18 07:26:34 PDT 2022 ON: 20.01 +20.0 19.88 -11.1 32.0 06 0A 2D2B 090E Alarm State:  0
Wed May 18 07:25:32 PDT 2022 ON: 20.01 +20.0 19.88 -11.5 31.8 02 0A 2C21 0922 Alarm State:  0
Wed May 18 07:24:31 PDT 2022 ON: 20.01 +20.0 19.88 -11.4 31.8 06 0A 2B16 090E Alarm State:  0
Wed May 18 07:23:29 PDT 2022 ON: 20.02 +20.0 19.88 -11.4 31.9 06 0A 2A0C 0922 Alarm State:  0
Wed May 18 07:22:27 PDT 2022 ON: 20.01 +20.0 19.88 -11.4 31.8 06 0A 2901 090E Alarm State:  0
Wed May 18 07:21:26 PDT 2022 ON: 20.03 +20.0 19.89 -11.5 31.8 0A 0A 272A 0922 Alarm State:  0
Wed May 18 07:20:24 PDT 2022 ON: 20.02 +20.0 19.89 -11.6 31.7 00 0A 261F 090E Alarm State:  0
Wed May 18 07:19:23 PDT 2022 ON: 20.01 +20.0 19.87 -11.5 31.7 06 0B 2515 0922 Alarm State:  0
Wed May 18 07:18:21 PDT 2022 ON: 20.01 +20.0 19.88 -11.3 31.9 06 0A 240A 090E Alarm State:  0
Wed May 18 07:17:20 PDT 2022 ON: 20.02 +20.0 19.89 -11.3 31.9 06 0A 2300 0922 Alarm State:  0
Wed May 18 07:16:18 PDT 2022 ON: 20.03 +20.0 19.89 -11.5 31.8 06 0A 2128 090E Alarm State:  0
Wed May 18 07:15:17 PDT 2022 ON: 20.02 +20.0 19.90 -11.7 31.6 06 09 201E 0922 Alarm State:  0
Wed May 18 07:14:15 PDT 2022 ON: 20.01 +20.0 19.88 -11.5 31.7 06 0A 1F13 090E Alarm State:  0
Wed May 18 07:13:14 PDT 2022 ON: 20.01 +20.0 19.88 -11.2 31.9 05 0A 1E09 0922 Alarm State:  0
Wed May 18 07:12:12 PDT 2022 ON: 20.02 +20.0 19.89 -11.2 32.0 05 0A 1C31 090E Alarm State:  0
Wed May 18 07:11:01 PDT 2022  Alarm State: 0
Wed May 18 07:11:01 PDT 2022 Chiller did not report ON, got this reading: 
Wed May 18 07:10:00 PDT 2022 ON: 20.02 +20.0 19.89 -11.9 31.2 00 0A 1A12 0918 Alarm State:  0
Wed May 18 07:08:58 PDT 2022 ON: 20.00 +20.0 19.88 -11.6 31.3 06 0A 1908 0903 Alarm State:  0
Wed May 18 07:07:57 PDT 2022 ON: 20.00 +20.0 19.87 -10.9 31.9 04 0B 1904 0918 Alarm State:  0
Wed May 18 07:06:55 PDT 2022 ON: 20.00 +20.0 19.87 -10.5 32.3 03 0B 1A06 091D Alarm State:  0
Wed May 18 07:05:53 PDT 2022 ON: 20.03 +20.0 19.88 -11.8 30.6 00 0A 1A08 0909 Alarm State:  0
Wed May 18 07:04:52 PDT 2022 ON: 20.01 +20.0 19.90 -11.8 31.7 0D 09 1831 091D Alarm State:  0
Wed May 18 07:03:50 PDT 2022 ON: 20.01 +20.0 19.87 -10.9 32.0 04 0B 1906 0907 Alarm State:  0
Wed May 18 07:02:49 PDT 2022 ON: 20.00 +20.0 19.87 -10.9 32.0 03 0B 181C 0919 Alarm State:  0
Wed May 18 07:01:47 PDT 2022 ON: 20.01 +20.0 19.87 -11.0 31.9 05 0B 1907 0905 Alarm State:  0
Wed May 18 07:00:46 PDT 2022 ON: 19.99 +20.0 19.87 -11.0 31.9 05 0B 1906 0913 Alarm State:  0
Wed May 18 06:59:44 PDT 2022 ON: 20.01 +20.0 19.88 -10.9 32.0 04 0A 1922 0922 Alarm State:  0
Wed May 18 06:58:43 PDT 2022 ON: 20.01 +20.0 19.88 -11.0 32.0 05 0A 192B 0909 Alarm State:  0
Wed May 18 06:57:41 PDT 2022 ON: 20.01 +20.0 19.87 -11.0 32.0 05 0B 192B 091C Alarm State:  0
Wed May 18 06:56:40 PDT 2022 ON: 20.01 +20.0 19.88 -11.0 32.0 05 0A 1A07 0905 Alarm State:  0
Wed May 18 06:55:38 PDT 2022 ON: 20.00 +20.0 19.87 -11.0 32.0 05 0B 1A0D 091A Alarm State:  0
Wed May 18 06:54:37 PDT 2022 ON: 20.00 +20.0 19.88 -11.0 31.9 0B 0A 192F 0905 Alarm State:  0
Wed May 18 06:53:35 PDT 2022 ON: 20.01 +20.0 19.87 -10.9 32.0 04 0B 192F 091A Alarm State:  0
Wed May 18 06:52:34 PDT 2022 ON: 20.00 +20.0 19.86 -10.9 32.0 04 0B 1A17 0903 Alarm State:  0
Wed May 18 06:51:32 PDT 2022 ON: 20.00 +20.0 19.87 -11.0 31.9 05 0B 1A11 0918 Alarm State:  0
Wed May 18 06:50:31 PDT 2022 ON: 20.01 +20.0 19.87 -11.0 32.0 05 0B 191E 0904 Alarm State:  0
Wed May 18 06:49:29 PDT 2022 ON: 20.00 +20.0 19.88 -11.0 32.0 05 0A 1913 0918 Alarm State:  0
Wed May 18 06:48:28 PDT 2022 ON: 20.00 +20.0 19.87 -11.0 32.0 05 0B 1A1C 0904 Alarm State:  0
Wed May 18 06:47:26 PDT 2022 ON: 20.01 +20.0 19.87 -11.0 32.0 05 0B 1A21 0918 Alarm State:  0
Wed May 18 06:46:25 PDT 2022 ON: 20.00 +20.0 19.88 -10.9 32.0 04 0A 1A25 0900 Alarm State:  0
Wed May 18 06:45:23 PDT 2022 ON: 20.00 +20.0 19.86 -10.9 32.0 04 0B 1A26 0914 Alarm State:  0
Wed May 18 06:44:22 PDT 2022 ON: 20.00 +20.0 19.87 -11.0 32.0 05 0B 1929 0900 Alarm State:  0
Wed May 18 06:43:20 PDT 2022 ON: 20.01 +20.0 19.87 -11.0 31.9 05 0B 1914 0914 Alarm State:  0
Wed May 18 06:42:19 PDT 2022 ON: 20.00 +20.0 19.87 -11.0 32.0 05 0B 1910 0900 Alarm State:  0
Wed May 18 06:41:17 PDT 2022 ON: 20.00 +20.0 19.87 -10.9 32.0 04 0B 1A16 0914 Alarm State:  0
Wed May 18 06:40:16 PDT 2022 ON: 20.00 +20.0 19.87 -11.0 32.0 05 0B 1A1E 0900 Alarm State:  0
Wed May 18 06:39:14 PDT 2022 ON: 20.01 +20.0 19.88 -11.1 32.0 01 0A 1A11 0914 Alarm State:  0
Wed May 18 06:38:13 PDT 2022 ON: 20.00 +20.0 19.88 -11.0 31.9 05 0A 1932 0900 Alarm State:  0
Wed May 18 06:37:11 PDT 2022 ON: 20.00 +20.0 19.87 -10.9 32.0 04 0B 1A12 0914 Alarm State:  0
Wed May 18 06:36:10 PDT 2022 ON: 20.00 +20.0 19.87 -10.9 32.0 07 0B 1A16 0900 Alarm State:  0
Wed May 18 06:35:08 PDT 2022 ON: 20.00 +20.0 19.87 -11.0 32.0 05 0B 1A13 0914 Alarm State:  0
Wed May 18 06:34:07 PDT 2022 ON: 20.00 +20.0 19.87 -11.0 31.9 00 0B 1A13 0900 Alarm State:  0
Wed May 18 06:33:05 PDT 2022 ON: 20.00 +20.0 19.86 -11.0 32.0 05 0B 1A24 090C Alarm State:  0
Wed May 18 06:32:04 PDT 2022 ON: 20.01 +20.0 19.87 -10.9 32.0 04 0B 1A2C 091B Alarm State:  0
Wed May 18 06:31:02 PDT 2022 ON: 20.01 +20.0 19.87 -10.9 32.0 04 0B 1A27 0906 Alarm State:  0
Wed May 18 06:30:01 PDT 2022 ON: 20.01 +20.0 19.88 -11.0 32.0 05 0A 1A19 091B Alarm State:  0
Wed May 18 06:28:59 PDT 2022 ON: 20.01 +20.0 19.88 -11.0 31.9 05 0A 1A10 0906 Alarm State:  0
Wed May 18 06:27:58 PDT 2022 ON: 20.01 +20.0 19.87 -11.0 32.0 00 0B 1931 091B Alarm State:  0
Wed May 18 06:26:56 PDT 2022 ON: 20.00 +20.0 19.87 -10.9 32.0 04 0B 1A19 0906 Alarm State:  0
Wed May 18 06:25:55 PDT 2022 ON: 20.00 +20.0 19.87 -11.0 32.0 0E 0B 1B10 091B Alarm State:  0
Wed May 18 06:24:53 PDT 2022 ON: 20.00 +20.0 19.87 -11.0 32.0 05 0B 1B2F 0906 Alarm State:  0
Wed May 18 06:23:52 PDT 2022 ON: 20.00 +20.0 19.87 -11.0 32.0 08 0B 1C08 091B Alarm State:  0
Wed May 18 06:22:50 PDT 2022 ON: 20.01 +20.0 19.88 -10.9 32.0 04 0A 1B26 0906 Alarm State:  0
Wed May 18 06:21:49 PDT 2022 ON: 20.00 +20.0 19.87 -10.9 32.0 05 0B 1B32 091B Alarm State:  0
Wed May 18 06:20:47 PDT 2022 ON: 20.01 +20.0 19.88 -11.0 32.0 05 0A 1C18 0906 Alarm State:  0
Wed May 18 06:19:46 PDT 2022 ON: 20.00 +20.0 19.87 -11.0 31.9 05 0B 1B31 091B Alarm State:  0
Wed May 18 06:18:44 PDT 2022 ON: 20.00 +20.0 19.87 -11.0 31.9 05 0B 1C01 0906 Alarm State:  0
Wed May 18 06:17:43 PDT 2022 ON: 20.01 +20.0 19.87 -10.9 32.0 04 0B 1C19 091B Alarm State:  0
Wed May 18 06:16:41 PDT 2022 ON: 20.01 +20.0 19.88 -10.9 32.0 04 0A 1C1C 0906 Alarm State:  0
Wed May 18 06:15:40 PDT 2022 ON: 20.01 +20.0 19.88 -11.0 31.9 05 0A 1C10 091B Alarm State:  0
Wed May 18 06:14:38 PDT 2022 ON: 20.00 +20.0 19.87 -11.1 31.9 0B 0B 1B32 0906 Alarm State:  0
Wed May 18 06:13:37 PDT 2022 ON: 20.00 +20.0 19.88 -11.0 32.0 0B 0A 1B14 091B Alarm State:  0
Wed May 18 06:12:35 PDT 2022 ON: 20.01 +20.0 19.88 -10.9 32.1 04 0A 1B2F 0927 Alarm State:  0
Wed May 18 06:11:34 PDT 2022 ON: 20.01 +20.0 19.87 -10.9 32.0 04 0B 1C04 0913 Alarm State:  0
Wed May 18 06:10:32 PDT 2022 ON: 20.01 +20.0 19.88 -11.0 32.0 08 0A 1A31 0927 Alarm State:  0
Wed May 18 06:09:31 PDT 2022 ON: 20.00 +20.0 19.87 -11.0 31.9 05 0B 1B0C 0913 Alarm State:  0
Wed May 18 06:08:29 PDT 2022 ON: 20.00 +20.0 19.88 -10.9 32.0 04 0A 1C14 0927 Alarm State:  0
Wed May 18 06:07:28 PDT 2022 ON: 20.00 +20.0 19.87 -10.9 32.0 04 0B 1C1E 0913 Alarm State:  0
Wed May 18 06:06:26 PDT 2022 ON: 20.01 +20.0 19.87 -11.0 32.0 05 0B 1C29 0927 Alarm State:  0
Wed May 18 06:05:24 PDT 2022 ON: 20.01 +20.0 19.87 -11.0 31.9 05 0B 1C2D 0913 Alarm State:  0
Wed May 18 06:04:23 PDT 2022 ON: 20.01 +20.0 19.88 -11.0 32.0 05 0A 1C30 0925 Alarm State:  0
Wed May 18 06:03:21 PDT 2022 ON: 20.00 +20.0 19.87 -10.9 32.0 04 0B 1D13 090B Alarm State:  0
Wed May 18 06:02:20 PDT 2022 ON: 20.00 +20.0 19.87 -10.9 32.0 04 0B 1D2E 091F Alarm State:  0
Wed May 18 06:01:18 PDT 2022 ON: 20.01 +20.0 19.88 -11.0 32.0 05 0A 1D2A 0907 Alarm State:  0
Wed May 18 06:00:17 PDT 2022 ON: 20.01 +20.0 19.88 -10.9 32.0 04 0A 1D13 0919 Alarm State:  0
Wed May 18 05:59:15 PDT 2022 ON: 20.01 +20.0 19.88 -11.0 32.0 05 0A 1C24 0905 Alarm State:  0
Wed May 18 05:58:14 PDT 2022 ON: 20.00 +20.0 19.86 -11.0 31.9 05 0B 1D04 0919 Alarm State:  0
Wed May 18 05:57:12 PDT 2022 ON: 20.00 +20.0 19.87 -11.0 32.0 01 0B 1C21 0905 Alarm State:  0
Wed May 18 05:56:11 PDT 2022 ON: 20.01 +20.0 19.87 -11.0 32.0 05 0B 1C0E 0919 Alarm State:  0
Wed May 18 05:55:09 PDT 2022 ON: 20.00 +20.0 19.87 -11.0 32.0 01 0B 1C2E 0905 Alarm State:  0
Wed May 18 05:54:08 PDT 2022 ON: 20.00 +20.0 19.87 -11.0 32.0 05 0B 1C01 0919 Alarm State:  0
Wed May 18 05:53:06 PDT 2022 ON: 20.01 +20.0 19.87 -10.9 32.0 04 0B 1C25 0928 Alarm State:  0
Wed May 18 05:52:05 PDT 2022 ON: 20.01 +20.0 19.88 -11.0 31.9 05 0A 1C1A 0913 Alarm State:  0
Wed May 18 05:51:03 PDT 2022 ON: 20.01 +20.0 19.87 -10.9 32.0 05 0B 1C14 0928 Alarm State:  0
Wed May 18 05:50:02 PDT 2022 ON: 20.01 +20.0 19.88 -11.0 32.0 05 0A 1C11 0913 Alarm State:  0
Wed May 18 05:49:00 PDT 2022 ON: 20.00 +20.0 19.88 -10.9 32.0 05 0A 1B1C 0928 Alarm State:  0
Wed May 18 05:47:59 PDT 2022 ON: 20.00 +20.0 19.88 -11.0 32.0 05 0A 1C18 0913 Alarm State:  0
Wed May 18 05:46:57 PDT 2022 ON: 20.01 +20.0 19.87 -11.0 32.0 05 0B 1C32 0928 Alarm State:  0
Wed May 18 05:45:56 PDT 2022 ON: 20.00 +20.0 19.87 -11.0 31.9 05 0B 1D02 0913 Alarm State:  0
Wed May 18 05:44:54 PDT 2022 ON: 20.00 +20.0 19.87 -11.0 32.0 05 0B 1D1A 0920 Alarm State:  0
Wed May 18 05:43:53 PDT 2022 ON: 20.01 +20.0 19.88 -10.9 32.0 07 0A 1C25 090C Alarm State:  0
Wed May 18 05:42:51 PDT 2022 ON: 20.01 +20.0 19.89 -11.0 32.0 05 0A 1C28 0920 Alarm State:  0
Wed May 18 05:41:50 PDT 2022 ON: 20.00 +20.0 19.87 -11.0 31.9 05 0B 1C30 090C Alarm State:  0
Wed May 18 05:40:48 PDT 2022 ON: 20.00 +20.0 19.87 -10.9 32.0 04 0B 1D08 091E Alarm State:  0
Wed May 18 05:39:47 PDT 2022 ON: 20.00 +20.0 19.88 -10.9 32.0 04 0A 1D1E 0908 Alarm State:  0
Wed May 18 05:38:45 PDT 2022 ON: 20.00 +20.0 19.88 -10.9 32.0 04 0A 1E00 0918 Alarm State:  0
Wed May 18 05:37:44 PDT 2022 ON: 20.01 +20.0 19.87 -11.0 32.0 05 0B 1D1B 0904 Alarm State:  0
Wed May 18 05:36:42 PDT 2022 ON: 20.00 +20.0 19.87 -11.0 31.9 05 0B 1D08 0918 Alarm State:  0
Wed May 18 05:35:41 PDT 2022 ON: 20.00 +20.0 19.87 -10.9 32.0 04 0B 1E0B 0900 Alarm State:  0
Wed May 18 05:34:39 PDT 2022 ON: 20.00 +20.0 19.87 -10.9 32.1 04 0B 1E0C 090A Alarm State:  0
Wed May 18 05:33:38 PDT 2022 ON: 20.00 +20.0 19.87 -11.0 32.0 05 0B 1E16 091D Alarm State:  0
Wed May 18 05:32:36 PDT 2022 ON: 20.01 +20.0 19.88 -11.0 31.9 05 0A 1E23 0908 Alarm State:  0
Wed May 18 05:31:35 PDT 2022 ON: 20.01 +20.0 19.87 -10.9 32.0 04 0B 1E23 091B Alarm State:  0
Wed May 18 05:30:33 PDT 2022 ON: 20.00 +20.0 19.87 -10.9 32.0 04 0B 1F0F 0906 Alarm State:  0
Wed May 18 05:29:32 PDT 2022 ON: 20.00 +20.0 19.87 -10.9 32.0 04 0B 1F15 091B Alarm State:  0
Wed May 18 05:28:30 PDT 2022 ON: 20.01 +20.0 19.88 -11.0 32.0 0E 0A 1F24 0906 Alarm State:  0
Wed May 18 05:27:29 PDT 2022 ON: 20.00 +20.0 19.87 -11.0 31.9 05 0B 1F1C 091B Alarm State:  0
Wed May 18 05:26:27 PDT 2022 ON: 20.01 +20.0 19.88 -11.0 32.0 05 0A 1F1D 0906 Alarm State:  0
Wed May 18 05:25:26 PDT 2022 ON: 20.00 +20.0 19.86 -10.9 32.0 04 0B 1F1D 0919 Alarm State:  0
Wed May 18 05:24:24 PDT 2022 ON: 20.00 +20.0 19.87 -10.9 32.1 04 0B 2009 0927 Alarm State:  0
Wed May 18 05:23:23 PDT 2022 ON: 20.01 +20.0 19.88 -11.0 31.9 07 0A 2027 0913 Alarm State:  0
Wed May 18 05:22:21 PDT 2022 ON: 20.00 +20.0 19.87 -11.0 32.0 05 0B 2105 0927 Alarm State:  0
Wed May 18 05:21:20 PDT 2022 ON: 20.01 +20.0 19.87 -11.0 32.0 05 0B 2115 0913 Alarm State:  0
Wed May 18 05:20:18 PDT 2022 ON: 20.01 +20.0 19.88 -11.0 31.9 05 0A 212A 0927 Alarm State:  0
Wed May 18 05:19:17 PDT 2022 ON: 20.00 +20.0 19.88 -10.9 32.0 04 0A 2132 090F Alarm State:  0
Wed May 18 05:18:15 PDT 2022 ON: 20.01 +20.0 19.88 -10.9 32.0 04 0A 2214 0923 Alarm State:  0
Wed May 18 05:17:14 PDT 2022 ON: 20.01 +20.0 19.88 -10.9 32.0 04 0A 2214 090B Alarm State:  0
Wed May 18 05:16:12 PDT 2022 ON: 20.01 +20.0 19.88 -11.0 31.9 05 0A 221F 091D Alarm State:  0
Wed May 18 05:15:11 PDT 2022 ON: 20.00 +20.0 19.87 -11.0 32.0 05 0B 220B 0909 Alarm State:  0
Wed May 18 05:14:09 PDT 2022 ON: 20.00 +20.0 19.87 -10.9 32.0 0A 0B 2228 091D Alarm State:  0
Wed May 18 05:13:08 PDT 2022 ON: 20.01 +20.0 19.88 -10.9 32.0 04 0A 230F 0907 Alarm State:  0
Wed May 18 05:12:06 PDT 2022 ON: 20.01 +20.0 19.88 -11.0 32.0 05 0A 230E 091B Alarm State:  0
Wed May 18 05:11:05 PDT 2022 ON: 20.00 +20.0 19.87 -11.0 31.9 0E 0B 230E 0905 Alarm State:  0
Wed May 18 05:10:03 PDT 2022 ON: 20.01 +20.0 19.88 -10.9 32.0 04 0A 2321 0915 Alarm State:  0
Wed May 18 05:09:02 PDT 2022 ON: 20.00 +20.0 19.87 -10.8 32.0 04 0B 2414 0920 Alarm State:  0
Wed May 18 05:08:00 PDT 2022 ON: 20.01 +20.0 19.88 -10.9 32.0 05 0A 2413 090B Alarm State:  0
Wed May 18 05:06:59 PDT 2022 ON: 20.01 +20.0 19.87 -11.0 32.0 00 0B 2429 0920 Alarm State:  0
Wed May 18 05:05:57 PDT 2022 ON: 20.01 +20.0 19.88 -11.0 31.9 06 0A 240E 090B Alarm State:  0
Wed May 18 05:04:56 PDT 2022 ON: 20.00 +20.0 19.88 -10.9 32.0 08 0A 241A 0920 Alarm State:  0
Wed May 18 05:03:54 PDT 2022 ON: 20.00 +20.0 19.87 -10.9 32.0 04 0B 2417 090B Alarm State:  0
Wed May 18 05:02:53 PDT 2022 ON: 20.01 +20.0 19.88 -11.0 32.0 06 0A 2427 0920 Alarm State:  0
Wed May 18 05:01:51 PDT 2022 ON: 20.01 +20.0 19.88 -10.9 32.0 05 0A 2426 090B Alarm State:  0
Wed May 18 05:00:49 PDT 2022 ON: 20.00 +20.0 19.87 -10.8 32.1 0B 0B 2505 0920 Alarm State:  0
Wed May 18 04:59:48 PDT 2022 ON: 20.01 +20.0 19.88 -10.9 32.0 0B 0A 2502 090B Alarm State:  0
Wed May 18 04:58:46 PDT 2022 ON: 20.01 +20.0 19.87 -11.0 31.9 05 0B 242B 0920 Alarm State:  0
Wed May 18 04:57:45 PDT 2022 ON: 20.00 +20.0 19.87 -11.0 31.9 01 0B 241C 090B Alarm State:  0
Wed May 18 04:56:43 PDT 2022 ON: 20.00 +20.0 19.87 -10.9 32.0 04 0B 2432 0920 Alarm State:  0
Wed May 18 04:55:42 PDT 2022 ON: 20.01 +20.0 19.88 -10.8 32.1 05 0A 241D 090B Alarm State:  0
Wed May 18 04:54:40 PDT 2022 ON: 20.01 +20.0 19.88 -11.0 32.0 00 0A 2502 0920 Alarm State:  0
Wed May 18 04:53:39 PDT 2022 ON: 20.02 +20.0 19.88 -11.0 31.9 06 0A 2426 090B Alarm State:  0
Wed May 18 04:52:37 PDT 2022 ON: 20.01 +20.0 19.88 -11.0 32.0 05 0A 242C 0920 Alarm State:  0
Wed May 18 04:51:36 PDT 2022 ON: 20.00 +20.0 19.87 -10.9 32.0 0B 0B 2506 090B Alarm State:  0
Wed May 18 04:50:34 PDT 2022 ON: 20.00 +20.0 19.86 -10.9 32.1 00 0B 251A 0920 Alarm State:  0
Wed May 18 04:49:33 PDT 2022 ON: 20.01 +20.0 19.87 -11.0 32.0 06 0B 2523 090B Alarm State:  0
Wed May 18 04:48:31 PDT 2022 ON: 20.01 +20.0 19.89 -11.0 31.9 06 0A 2501 0920 Alarm State:  0
Wed May 18 04:47:30 PDT 2022 ON: 20.00 +20.0 19.87 -10.9 32.0 05 0B 2504 0909 Alarm State:  0
Wed May 18 04:46:28 PDT 2022 ON: 20.00 +20.0 19.87 -10.8 32.1 05 0B 2526 0918 Alarm State:  0
Wed May 18 04:45:27 PDT 2022 ON: 20.00 +20.0 19.87 -10.9 32.1 05 0B 2602 0903 Alarm State:  0
Wed May 18 04:44:25 PDT 2022 ON: 20.01 +20.0 19.88 -11.0 31.9 06 0A 2602 0918 Alarm State:  0
Wed May 18 04:43:24 PDT 2022 ON: 20.01 +20.0 19.88 -11.0 31.8 06 0A 251C 0903 Alarm State:  0
Wed May 18 04:42:22 PDT 2022 ON: 20.00 +20.0 19.87 -10.9 32.0 05 0B 252A 0918 Alarm State:  0
Wed May 18 04:41:21 PDT 2022 ON: 20.00 +20.0 19.87 -10.7 32.1 05 0B 2628 091C Alarm State:  0
Wed May 18 04:40:19 PDT 2022 ON: 20.00 +20.0 19.87 -10.9 32.1 05 0B 2713 0908 Alarm State:  0
Wed May 18 04:39:18 PDT 2022 ON: 20.00 +20.0 19.87 -11.1 31.9 06 0B 271C 091C Alarm State:  0
Wed May 18 04:38:16 PDT 2022 ON: 20.01 +20.0 19.87 -11.0 31.9 06 0B 2710 0908 Alarm State:  0
Wed May 18 04:37:15 PDT 2022 ON: 20.00 +20.0 19.87 -10.8 32.1 05 0B 2713 090A Alarm State:  0
Wed May 18 04:36:13 PDT 2022 ON: 20.00 +20.0 19.86 -10.8 32.1 05 0B 271B 091D Alarm State:  0
Wed May 18 04:35:12 PDT 2022 ON: 20.01 +20.0 19.88 -11.0 32.0 06 0A 270C 0908 Alarm State:  0
Wed May 18 04:34:10 PDT 2022 ON: 20.01 +20.0 19.87 -11.1 31.9 06 0B 2708 091D Alarm State:  0
Wed May 18 04:33:09 PDT 2022 ON: 20.00 +20.0 19.87 -10.9 32.0 05 0B 2700 0909 Alarm State:  0
Wed May 18 04:32:07 PDT 2022 ON: 20.00 +20.0 19.86 -10.7 32.1 05 0B 271B 091D Alarm State:  0
Wed May 18 04:31:06 PDT 2022 ON: 20.00 +20.0 19.87 -10.9 32.0 05 0B 2727 0909 Alarm State:  0
Wed May 18 04:30:04 PDT 2022 ON: 20.01 +20.0 19.88 -11.1 31.8 06 0A 280B 091D Alarm State:  0
Wed May 18 04:29:03 PDT 2022 ON: 20.00 +20.0 19.87 -11.0 31.8 06 0B 280B 0901 Alarm State:  0
Wed May 18 04:28:01 PDT 2022 ON: 20.00 +20.0 19.87 -10.7 32.1 05 0B 290B 0915 Alarm State:  0
Wed May 18 04:27:00 PDT 2022 ON: 20.00 +20.0 19.87 -10.7 32.1 08 0B 2923 091E Alarm State:  0
Wed May 18 04:25:58 PDT 2022 ON: 20.00 +20.0 19.87 -10.9 32.0 05 0B 2922 0909 Alarm State:  0
Wed May 18 04:24:57 PDT 2022 ON: 20.01 +20.0 19.89 -11.1 31.8 06 0A 290E 091E Alarm State:  0
Wed May 18 04:23:55 PDT 2022 ON: 20.01 +20.0 19.88 -11.1 31.8 06 0A 282A 0909 Alarm State:  0
Wed May 18 04:22:54 PDT 2022 ON: 20.00 +20.0 19.87 -10.8 32.1 05 0B 2919 091E Alarm State:  0
Wed May 18 04:21:52 PDT 2022 ON: 20.00 +20.0 19.87 -10.7 32.2 05 0B 2A0F 0907 Alarm State:  0
Wed May 18 04:20:51 PDT 2022 ON: 20.00 +20.0 19.87 -11.0 32.0 06 0B 2B0C 090C Alarm State:  0
Wed May 18 04:19:49 PDT 2022 ON: 20.00 +20.0 19.88 -11.2 31.8 06 0A 2B01 0920 Alarm State:  0
Wed May 18 04:18:48 PDT 2022 ON: 20.00 +20.0 19.86 -11.0 31.9 06 0B 2B0F 0906 Alarm State:  0
Wed May 18 04:17:46 PDT 2022 ON: 20.01 +20.0 19.88 -10.7 32.1 05 0A 2A27 091A Alarm State:  0
Wed May 18 04:16:45 PDT 2022 ON: 20.00 +20.0 19.87 -10.7 32.1 05 0B 2B10 091D Alarm State:  0
Wed May 18 04:15:43 PDT 2022 ON: 20.00 +20.0 19.87 -11.0 32.0 06 0B 2C0A 0908 Alarm State:  0
Wed May 18 04:14:42 PDT 2022 ON: 20.00 +20.0 19.87 -11.2 31.7 06 0B 2C0C 091D Alarm State:  0
Wed May 18 04:13:40 PDT 2022 ON: 19.99 +20.0 19.87 -11.0 31.8 06 0B 2C15 0908 Alarm State:  0
Wed May 18 04:12:39 PDT 2022 ON: 19.99 +20.0 19.87 -10.6 32.2 06 0B 2D16 0915 Alarm State:  0
Wed May 18 04:11:37 PDT 2022 ON: 20.01 +20.0 19.87 -10.7 32.2 06 0B 2E04 0921 Alarm State:  0
Wed May 18 04:10:36 PDT 2022 ON: 20.00 +20.0 19.87 -11.1 31.9 06 0B 2D1D 090D Alarm State:  0
Wed May 18 04:09:34 PDT 2022 ON: 20.01 +20.0 19.87 -11.3 31.6 06 0B 2D26 0921 Alarm State:  0
Wed May 18 04:08:33 PDT 2022 ON: 20.00 +20.0 19.88 -10.8 32.0 0C 0A 2D24 0909 Alarm State:  0
Wed May 18 04:07:31 PDT 2022 ON: 20.00 +20.0 19.87 -10.5 32.3 05 0B 2E2E 0909 Alarm State:  0
Wed May 18 04:06:30 PDT 2022 ON: 20.01 +20.0 19.88 -10.8 32.1 06 0A 2F17 0916 Alarm State:  0
Wed May 18 04:05:28 PDT 2022 ON: 20.01 +20.0 19.88 -11.3 31.7 06 0A 2E21 0901 Alarm State:  0
Wed May 18 04:04:27 PDT 2022 ON: 20.00 +20.0 19.88 -11.3 31.5 0D 0A 2D32 0916 Alarm State:  0
Wed May 18 04:03:25 PDT 2022 ON: 20.00 +20.0 19.87 -10.6 32.1 06 0B 2E30 091A Alarm State:  0
Wed May 18 04:02:24 PDT 2022 ON: 20.00 +20.0 19.87 -10.4 32.3 05 0B 2F2D 091B Alarm State:  0
Wed May 18 04:01:22 PDT 2022 ON: 20.01 +20.0 19.88 -11.0 32.0 0A 0A 3001 0906 Alarm State:  0
Wed May 18 04:00:20 PDT 2022 ON: 20.00 +20.0 19.87 -11.5 31.5 07 0B 2F10 091B Alarm State:  0
Wed May 18 03:59:19 PDT 2022 ON: 20.00 +20.0 19.87 -11.1 31.7 01 0B 2F03 0906 Alarm State:  0
Wed May 18 03:58:17 PDT 2022 ON: 19.99 +20.0 19.86 -10.4 32.2 05 0B 300C 0914 Alarm State:  0
Wed May 18 03:57:16 PDT 2022 ON: 20.00 +20.0 19.86 -10.3 32.3 08 0B 3108 0906 Alarm State:  0
Wed May 18 03:56:14 PDT 2022 ON: 20.01 +20.0 19.87 -11.2 31.9 06 0B 302B 091B Alarm State:  0
Wed May 18 03:55:13 PDT 2022 ON: 20.02 +20.0 19.90 -11.8 31.1 02 09 2F21 0906 Alarm State:  0
Wed May 18 03:54:11 PDT 2022 ON: 20.00 +20.0 19.88 -11.2 31.5 0D 0B 2E2C 0A1B Alarm State:  0
Wed May 18 03:53:10 PDT 2022 ON: 19.99 +20.0 19.87 -10.1 32.5 0A 0B 2F2E 0A24 Alarm State:  0
Wed May 18 03:52:08 PDT 2022 ON: 19.99 +20.0 19.86 - 9.8 32.4 04 0B 3106 0928 Alarm State:  0
Wed May 18 03:51:07 PDT 2022 ON: 20.01 +20.0 19.88 -11.5 31.5 00 0A 3020 090D Alarm State:  0
Wed May 18 03:50:05 PDT 2022 ON: 20.02 +20.0 19.89 -11.4 31.1 07 0A 2F19 0922 Alarm State:  0
Wed May 18 03:49:04 PDT 2022 ON: 19.99 +20.0 19.87 -10.4 32.0 00 0B 3003 0A1C Alarm State:  0
Wed May 18 03:48:02 PDT 2022 ON: 19.99 +20.0 19.85 - 9.7 32.5 03 0C 310E 0926 Alarm State:  0
Wed May 18 03:47:01 PDT 2022 ON: 20.02 +20.0 19.88 -10.4 32.1 05 0B 312F 0A1C Alarm State:  0
Wed May 18 03:45:59 PDT 2022 ON: 20.01 +20.0 19.89 -10.7 31.6 06 0B 3026 0C08 Alarm State:  0
Wed May 18 03:44:58 PDT 2022 ON: 20.00 +20.0 19.89 -10.3 31.3 0B 0B 302D 0C2E Alarm State:  0
Wed May 18 03:43:56 PDT 2022 ON: 19.96 +20.0 19.84 - 8.6 32.6 09 0D 3205 0B26 Alarm State:  0
Wed May 18 03:42:55 PDT 2022 ON: 19.94 +20.0 19.81 - 6.8 33.5 00 0E 3314 0A1B Alarm State:  0
Wed May 18 03:41:53 PDT 2022 ON: 20.01 +20.0 19.87 -11.0 31.9 06 0B 340B 0908 Alarm State:  0
Wed May 18 03:40:52 PDT 2022 ON: 20.01 +20.0 19.87 -10.9 32.0 06 0B 330D 091C Alarm State:  0
Wed May 18 03:39:50 PDT 2022 ON: 20.00 +20.0 19.87 -11.0 32.0 06 0B 3327 0908 Alarm State:  0
Wed May 18 03:38:49 PDT 2022 ON: 20.01 +20.0 19.88 -11.0 31.9 00 0A 3306 091C Alarm State:  0
Wed May 18 03:37:47 PDT 2022 ON: 20.01 +20.0 19.88 -11.0 32.0 06 0A 322D 0908 Alarm State:  0
Wed May 18 03:36:46 PDT 2022 ON: 20.01 +20.0 19.88 -11.0 31.9 0A 0A 321A 091C Alarm State:  0
Wed May 18 03:35:44 PDT 2022 ON: 20.00 +20.0 19.88 -10.9 32.0 00 0A 3228 0908 Alarm State:  0
Wed May 18 03:34:43 PDT 2022 ON: 20.02 +20.0 19.88 -11.0 32.0 06 0A 322B 091C Alarm State:  0
Wed May 18 03:33:41 PDT 2022 ON: 20.00 +20.0 19.86 -11.0 32.0 06 0B 322D 0908 Alarm State:  0
Wed May 18 03:32:40 PDT 2022 ON: 20.01 +20.0 19.87 -11.1 31.9 06 0B 3216 091C Alarm State:  0
Wed May 18 03:31:38 PDT 2022 ON: 20.00 +20.0 19.87 -11.0 32.0 06 0B 3131 0908 Alarm State:  0
Wed May 18 03:30:37 PDT 2022 ON: 20.01 +20.0 19.87 -10.9 32.0 06 0B 3208 091D Alarm State:  0
Wed May 18 03:29:35 PDT 2022 ON: 20.00 +20.0 19.87 -10.9 32.0 06 0B 3128 0908 Alarm State:  0
Wed May 18 03:28:34 PDT 2022 ON: 20.01 +20.0 19.88 -11.0 32.0 06 0A 3112 091D Alarm State:  0
Wed May 18 03:27:32 PDT 2022 ON: 20.01 +20.0 19.88 -11.1 31.9 06 0A 300E 0908 Alarm State:  0
Wed May 18 03:26:31 PDT 2022 ON: 20.00 +20.0 19.88 -11.1 31.9 0D 0A 3018 091D Alarm State:  0
Wed May 18 03:25:29 PDT 2022 ON: 20.00 +20.0 19.87 -10.9 32.0 06 0B 3015 0908 Alarm State:  0
Wed May 18 03:24:28 PDT 2022 ON: 20.01 +20.0 19.87 -10.9 32.0 0D 0B 3019 091D Alarm State:  0
Wed May 18 03:23:26 PDT 2022 ON: 20.00 +20.0 19.86 -11.0 32.0 0A 0B 3018 0908 Alarm State:  0
Wed May 18 03:22:25 PDT 2022 ON: 20.01 +20.0 19.87 -11.1 31.9 06 0B 2F27 091D Alarm State:  0
Wed May 18 03:21:23 PDT 2022 ON: 20.00 +20.0 19.87 -11.1 31.9 06 0B 2F1C 0908 Alarm State:  0
Wed May 18 03:20:22 PDT 2022 ON: 20.01 +20.0 19.88 -11.0 32.0 06 0A 2F0E 091D Alarm State:  0
Wed May 18 03:19:20 PDT 2022 ON: 20.00 +20.0 19.87 -11.0 32.0 01 0B 2E24 0908 Alarm State:  0
Wed May 18 03:18:19 PDT 2022 ON: 20.02 +20.0 19.88 -11.0 31.9 06 0A 2E08 091D Alarm State:  0
Wed May 18 03:17:17 PDT 2022 ON: 20.01 +20.0 19.87 -11.0 31.9 06 0B 2D32 0908 Alarm State:  0
Wed May 18 03:16:16 PDT 2022 ON: 20.01 +20.0 19.88 -11.0 32.0 06 0A 2D0A 091D Alarm State:  0
Wed May 18 03:15:14 PDT 2022 ON: 20.00 +20.0 19.88 -11.0 31.9 06 0A 2D25 0908 Alarm State:  0
Wed May 18 03:14:13 PDT 2022 ON: 20.01 +20.0 19.86 -11.0 32.0 06 0B 2D13 091D Alarm State:  0
Wed May 18 03:13:11 PDT 2022 ON: 20.00 +20.0 19.88 -11.0 32.0 06 0A 2D02 0908 Alarm State:  0
Wed May 18 03:12:10 PDT 2022 ON: 20.01 +20.0 19.87 -11.1 31.9 06 0B 2C2D 091D Alarm State:  0
Wed May 18 03:11:08 PDT 2022 ON: 20.00 +20.0 19.88 -11.0 31.9 06 0A 2C1A 0908 Alarm State:  0
Wed May 18 03:10:07 PDT 2022 ON: 20.01 +20.0 19.88 -11.0 32.0 01 0A 2C26 091D Alarm State:  0
Wed May 18 03:09:05 PDT 2022 ON: 20.01 +20.0 19.88 -11.0 32.0 0A 0A 2C11 0908 Alarm State:  0
Wed May 18 03:08:04 PDT 2022 ON: 20.01 +20.0 19.88 -11.1 31.9 06 0A 2C1D 091D Alarm State:  0
Wed May 18 03:07:02 PDT 2022 ON: 20.00 +20.0 19.88 -11.0 31.9 06 0A 2C14 0908 Alarm State:  0
Wed May 18 03:06:01 PDT 2022 ON: 20.00 +20.0 19.87 -11.0 32.0 06 0B 2C26 091D Alarm State:  0
Wed May 18 03:04:59 PDT 2022 ON: 20.00 +20.0 19.87 -11.0 32.0 06 0B 2B2E 0908 Alarm State:  0
Wed May 18 03:03:58 PDT 2022 ON: 20.01 +20.0 19.87 -11.1 31.9 06 0B 2B26 091D Alarm State:  0
Wed May 18 03:02:56 PDT 2022 ON: 20.01 +20.0 19.87 -11.1 31.9 00 0B 2B09 0908 Alarm State:  0
Wed May 18 03:01:55 PDT 2022 ON: 20.00 +20.0 19.87 -11.0 32.0 01 0B 2B13 0917 Alarm State:  0
Wed May 18 03:00:53 PDT 2022 ON: 20.01 +20.0 19.88 -10.9 32.1 08 0A 2B2A 0902 Alarm State:  0
Wed May 18 02:59:51 PDT 2022 ON: 20.00 +20.0 19.87 -11.0 32.0 06 0B 2B1C 0917 Alarm State:  0
Wed May 18 02:58:50 PDT 2022 ON: 20.00 +20.0 19.87 -11.1 31.8 06 0B 2A30 0902 Alarm State:  0
Wed May 18 02:57:48 PDT 2022 ON: 20.01 +20.0 19.88 -11.0 31.9 01 0A 2A08 0917 Alarm State:  0
Wed May 18 02:56:47 PDT 2022 ON: 20.00 +20.0 19.87 -10.9 32.1 05 0B 2A09 0902 Alarm State:  0
Wed May 18 02:55:45 PDT 2022 ON: 20.00 +20.0 19.87 -11.0 32.0 06 0B 2B00 0917 Alarm State:  0
Wed May 18 02:54:44 PDT 2022 ON: 20.01 +20.0 19.88 -11.1 31.9 06 0A 2A20 0902 Alarm State:  0
Wed May 18 02:53:42 PDT 2022 ON: 20.01 +20.0 19.87 -11.0 32.0 06 0B 2A24 0913 Alarm State:  0
Wed May 18 02:52:41 PDT 2022 ON: 20.02 +20.0 19.87 -11.0 32.0 06 0B 2A09 0927 Alarm State:  0
Wed May 18 02:51:39 PDT 2022 ON: 20.00 +20.0 19.87 -11.0 32.0 06 0B 2930 0913 Alarm State:  0
Wed May 18 02:50:38 PDT 2022 ON: 20.00 +20.0 19.87 -11.0 32.0 01 0B 292D 0927 Alarm State:  0
Wed May 18 02:49:36 PDT 2022 ON: 20.00 +20.0 19.87 -11.1 31.9 06 0B 2A30 0913 Alarm State:  0
Wed May 18 02:48:35 PDT 2022 ON: 20.00 +20.0 19.87 -11.0 31.9 06 0B 2A09 0927 Alarm State:  0
Wed May 18 02:47:33 PDT 2022 ON: 20.00 +20.0 19.88 -10.9 32.0 08 0A 2922 0913 Alarm State:  0
Wed May 18 02:46:32 PDT 2022 ON: 20.00 +20.0 19.88 -10.9 32.0 05 0A 292D 0927 Alarm State:  0
Wed May 18 02:45:30 PDT 2022 ON: 20.01 +20.0 19.88 -11.0 31.9 06 0A 2A0E 0913 Alarm State:  0
Wed May 18 02:44:29 PDT 2022 ON: 20.00 +20.0 19.88 -11.1 31.9 01 0A 2930 0927 Alarm State:  0
Wed May 18 02:43:27 PDT 2022 ON: 20.01 +20.0 19.88 -11.0 32.0 06 0A 2A07 0911 Alarm State:  0
Wed May 18 02:42:26 PDT 2022 ON: 20.01 +20.0 19.88 -10.9 32.0 00 0A 2917 0925 Alarm State:  0
Wed May 18 02:41:24 PDT 2022 ON: 20.01 +20.0 19.88 -11.0 32.0 09 0A 290B 0911 Alarm State:  0
Wed May 18 02:40:23 PDT 2022 ON: 20.00 +20.0 19.87 -11.1 31.9 06 0B 2916 0925 Alarm State:  0
Wed May 18 02:39:21 PDT 2022 ON: 20.00 +20.0 19.87 -11.0 31.9 00 0B 292A 0911 Alarm State:  0
Wed May 18 02:38:20 PDT 2022 ON: 20.00 +20.0 19.87 -11.0 32.0 06 0B 291B 0925 Alarm State:  0
Wed May 18 02:37:18 PDT 2022 ON: 20.01 +20.0 19.88 -11.0 32.0 00 0A 2A0A 0911 Alarm State:  0
Wed May 18 02:36:17 PDT 2022 ON: 20.01 +20.0 19.88 -11.0 31.9 06 0A 2A07 0925 Alarm State:  0
Wed May 18 02:35:15 PDT 2022 ON: 20.01 +20.0 19.87 -11.0 31.9 06 0B 292E 0911 Alarm State:  0
Wed May 18 02:34:14 PDT 2022 ON: 20.00 +20.0 19.87 -11.0 32.0 0F 0B 2A06 091F Alarm State:  0
Wed May 18 02:33:12 PDT 2022 ON: 20.00 +20.0 19.87 -11.0 32.0 09 0B 292B 090B Alarm State:  0
Wed May 18 02:32:11 PDT 2022 ON: 20.01 +20.0 19.87 -11.0 32.0 06 0B 2928 091F Alarm State:  0
Wed May 18 02:31:09 PDT 2022 ON: 20.01 +20.0 19.88 -11.0 31.9 06 0A 2829 090B Alarm State:  0
Wed May 18 02:30:08 PDT 2022 ON: 20.00 +20.0 19.87 -11.0 32.0 06 0B 281A 091F Alarm State:  0
Wed May 18 02:29:06 PDT 2022 ON: 20.01 +20.0 19.88 -11.0 32.0 06 0A 2802 090B Alarm State:  0
Wed May 18 02:28:05 PDT 2022 ON: 20.01 +20.0 19.88 -11.0 32.0 09 0A 271A 091F Alarm State:  0
Wed May 18 02:27:03 PDT 2022 ON: 20.01 +20.0 19.88 -11.0 31.9 06 0A 272E 090B Alarm State:  0
Wed May 18 02:26:02 PDT 2022 ON: 20.02 +20.0 19.88 -11.1 31.9 01 0A 2708 0920 Alarm State:  0
Wed May 18 02:25:00 PDT 2022 ON: 20.00 +20.0 19.87 -11.0 32.0 06 0B 2701 090B Alarm State:  0
Wed May 18 02:23:59 PDT 2022 ON: 20.00 +20.0 19.87 -11.0 31.9 06 0B 2630 0920 Alarm State:  0
Wed May 18 02:22:57 PDT 2022 ON: 20.00 +20.0 19.87 -11.0 32.0 06 0B 2627 090B Alarm State:  0
Wed May 18 02:21:56 PDT 2022 ON: 20.01 +20.0 19.87 -11.0 32.0 06 0B 2617 091A Alarm State:  0
Wed May 18 02:20:54 PDT 2022 ON: 20.01 +20.0 19.88 -11.0 32.0 06 0A 2608 0905 Alarm State:  0
Wed May 18 02:19:53 PDT 2022 ON: 20.01 +20.0 19.88 -11.0 31.9 06 0A 251D 091A Alarm State:  0
Wed May 18 02:18:51 PDT 2022 ON: 20.01 +20.0 19.88 -11.0 31.9 06 0A 2423 0905 Alarm State:  0
Wed May 18 02:17:50 PDT 2022 ON: 20.00 +20.0 19.88 -11.0 32.0 06 0A 2512 091A Alarm State:  0
Wed May 18 02:16:48 PDT 2022 ON: 20.00 +20.0 19.88 -11.0 32.0 06 0A 2521 0905 Alarm State:  0
Wed May 18 02:15:47 PDT 2022 ON: 20.00 +20.0 19.87 -11.0 31.9 06 0B 2505 091A Alarm State:  0
Wed May 18 02:14:45 PDT 2022 ON: 20.00 +20.0 19.87 -11.1 31.9 0B 0B 2423 0905 Alarm State:  0
Wed May 18 02:13:44 PDT 2022 ON: 20.00 +20.0 19.86 -11.0 32.0 05 0B 2425 091A Alarm State:  0
Wed May 18 02:12:42 PDT 2022 ON: 20.00 +20.0 19.86 -11.0 32.0 05 0B 2406 0905 Alarm State:  0
Wed May 18 02:11:41 PDT 2022 ON: 20.01 +20.0 19.87 -11.0 32.0 05 0B 232D 091A Alarm State:  0
Wed May 18 02:10:39 PDT 2022 ON: 20.01 +20.0 19.88 -11.1 31.9 00 0A 2306 0905 Alarm State:  0
Wed May 18 02:09:38 PDT 2022 ON: 20.01 +20.0 19.88 -11.0 31.9 05 0A 230E 091A Alarm State:  0
Wed May 18 02:08:36 PDT 2022 ON: 20.00 +20.0 19.88 -10.9 32.0 04 0A 2317 0905 Alarm State:  0
Wed May 18 02:07:35 PDT 2022 ON: 20.00 +20.0 19.87 -10.9 32.0 04 0B 2317 091A Alarm State:  0
Wed May 18 02:06:33 PDT 2022 ON: 20.01 +20.0 19.88 -11.0 32.0 05 0A 2314 0905 Alarm State:  0
Wed May 18 02:05:32 PDT 2022 ON: 20.01 +20.0 19.87 -11.1 31.9 05 0B 2304 091A Alarm State:  0
Wed May 18 02:04:30 PDT 2022 ON: 20.00 +20.0 19.87 -11.1 31.9 08 0B 2230 0905 Alarm State:  0
Wed May 18 02:03:28 PDT 2022 ON: 20.01 +20.0 19.88 -10.9 32.0 04 0A 2301 091A Alarm State:  0
Wed May 18 02:02:27 PDT 2022 ON: 20.01 +20.0 19.88 -10.9 32.1 04 0A 2316 0905 Alarm State:  0
Wed May 18 02:01:25 PDT 2022 ON: 20.00 +20.0 19.87 -11.1 32.0 05 0B 2231 091A Alarm State:  0
Wed May 18 02:00:24 PDT 2022 ON: 20.01 +20.0 19.88 -11.2 31.8 05 0A 2210 0905 Alarm State:  0
Wed May 18 01:59:22 PDT 2022 ON: 20.01 +20.0 19.88 -11.1 31.8 05 0A 212D 091A Alarm State:  0
Wed May 18 01:58:21 PDT 2022 ON: 20.00 +20.0 19.89 -10.8 32.1 04 0A 2207 0905 Alarm State:  0
Wed May 18 01:57:19 PDT 2022 ON: 20.01 +20.0 19.88 -10.8 32.1 04 0A 220B 091A Alarm State:  0
Wed May 18 01:56:18 PDT 2022 ON: 20.01 +20.0 19.88 -11.2 31.9 05 0A 211D 0905 Alarm State:  0
Wed May 18 01:55:16 PDT 2022 ON: 20.02 +20.0 19.89 -11.5 31.5 06 0A 201A 091A Alarm State:  0
Wed May 18 01:54:15 PDT 2022 ON: 20.00 +20.0 19.87 -11.2 31.7 01 0B 2013 0905 Alarm State:  0
Wed May 18 01:53:13 PDT 2022 ON: 20.00 +20.0 19.86 -10.7 32.1 04 0B 2118 0902 Alarm State:  0
Wed May 18 01:52:12 PDT 2022 ON: 19.99 +20.0 19.86 -10.7 32.1 0A 0B 2214 0925 Alarm State:  0
Wed May 18 01:51:10 PDT 2022 ON: 20.00 +20.0 19.87 -10.7 32.1 04 0B 2317 0903 Alarm State:  0
Wed May 18 01:50:09 PDT 2022 ON: 19.99 +20.0 19.86 -10.6 32.1 04 0B 2415 0905 Alarm State:  0
Wed May 18 01:49:07 PDT 2022 ON: 19.99 +20.0 19.87 -10.6 32.1 05 0B 251C 0929 Alarm State:  0
Wed May 18 01:48:06 PDT 2022 ON: 20.00 +20.0 19.87 -10.7 32.1 05 0B 2610 0912 Alarm State:  0
Wed May 18 01:47:04 PDT 2022 ON: 20.00 +20.0 19.87 -10.9 32.0 05 0B 2707 0927 Alarm State:  0
Wed May 18 01:46:03 PDT 2022 ON: 20.00 +20.0 19.88 -10.7 32.0 05 0A 280D 0912 Alarm State:  0
Wed May 18 01:45:01 PDT 2022 ON: 20.00 +20.0 19.86 -10.4 32.3 04 0B 2918 0927 Alarm State:  0
Wed May 18 01:44:00 PDT 2022 ON: 20.00 +20.0 19.87 -10.6 32.2 00 0B 2A22 0906 Alarm State:  0
Wed May 18 01:42:58 PDT 2022 ON: 20.00 +20.0 19.87 -10.9 32.0 00 0B 2B29 091B Alarm State:  0
Wed May 18 01:41:57 PDT 2022 ON: 20.00 +20.0 19.88 -10.9 31.8 06 0A 2C15 0923 Alarm State:  0
Wed May 18 01:40:55 PDT 2022 ON: 20.00 +20.0 19.87 -10.5 32.2 05 0B 2D18 0A07 Alarm State:  0
Wed May 18 01:39:54 PDT 2022 ON: 19.99 +20.0 19.86 -10.3 32.3 05 0B 2E22 090A Alarm State:  0
Wed May 18 01:38:52 PDT 2022 ON: 20.01 +20.0 19.87 -10.6 32.2 06 0B 2F2B 0911 Alarm State:  0
Wed May 18 01:37:51 PDT 2022 ON: 20.01 +20.0 19.87 -11.0 31.8 00 0B 2E2B 0925 Alarm State:  0
Wed May 18 01:36:49 PDT 2022 ON: 20.01 +20.0 19.89 -11.0 31.6 06 0A 2E23 0A11 Alarm State:  0
Wed May 18 01:35:48 PDT 2022 ON: 20.00 +20.0 19.88 -10.2 32.3 05 0B 2F1B 0A16 Alarm State:  0
Wed May 18 01:34:46 PDT 2022 ON: 20.00 +20.0 19.86 -10.1 32.4 07 0B 3026 0922 Alarm State:  0
Wed May 18 01:33:45 PDT 2022 ON: 20.01 +20.0 19.87 -10.7 32.1 09 0B 311C 0909 Alarm State:  0
Wed May 18 01:32:43 PDT 2022 ON: 20.01 +20.0 19.89 -11.5 31.3 07 0A 3019 091E Alarm State:  0
Wed May 18 01:31:42 PDT 2022 ON: 20.00 +20.0 19.89 -11.0 31.5 06 0B 2F11 0B09 Alarm State:  0
Wed May 18 01:30:40 PDT 2022 ON: 19.99 +20.0 19.87 - 9.8 32.5 04 0B 301C 0A1F Alarm State:  0
Wed May 18 01:29:39 PDT 2022 ON: 20.01 +20.0 19.85 - 9.4 32.5 00 0C 3126 0901 Alarm State:  0
Wed May 18 01:28:37 PDT 2022 ON: 20.02 +20.0 19.88 -11.3 31.2 06 0B 310A 0A16 Alarm State:  0
Wed May 18 01:27:36 PDT 2022 ON: 20.01 +20.0 19.90 -11.2 30.7 06 0B 3000 0C01 Alarm State:  0
Wed May 18 01:26:34 PDT 2022 ON: 19.98 +20.0 19.88 -10.2 31.0 0B 0B 302E 0B2D Alarm State:  0
Wed May 18 01:25:33 PDT 2022 ON: 19.94 +20.0 19.80 - 6.5 33.7 10 0F 320A 0A22 Alarm State:  0
Wed May 18 01:24:31 PDT 2022 ON: 20.02 +20.0 19.88 -10.7 32.0 00 0A 330F 0901 Alarm State:  0
Wed May 18 01:23:30 PDT 2022 ON: 20.02 +20.0 19.88 -11.4 31.8 07 0A 3207 0915 Alarm State:  0
Wed May 18 01:22:28 PDT 2022 ON: 20.01 +20.0 19.89 -11.3 31.8 06 0A 3108 0901 Alarm State:  0
Wed May 18 01:21:27 PDT 2022 ON: 20.01 +20.0 19.88 -11.0 32.0 06 0A 302D 0916 Alarm State:  0
Wed May 18 01:20:25 PDT 2022 ON: 20.01 +20.0 19.88 -10.9 32.1 0F 0A 3012 0901 Alarm State:  0
Wed May 18 01:19:24 PDT 2022 ON: 20.02 +20.0 19.89 -11.2 31.9 06 0A 2F15 0916 Alarm State:  0
Wed May 18 01:18:22 PDT 2022 ON: 20.01 +20.0 19.88 -11.4 31.7 07 0A 2E15 0901 Alarm State:  0
Wed May 18 01:17:21 PDT 2022 ON: 20.01 +20.0 19.89 -11.1 31.8 06 0A 2D0E 0916 Alarm State:  0
Wed May 18 01:16:19 PDT 2022 ON: 20.00 +20.0 19.87 -10.8 32.1 00 0B 2C2E 0901 Alarm State:  0
Wed May 18 01:15:18 PDT 2022 ON: 20.02 +20.0 19.89 -11.0 32.0 0A 0A 2C18 0916 Alarm State:  0
Wed May 18 01:14:16 PDT 2022 ON: 20.01 +20.0 19.88 -11.3 31.7 0A 0A 2B0E 0901 Alarm State:  0
Wed May 18 01:13:15 PDT 2022 ON: 20.01 +20.0 19.89 -11.4 31.6 06 0A 2A03 0916 Alarm State:  0
Wed May 18 01:12:13 PDT 2022 ON: 20.01 +20.0 19.88 -11.0 31.9 06 0A 290B 0901 Alarm State:  0
Wed May 18 01:11:12 PDT 2022 ON: 20.00 +20.0 19.87 -10.8 32.2 0B 0B 2816 0916 Alarm State:  0
Wed May 18 01:10:10 PDT 2022 ON: 20.01 +20.0 19.88 -11.1 32.0 06 0A 280B 0901 Alarm State:  0
Wed May 18 01:09:09 PDT 2022 ON: 20.02 +20.0 19.89 -11.6 31.4 06 0A 2700 0916 Alarm State:  0
Wed May 18 01:08:07 PDT 2022 ON: 20.01 +20.0 19.89 -11.4 31.5 02 0A 2600 0901 Alarm State:  0
Wed May 18 01:07:06 PDT 2022 ON: 20.00 +20.0 19.86 -10.7 32.0 08 0B 261E 0916 Alarm State:  0
Wed May 18 01:06:04 PDT 2022 ON: 20.00 +20.0 19.87 -10.4 32.3 00 0B 2712 0906 Alarm State:  0
Wed May 18 01:05:03 PDT 2022 ON: 20.02 +20.0 19.87 -11.1 31.9 06 0B 2609 091B Alarm State:  0
Wed May 18 01:04:01 PDT 2022 ON: 20.02 +20.0 19.90 -12.2 31.0 08 09 2432 0906 Alarm State:  0
Wed May 18 01:02:59 PDT 2022 ON: 20.02 +20.0 19.90 -11.5 31.3 02 09 2327 091B Alarm State:  0
Wed May 18 01:01:58 PDT 2022 ON: 20.01 +20.0 19.90 -10.9 31.7 05 0A 221D 0B06 Alarm State:  0
Wed May 18 01:00:56 PDT 2022 ON: 19.99 +20.0 19.86 -10.1 32.2 02 0C 231C 0A24 Alarm State:  0
Wed May 18 00:59:55 PDT 2022 ON: 20.00 +20.0 19.80 - 8.6 32.0 00 0E 2426 0925 Alarm State:  0
Wed May 18 00:58:53 PDT 2022 ON: 20.02 +20.0 19.90 -12.0 30.6 0E 09 2321 0911 Alarm State:  0
Wed May 18 00:57:52 PDT 2022 ON: 19.99 +20.0 19.86 -10.5 31.9 00 0C 2312 0A0F Alarm State:  0
Wed May 18 00:56:50 PDT 2022 ON: 19.99 +20.0 19.86 - 9.6 32.6 02 0C 241D 0A09 Alarm State:  0
Wed May 18 00:55:49 PDT 2022 ON: 20.02 +20.0 19.90 -12.3 30.4 00 09 2430 0917 Alarm State:  0
Wed May 18 00:54:47 PDT 2022 ON: 20.00 +20.0 19.89 -11.4 31.4 0A 0A 2406 0A03 Alarm State:  0
Wed May 18 00:53:46 PDT 2022 ON: 20.00 +20.0 19.86 -10.4 32.3 0A 0B 2510 091C Alarm State:  0
Wed May 18 00:52:44 PDT 2022 ON: 20.00 +20.0 19.87 -10.7 32.1 00 0B 2601 091D Alarm State:  0
Wed May 18 00:51:43 PDT 2022 ON: 20.00 +20.0 19.87 -11.1 31.7 06 0B 2628 0908 Alarm State:  0
Wed May 18 00:50:41 PDT 2022 ON: 19.99 +20.0 19.88 -10.9 31.8 05 0B 2800 0A03 Alarm State:  0
Wed May 18 00:49:40 PDT 2022 ON: 19.99 +20.0 19.86 -10.4 32.3 04 0B 290A 0916 Alarm State:  0
Wed May 18 00:48:38 PDT 2022 ON: 20.00 +20.0 19.86 -10.4 32.3 04 0B 2A15 0916 Alarm State:  0
Wed May 18 00:47:37 PDT 2022 ON: 20.02 +20.0 19.87 -10.9 32.0 05 0B 2A2A 0901 Alarm State:  0
Wed May 18 00:46:35 PDT 2022 ON: 20.00 +20.0 19.87 -11.2 31.6 06 0B 2A24 0916 Alarm State:  0
Wed May 18 00:45:34 PDT 2022 ON: 19.99 +20.0 19.86 -10.7 31.9 05 0B 2B24 0924 Alarm State:  0
Wed May 18 00:44:32 PDT 2022 ON: 19.99 +20.0 19.85 -10.2 32.4 00 0C 2C2F 0929 Alarm State:  0
Wed May 18 00:43:31 PDT 2022 ON: 20.00 +20.0 19.87 -10.5 32.2 00 0B 2E00 0917 Alarm State:  0
Wed May 18 00:42:29 PDT 2022 ON: 20.00 +20.0 19.86 -11.1 31.8 06 0B 2E0E 0903 Alarm State:  0
Wed May 18 00:41:28 PDT 2022 ON: 20.00 +20.0 19.88 -11.1 31.6 06 0A 2E0D 0917 Alarm State:  0
Wed May 18 00:40:26 PDT 2022 ON: 20.00 +20.0 19.87 -10.4 32.2 05 0B 2F10 0A02 Alarm State:  0
Wed May 18 00:39:25 PDT 2022 ON: 20.00 +20.0 19.86 -10.1 32.4 04 0B 301A 092E Alarm State:  0
Wed May 18 00:38:23 PDT 2022 ON: 20.00 +20.0 19.87 -10.6 32.1 06 0B 3117 0925 Alarm State:  0
Wed May 18 00:37:22 PDT 2022 ON: 20.02 +20.0 19.89 -11.4 31.4 00 0A 3025 0910 Alarm State:  0
Wed May 18 00:36:20 PDT 2022 ON: 20.00 +20.0 19.89 -11.3 31.3 06 0A 2F28 0925 Alarm State:  0
Wed May 18 00:35:19 PDT 2022 ON: 19.99 +20.0 19.88 -10.2 32.2 0B 0B 3032 0A11 Alarm State:  0
Wed May 18 00:34:17 PDT 2022 ON: 20.00 +20.0 19.86 - 9.7 32.5 06 0B 320A 0919 Alarm State:  0
Wed May 18 00:33:16 PDT 2022 ON: 20.02 +20.0 19.89 -10.9 31.9 06 0A 312C 0A02 Alarm State:  0
Wed May 18 00:32:14 PDT 2022 ON: 20.02 +20.0 19.90 -11.3 31.4 06 0A 3021 0B17 Alarm State:  0
Wed May 18 00:31:13 PDT 2022 ON: 20.00 +20.0 19.88 -10.6 31.4 00 0C 3002 0C2B Alarm State:  0
Wed May 18 00:30:11 PDT 2022 ON: 19.97 +20.0 19.86 - 9.4 32.3 02 0C 310D 0B21 Alarm State:  0
Wed May 18 00:29:10 PDT 2022 ON: 19.96 +20.0 19.83 - 8.1 33.1 02 0D 3217 0A16 Alarm State:  0
Wed May 18 00:28:08 PDT 2022 ON: 20.02 +20.0 19.88 -10.0 31.9 00 0A 3314 0922 Alarm State:  0
Wed May 18 00:27:07 PDT 2022 ON: 20.01 +20.0 19.87 -11.0 32.0 06 0B 3305 090D Alarm State:  0
Wed May 18 00:26:05 PDT 2022 ON: 20.00 +20.0 19.87 -11.1 31.9 0A 0B 320E 0922 Alarm State:  0
Wed May 18 00:25:04 PDT 2022 ON: 20.01 +20.0 19.88 -11.1 31.9 06 0A 321B 090D Alarm State:  0
Wed May 18 00:24:02 PDT 2022 ON: 20.01 +20.0 19.88 -11.1 31.9 01 0A 312C 0922 Alarm State:  0
Wed May 18 00:23:01 PDT 2022 ON: 20.01 +20.0 19.88 -11.0 32.0 06 0A 311F 090D Alarm State:  0
Wed May 18 00:21:59 PDT 2022 ON: 20.01 +20.0 19.87 -11.1 31.9 06 0B 3107 0922 Alarm State:  0
Wed May 18 00:20:58 PDT 2022 ON: 20.01 +20.0 19.89 -11.1 31.9 06 0A 300D 090D Alarm State:  0
Wed May 18 00:19:56 PDT 2022 ON: 20.01 +20.0 19.88 -11.1 31.8 06 0A 2F1E 0922 Alarm State:  0
Wed May 18 00:18:55 PDT 2022 ON: 20.01 +20.0 19.88 -11.0 32.0 0A 0A 2F0B 090D Alarm State:  0
Wed May 18 00:17:53 PDT 2022 ON: 20.01 +20.0 19.88 -11.0 32.0 06 0A 2E2E 0922 Alarm State:  0
Wed May 18 00:16:52 PDT 2022 ON: 20.00 +20.0 19.88 -11.2 31.9 06 0A 2E02 090E Alarm State:  0
Wed May 18 00:15:50 PDT 2022 ON: 20.02 +20.0 19.88 -11.2 31.8 06 0A 2D2C 0922 Alarm State:  0
Wed May 18 00:14:49 PDT 2022 ON: 20.01 +20.0 19.88 -11.0 31.9 06 0A 2D12 090E Alarm State:  0
Wed May 18 00:13:47 PDT 2022 ON: 20.01 +20.0 19.88 -10.9 32.1 06 0A 2D13 0922 Alarm State:  0
Wed May 18 00:12:46 PDT 2022 ON: 20.00 +20.0 19.88 -11.1 31.9 06 0A 2C30 090E Alarm State:  0
Wed May 18 00:11:44 PDT 2022 ON: 20.01 +20.0 19.88 -11.1 31.9 06 0A 2B2E 0922 Alarm State:  0
Wed May 18 00:10:43 PDT 2022 ON: 20.00 +20.0 19.87 -11.1 31.9 06 0B 2B1C 090E Alarm State:  0
Wed May 18 00:09:41 PDT 2022 ON: 20.01 +20.0 19.88 -11.0 32.0 06 0A 2B19 0922 Alarm State:  0
Wed May 18 00:08:40 PDT 2022 ON: 20.01 +20.0 19.87 -10.9 32.0 06 0B 2A32 090E Alarm State:  0
Wed May 18 00:07:38 PDT 2022 ON: 20.00 +20.0 19.87 -11.1 32.0 06 0B 2A19 0922 Alarm State:  0
Wed May 18 00:06:37 PDT 2022 ON: 20.00 +20.0 19.88 -11.1 31.9 01 0A 2A17 090E Alarm State:  0
Wed May 18 00:05:35 PDT 2022 ON: 20.00 +20.0 19.87 -11.1 31.9 06 0B 291F 0922 Alarm State:  0
Wed May 18 00:04:33 PDT 2022 ON: 20.02 +20.0 19.89 -11.1 32.0 0F 0A 2923 090E Alarm State:  0
Wed May 18 00:03:32 PDT 2022 ON: 20.01 +20.0 19.88 -11.0 32.0 06 0A 2A03 0922 Alarm State:  0
Wed May 18 00:02:30 PDT 2022 ON: 20.01 +20.0 19.88 -11.1 31.9 06 0A 2932 090E Alarm State:  0
Wed May 18 00:01:29 PDT 2022 ON: 20.01 +20.0 19.88 -11.1 31.9 06 0A 2903 0922 Alarm State:  0
Wed May 18 00:00:27 PDT 2022 ON: 20.01 +20.0 19.88 -11.1 31.9 06 0A 2806 090E Alarm State:  0
Tue May 17 23:59:26 PDT 2022 ON: 20.01 +20.0 19.88 -11.0 32.0 06 0A 2803 0922 Alarm State:  0
Tue May 17 23:58:24 PDT 2022 ON: 20.00 +20.0 19.87 -11.0 32.0 00 0B 2718 090E Alarm State:  0
Tue May 17 23:57:23 PDT 2022 ON: 20.01 +20.0 19.88 -11.1 31.9 06 0A 270B 0922 Alarm State:  0
Tue May 17 23:56:21 PDT 2022 ON: 20.00 +20.0 19.88 -11.2 31.8 06 0A 2616 090E Alarm State:  0
Tue May 17 23:55:20 PDT 2022 ON: 20.00 +20.0 19.88 -11.0 32.0 06 0A 260F 0922 Alarm State:  0
Tue May 17 23:54:18 PDT 2022 ON: 20.00 +20.0 19.87 -10.9 32.1 05 0B 2615 090E Alarm State:  0
Tue May 17 23:53:17 PDT 2022 ON: 20.01 +20.0 19.88 -11.1 32.0 06 0A 252B 0922 Alarm State:  0
Tue May 17 23:52:15 PDT 2022 ON: 20.01 +20.0 19.88 -11.3 31.7 06 0A 242C 090E Alarm State:  0
Tue May 17 23:51:14 PDT 2022 ON: 20.01 +20.0 19.89 -11.3 31.7 06 0A 2328 0922 Alarm State:  0
Tue May 17 23:50:12 PDT 2022 ON: 20.00 +20.0 19.87 -10.9 32.0 04 0B 232E 090E Alarm State:  0
Tue May 17 23:49:11 PDT 2022 ON: 20.00 +20.0 19.88 -10.9 32.0 04 0A 232B 0922 Alarm State:  0
Tue May 17 23:48:09 PDT 2022 ON: 20.00 +20.0 19.86 -10.9 32.0 0A 0B 240E 090E Alarm State:  0
Tue May 17 23:47:08 PDT 2022 ON: 20.00 +20.0 19.88 -10.9 32.0 00 0A 2419 0922 Alarm State:  0
Tue May 17 23:46:06 PDT 2022 ON: 20.01 +20.0 19.88 -10.8 32.1 08 0A 2425 090A Alarm State:  0
Tue May 17 23:45:05 PDT 2022 ON: 20.00 +20.0 19.86 -10.9 32.0 04 0B 250D 091C Alarm State:  0
Tue May 17 23:44:03 PDT 2022 ON: 20.00 +20.0 19.87 -10.9 32.0 05 0B 2513 0908 Alarm State:  0
Tue May 17 23:43:02 PDT 2022 ON: 20.00 +20.0 19.88 -10.8 32.0 05 0A 2526 091C Alarm State:  0
Tue May 17 23:42:00 PDT 2022 ON: 20.01 +20.0 19.88 -10.9 32.0 05 0A 2611 0906 Alarm State:  0
Tue May 17 23:40:59 PDT 2022 ON: 20.00 +20.0 19.87 -10.9 32.0 0B 0B 261A 091A Alarm State:  0
Tue May 17 23:39:57 PDT 2022 ON: 20.00 +20.0 19.86 -10.9 32.0 05 0B 2701 0906 Alarm State:  0
Tue May 17 23:38:56 PDT 2022 ON: 20.01 +20.0 19.88 -10.9 32.0 05 0A 2720 091A Alarm State:  0
Tue May 17 23:37:54 PDT 2022 ON: 19.99 +20.0 19.87 -10.9 32.0 00 0B 2728 0906 Alarm State:  0
Tue May 17 23:36:53 PDT 2022 ON: 20.01 +20.0 19.88 -10.9 32.0 05 0A 2802 0912 Alarm State:  0
Tue May 17 23:35:51 PDT 2022 ON: 20.00 +20.0 19.88 -10.9 32.0 05 0A 272F 0925 Alarm State:  0
Tue May 17 23:34:50 PDT 2022 ON: 20.00 +20.0 19.87 -10.9 32.0 0B 0B 2815 090E Alarm State:  0
Tue May 17 23:33:48 PDT 2022 ON: 20.00 +20.0 19.88 -10.9 32.0 08 0A 2813 0923 Alarm State:  0
Tue May 17 23:32:47 PDT 2022 ON: 20.01 +20.0 19.87 -10.9 32.0 05 0B 280A 090C Alarm State:  0
Tue May 17 23:31:45 PDT 2022 ON: 20.00 +20.0 19.87 -10.9 32.0 05 0B 2820 0921 Alarm State:  0
Tue May 17 23:30:44 PDT 2022 ON: 20.01 +20.0 19.88 -10.8 32.1 05 0A 2823 090C Alarm State:  0
Tue May 17 23:29:42 PDT 2022 ON: 20.01 +20.0 19.88 -10.9 32.0 05 0A 2900 0921 Alarm State:  0
Tue May 17 23:28:41 PDT 2022 ON: 20.00 +20.0 19.86 -10.9 32.0 05 0B 290B 090C Alarm State:  0
Tue May 17 23:27:39 PDT 2022 ON: 20.01 +20.0 19.88 -10.9 32.0 05 0A 290B 091F Alarm State:  0
Tue May 17 23:26:38 PDT 2022 ON: 20.00 +20.0 19.87 -10.9 32.0 00 0B 2912 0904 Alarm State:  0
Tue May 17 23:25:36 PDT 2022 ON: 20.01 +20.0 19.88 -10.8 32.1 05 0A 2904 0919 Alarm State:  0
Tue May 17 23:24:35 PDT 2022 ON: 20.01 +20.0 19.87 -10.9 32.0 05 0B 2921 0904 Alarm State:  0
Tue May 17 23:23:33 PDT 2022 ON: 20.01 +20.0 19.87 -10.9 32.0 0E 0B 2927 0919 Alarm State:  0
Tue May 17 23:22:32 PDT 2022 ON: 20.01 +20.0 19.88 -10.8 32.0 08 0A 2918 0904 Alarm State:  0
Tue May 17 23:21:30 PDT 2022 ON: 20.00 +20.0 19.87 -10.9 32.0 0B 0B 2928 0919 Alarm State:  0
Tue May 17 23:20:29 PDT 2022 ON: 20.01 +20.0 19.88 -10.9 32.0 08 0A 2921 0904 Alarm State:  0
Tue May 17 23:19:27 PDT 2022 ON: 20.01 +20.0 19.88 -10.8 32.0 05 0A 2929 0917 Alarm State:  0
Tue May 17 23:18:26 PDT 2022 ON: 20.01 +20.0 19.88 -10.9 32.0 05 0A 2918 0902 Alarm State:  0
Tue May 17 23:17:24 PDT 2022 ON: 20.00 +20.0 19.87 -10.9 32.0 05 0B 2914 0917 Alarm State:  0
Tue May 17 23:16:23 PDT 2022 ON: 20.01 +20.0 19.87 -10.8 32.0 08 0B 291F 0900 Alarm State:  0
Tue May 17 23:15:21 PDT 2022 ON: 20.00 +20.0 19.87 -10.9 32.0 05 0B 2903 0915 Alarm State:  0
Tue May 17 23:14:20 PDT 2022 ON: 20.01 +20.0 19.87 -10.8 32.0 05 0B 2925 0901 Alarm State:  0
Tue May 17 23:13:18 PDT 2022 ON: 20.01 +20.0 19.88 -10.8 32.1 00 0A 2A19 0915 Alarm State:  0
Tue May 17 23:12:17 PDT 2022 ON: 20.01 +20.0 19.88 -10.9 32.0 05 0A 2A11 0901 Alarm State:  0
Tue May 17 23:11:15 PDT 2022 ON: 20.01 +20.0 19.88 -10.9 32.0 05 0A 2B03 0915 Alarm State:  0
Tue May 17 23:10:14 PDT 2022 ON: 20.00 +20.0 19.87 -10.8 32.0 05 0B 2B13 0924 Alarm State:  0
Tue May 17 23:09:12 PDT 2022 ON: 20.00 +20.0 19.87 -10.8 32.1 05 0B 2B22 090F Alarm State:  0
Tue May 17 23:08:11 PDT 2022 ON: 20.01 +20.0 19.87 -10.8 32.1 05 0B 2B2A 0916 Alarm State:  0
Tue May 17 23:07:09 PDT 2022 ON: 20.00 +20.0 19.87 -11.0 32.0 06 0B 2B15 0901 Alarm State:  0
Tue May 17 23:06:07 PDT 2022 ON: 20.01 +20.0 19.88 -11.0 31.9 06 0A 2B15 0916 Alarm State:  0
Tue May 17 23:05:06 PDT 2022 ON: 20.00 +20.0 19.87 -10.8 32.1 05 0B 2B06 0901 Alarm State:  0
Tue May 17 23:04:04 PDT 2022 ON: 20.00 +20.0 19.87 -10.8 32.1 05 0B 2B12 0916 Alarm State:  0
Tue May 17 23:03:03 PDT 2022 ON: 20.00 +20.0 19.87 -10.9 32.1 05 0B 2B0F 0901 Alarm State:  0
Tue May 17 23:02:01 PDT 2022 ON: 20.01 +20.0 19.88 -11.1 31.9 06 0A 2A2A 0916 Alarm State:  0
Tue May 17 23:01:00 PDT 2022 ON: 20.00 +20.0 19.86 -11.0 31.9 06 0B 2A2D 0901 Alarm State:  0
Tue May 17 22:59:58 PDT 2022 ON: 20.00 +20.0 19.87 -10.7 32.1 00 0B 2B1E 0912 Alarm State:  0
Tue May 17 22:58:57 PDT 2022 ON: 20.00 +20.0 19.88 -10.7 32.2 06 0A 2C14 0916 Alarm State:  0
Tue May 17 22:57:55 PDT 2022 ON: 20.00 +20.0 19.87 -10.9 32.0 05 0B 2C10 0902 Alarm State:  0
Tue May 17 22:56:54 PDT 2022 ON: 20.01 +20.0 19.88 -11.1 31.8 06 0A 2C1D 0916 Alarm State:  0
Tue May 17 22:55:52 PDT 2022 ON: 20.01 +20.0 19.88 -10.9 31.9 09 0A 2C2B 0900 Alarm State:  0
Tue May 17 22:54:51 PDT 2022 ON: 20.00 +20.0 19.87 -10.6 32.2 06 0B 2D21 0914 Alarm State:  0
Tue May 17 22:53:49 PDT 2022 ON: 20.00 +20.0 19.86 -10.6 32.2 00 0B 2E20 0900 Alarm State:  0
Tue May 17 22:52:48 PDT 2022 ON: 20.00 +20.0 19.86 -11.0 31.9 06 0B 2E25 0914 Alarm State:  0
Tue May 17 22:51:46 PDT 2022 ON: 20.00 +20.0 19.88 -11.2 31.7 06 0A 2E0F 0900 Alarm State:  0
Tue May 17 22:50:45 PDT 2022 ON: 20.00 +20.0 19.88 -11.0 31.9 01 0A 2E26 0914 Alarm State:  0
Tue May 17 22:49:43 PDT 2022 ON: 19.99 +20.0 19.85 -10.4 32.3 05 0C 2F31 0928 Alarm State:  0
Tue May 17 22:48:42 PDT 2022 ON: 20.00 +20.0 19.87 -10.6 32.2 06 0B 302F 0901 Alarm State:  0
Tue May 17 22:47:40 PDT 2022 ON: 20.01 +20.0 19.88 -11.1 31.9 06 0A 3025 0914 Alarm State:  0
Tue May 17 22:46:39 PDT 2022 ON: 20.01 +20.0 19.89 -11.4 31.4 02 0A 2F21 0928 Alarm State:  0
Tue May 17 22:45:37 PDT 2022 ON: 20.00 +20.0 19.88 -10.9 31.9 0C 0A 2F25 0914 Alarm State:  0
Tue May 17 22:44:36 PDT 2022 ON: 20.00 +20.0 19.87 -10.3 32.4 00 0B 302F 0A0A Alarm State:  0
Tue May 17 22:43:34 PDT 2022 ON: 20.00 +20.0 19.87 -10.5 32.2 00 0B 312C 0913 Alarm State:  0
Tue May 17 22:42:33 PDT 2022 ON: 20.02 +20.0 19.88 -11.3 31.7 0A 0A 3107 0927 Alarm State:  0
Tue May 17 22:41:31 PDT 2022 ON: 20.01 +20.0 19.89 -11.6 31.1 07 0A 2F2F 0913 Alarm State:  0
Tue May 17 22:40:30 PDT 2022 ON: 20.00 +20.0 19.87 -10.6 31.9 0C 0B 3011 0927 Alarm State:  0
Tue May 17 22:39:28 PDT 2022 ON: 19.98 +20.0 19.85 - 9.7 32.6 0A 0C 311C 091E Alarm State:  0
Tue May 17 22:38:27 PDT 2022 ON: 20.01 +20.0 19.87 -10.6 32.0 00 0B 311F 091A Alarm State:  0
Tue May 17 22:37:25 PDT 2022 ON: 20.02 +20.0 19.89 -11.7 30.9 07 0A 3014 0A06 Alarm State:  0
Tue May 17 22:36:24 PDT 2022 ON: 20.01 +20.0 19.88 -10.6 31.7 0C 0B 2F0A 0B1A Alarm State:  0
Tue May 17 22:35:22 PDT 2022 ON: 20.00 +20.0 19.88 - 9.8 32.5 00 0C 2F32 0C0B Alarm State:  0
Tue May 17 22:34:21 PDT 2022 ON: 19.99 +20.0 19.88 -10.5 30.9 00 0B 3109 0B2E Alarm State:  0
Tue May 17 22:33:19 PDT 2022 ON: 19.95 +20.0 19.88 - 9.5 32.7 0A 0B 3214 0A22 Alarm State:  0
Tue May 17 22:32:18 PDT 2022 ON: 19.99 +20.0 19.77 - 6.8 32.4 00 10 3323 0917 Alarm State:  0
Tue May 17 22:31:16 PDT 2022 ON: 20.01 +20.0 19.87 -10.9 32.0 06 0B 3323 0928 Alarm State:  0
Tue May 17 22:30:15 PDT 2022 ON: 20.01 +20.0 19.87 -10.8 32.1 06 0B 3324 0913 Alarm State:  0
Tue May 17 22:29:13 PDT 2022 ON: 20.01 +20.0 19.88 -11.0 32.0 01 0A 3302 0928 Alarm State:  0
Tue May 17 22:28:12 PDT 2022 ON: 20.01 +20.0 19.88 -11.1 31.9 06 0A 3305 0913 Alarm State:  0
Tue May 17 22:27:10 PDT 2022 ON: 20.00 +20.0 19.86 -11.0 31.9 0D 0B 3226 0928 Alarm State:  0
Tue May 17 22:26:09 PDT 2022 ON: 20.01 +20.0 19.88 -10.7 32.1 00 0A 3302 0913 Alarm State:  0
Tue May 17 22:25:07 PDT 2022 ON: 20.00 +20.0 19.86 -10.9 32.1 00 0B 3308 0928 Alarm State:  0
Tue May 17 22:24:06 PDT 2022 ON: 20.01 +20.0 19.88 -11.0 31.9 0A 0A 3224 0913 Alarm State:  0
Tue May 17 22:23:04 PDT 2022 ON: 20.00 +20.0 19.87 -11.1 31.8 01 0B 3212 0928 Alarm State:  0
Tue May 17 22:22:03 PDT 2022 ON: 20.01 +20.0 19.87 -11.0 31.9 06 0B 3203 0913 Alarm State:  0
Tue May 17 22:21:01 PDT 2022 ON: 20.01 +20.0 19.87 -10.7 32.1 0C 0B 320D 0928 Alarm State:  0
Tue May 17 22:20:00 PDT 2022 ON: 20.00 +20.0 19.87 -10.9 32.1 06 0B 3204 0913 Alarm State:  0
Tue May 17 22:18:58 PDT 2022 ON: 20.00 +20.0 19.87 -11.1 31.9 06 0B 3202 0928 Alarm State:  0
Tue May 17 22:17:57 PDT 2022 ON: 20.01 +20.0 19.88 -11.1 31.8 0D 0A 3112 0913 Alarm State:  0
Tue May 17 22:16:55 PDT 2022 ON: 20.00 +20.0 19.87 -10.9 32.0 00 0B 3104 0928 Alarm State:  0
Tue May 17 22:15:53 PDT 2022 ON: 20.01 +20.0 19.87 -10.7 32.2 06 0B 3032 0913 Alarm State:  0
Tue May 17 22:14:52 PDT 2022 ON: 20.01 +20.0 19.88 -10.9 32.1 06 0A 3028 0928 Alarm State:  0
Tue May 17 22:13:50 PDT 2022 ON: 20.01 +20.0 19.87 -11.2 31.8 00 0B 3014 0914 Alarm State:  0
Tue May 17 22:12:49 PDT 2022 ON: 20.01 +20.0 19.88 -11.2 31.7 06 0A 2F24 0928 Alarm State:  0
Tue May 17 22:11:47 PDT 2022 ON: 20.01 +20.0 19.87 -10.9 32.0 00 0B 2F2C 0914 Alarm State:  0
Tue May 17 22:10:46 PDT 2022 ON: 20.01 +20.0 19.87 -10.7 32.2 06 0B 2F27 0928 Alarm State:  0
Tue May 17 22:09:44 PDT 2022 ON: 20.01 +20.0 19.87 -10.9 32.1 09 0B 2F1B 0914 Alarm State:  0
Tue May 17 22:08:43 PDT 2022 ON: 20.01 +20.0 19.87 -11.2 31.8 06 0B 2E17 0928 Alarm State:  0
Tue May 17 22:07:41 PDT 2022 ON: 20.00 +20.0 19.87 -11.1 31.8 06 0B 2D1C 0914 Alarm State:  0
Tue May 17 22:06:40 PDT 2022 ON: 20.00 +20.0 19.87 -10.8 32.1 06 0B 2E14 0928 Alarm State:  0
Tue May 17 22:05:38 PDT 2022 ON: 20.00 +20.0 19.87 -10.7 32.2 00 0B 2E22 0914 Alarm State:  0
Tue May 17 22:04:37 PDT 2022 ON: 20.00 +20.0 19.86 -10.9 32.0 06 0B 2F12 0928 Alarm State:  0
Tue May 17 22:03:35 PDT 2022 ON: 20.01 +20.0 19.87 -11.2 31.8 00 0B 2F12 0914 Alarm State:  0
Tue May 17 22:02:34 PDT 2022 ON: 20.01 +20.0 19.87 -11.1 31.8 06 0B 2E2C 0928 Alarm State:  0
Tue May 17 22:01:32 PDT 2022 ON: 20.00 +20.0 19.87 -10.8 32.1 06 0B 2E20 0914 Alarm State:  0
Tue May 17 22:00:31 PDT 2022 ON: 20.01 +20.0 19.88 -10.7 32.2 06 0A 2F08 0922 Alarm State:  0
Tue May 17 21:59:29 PDT 2022 ON: 20.00 +20.0 19.86 -11.0 32.0 06 0B 2F1E 090E Alarm State:  0
Tue May 17 21:58:28 PDT 2022 ON: 20.01 +20.0 19.88 -11.3 31.7 06 0A 2E2C 0922 Alarm State:  0
Tue May 17 21:57:26 PDT 2022 ON: 20.00 +20.0 19.88 -11.1 31.7 06 0A 2E0C 090E Alarm State:  0
Tue May 17 21:56:25 PDT 2022 ON: 20.00 +20.0 19.87 -10.5 32.2 05 0B 2F16 091E Alarm State:  0
Tue May 17 21:55:23 PDT 2022 ON: 20.00 +20.0 19.86 -10.6 32.2 06 0B 3013 0908 Alarm State:  0
Tue May 17 21:54:22 PDT 2022 ON: 20.01 +20.0 19.88 -11.2 31.9 06 0A 2F27 091C Alarm State:  0
Tue May 17 21:53:20 PDT 2022 ON: 20.01 +20.0 19.88 -11.4 31.4 07 0A 2E24 0908 Alarm State:  0
Tue May 17 21:52:19 PDT 2022 ON: 20.00 +20.0 19.86 -10.9 31.9 06 0B 2E2F 090A Alarm State:  0
Tue May 17 21:51:17 PDT 2022 ON: 20.00 +20.0 19.87 -10.4 32.4 05 0B 3007 0902 Alarm State:  0
Tue May 17 21:50:16 PDT 2022 ON: 20.01 +20.0 19.87 -10.7 32.1 09 0B 302C 090C Alarm State:  0
Tue May 17 21:49:14 PDT 2022 ON: 20.02 +20.0 19.88 -11.4 31.7 07 0A 2F2F 0921 Alarm State:  0
Tue May 17 21:48:13 PDT 2022 ON: 20.01 +20.0 19.88 -11.4 31.4 07 0A 2E27 090C Alarm State:  0
Tue May 17 21:47:11 PDT 2022 ON: 19.99 +20.0 19.86 -10.6 32.1 06 0B 2F00 092D Alarm State:  0
Tue May 17 21:46:10 PDT 2022 ON: 20.00 +20.0 19.86 -10.3 32.4 05 0B 300A 0907 Alarm State:  0
Tue May 17 21:45:08 PDT 2022 ON: 20.01 +20.0 19.87 -10.8 32.1 09 0B 301A 0918 Alarm State:  0
Tue May 17 21:44:07 PDT 2022 ON: 20.02 +20.0 19.88 -11.6 31.3 07 0A 2F10 0903 Alarm State:  0
Tue May 17 21:43:05 PDT 2022 ON: 20.00 +20.0 19.88 -11.4 31.3 06 0A 2E19 0918 Alarm State:  0
Tue May 17 21:42:04 PDT 2022 ON: 19.99 +20.0 19.87 -10.4 32.2 0B 0B 2F13 0A06 Alarm State:  0
Tue May 17 21:41:02 PDT 2022 ON: 19.99 +20.0 19.85 - 9.9 32.5 00 0C 301E 0906 Alarm State:  0
Tue May 17 21:40:01 PDT 2022 ON: 20.02 +20.0 19.89 -11.5 31.2 02 0A 302B 0916 Alarm State:  0
Tue May 17 21:38:59 PDT 2022 ON: 20.00 +20.0 19.89 -11.5 31.0 0E 0A 2F26 0A02 Alarm State:  0
Tue May 17 21:37:58 PDT 2022 ON: 19.99 +20.0 19.86 -10.1 32.2 00 0C 302A 0A1B Alarm State:  0
Tue May 17 21:36:56 PDT 2022 ON: 20.00 +20.0 19.84 - 9.3 32.5 02 0C 3202 0913 Alarm State:  0
Tue May 17 21:35:55 PDT 2022 ON: 20.01 +20.0 19.90 -11.5 31.1 0E 0A 310C 0A23 Alarm State:  0
Tue May 17 21:34:53 PDT 2022 ON: 20.00 +20.0 19.88 -10.5 31.4 0B 0B 310C 0B29 Alarm State:  0
Tue May 17 21:33:52 PDT 2022 ON: 19.97 +20.0 19.85 - 9.1 32.5 02 0C 3216 0A22 Alarm State:  0
Tue May 17 21:32:50 PDT 2022 ON: 19.96 +20.0 19.80 - 7.4 33.1 0B 0E 3321 0916 Alarm State:  0
Tue May 17 21:31:49 PDT 2022 ON: 20.02 +20.0 19.88 -11.1 31.9 06 0A 332C 0900 Alarm State:  0
Tue May 17 21:30:47 PDT 2022 ON: 20.01 +20.0 19.87 -11.1 31.9 01 0B 3221 0915 Alarm State:  0
Tue May 17 21:29:46 PDT 2022 ON: 20.01 +20.0 19.88 -11.0 32.0 06 0A 3123 0900 Alarm State:  0
Tue May 17 21:28:44 PDT 2022 ON: 20.01 +20.0 19.88 -11.0 32.0 06 0A 3026 0915 Alarm State:  0
Tue May 17 21:27:42 PDT 2022 ON: 20.02 +20.0 19.88 -11.1 31.9 06 0A 2F32 0900 Alarm State:  0
Tue May 17 21:26:41 PDT 2022 ON: 20.01 +20.0 19.87 -11.2 31.9 0D 0B 2F0C 0915 Alarm State:  0
Tue May 17 21:25:39 PDT 2022 ON: 20.01 +20.0 19.87 -11.1 31.8 06 0B 2E05 0901 Alarm State:  0
Tue May 17 21:24:38 PDT 2022 ON: 20.01 +20.0 19.87 -11.1 31.9 06 0B 2D17 0915 Alarm State:  0
Tue May 17 21:23:36 PDT 2022 ON: 20.01 +20.0 19.88 -11.0 32.0 10 0A 2D07 0901 Alarm State:  0
Tue May 17 21:22:35 PDT 2022 ON: 20.02 +20.0 19.87 -11.0 32.0 00 0B 2C05 0915 Alarm State:  0
Tue May 17 21:21:33 PDT 2022 ON: 20.02 +20.0 19.89 -11.2 31.8 06 0A 2B06 0901 Alarm State:  0
Tue May 17 21:20:32 PDT 2022 ON: 20.01 +20.0 19.87 -11.2 31.8 06 0B 2A06 0915 Alarm State:  0
Tue May 17 21:19:30 PDT 2022 ON: 20.00 +20.0 19.87 -11.0 31.9 06 0B 290D 0901 Alarm State:  0
Tue May 17 21:18:29 PDT 2022 ON: 20.00 +20.0 19.87 -10.8 32.1 00 0B 291C 0915 Alarm State:  0
Tue May 17 21:17:27 PDT 2022 ON: 20.01 +20.0 19.88 -11.1 32.0 06 0A 2823 0901 Alarm State:  0
Tue May 17 21:16:26 PDT 2022 ON: 20.01 +20.0 19.88 -11.3 31.7 06 0A 2731 0915 Alarm State:  0
Tue May 17 21:15:24 PDT 2022 ON: 20.00 +20.0 19.87 -11.3 31.7 01 0B 2705 0901 Alarm State:  0
Tue May 17 21:14:23 PDT 2022 ON: 20.00 +20.0 19.87 -11.0 32.0 01 0B 2631 0915 Alarm State:  0
Tue May 17 21:13:21 PDT 2022 ON: 20.01 +20.0 19.87 -10.8 32.1 05 0B 2601 0901 Alarm State:  0
Tue May 17 21:12:20 PDT 2022 ON: 20.01 +20.0 19.87 -11.1 32.0 06 0B 250F 0915 Alarm State:  0
Tue May 17 21:11:18 PDT 2022 ON: 20.01 +20.0 19.88 -11.4 31.7 06 0A 2412 0901 Alarm State:  0
Tue May 17 21:10:17 PDT 2022 ON: 20.00 +20.0 19.87 -11.4 31.6 02 0B 231E 0915 Alarm State:  0
Tue May 17 21:09:05 PDT 2022  Alarm State: 0
Tue May 17 21:09:05 PDT 2022 Chiller did not report ON, got this reading: 
Tue May 17 21:08:04 PDT 2022 ON: 20.01 +20.0 19.88 -10.9 32.0 04 0A 2331 091F Alarm State:  0
Tue May 17 21:07:02 PDT 2022 ON: 20.00 +20.0 19.88 -10.7 32.0 08 0A 240C 0909 Alarm State:  0
Tue May 17 21:06:01 PDT 2022 ON: 20.00 +20.0 19.87 -10.7 32.1 07 0B 2423 091D Alarm State:  0
Tue May 17 21:04:59 PDT 2022 ON: 20.01 +20.0 19.87 -10.9 32.0 05 0B 251E 0909 Alarm State:  0
Tue May 17 21:03:58 PDT 2022 ON: 20.01 +20.0 19.88 -10.9 32.0 05 0A 2515 091D Alarm State:  0
Tue May 17 21:02:56 PDT 2022 ON: 20.00 +20.0 19.88 -10.8 32.1 05 0A 260E 0909 Alarm State:  0
Tue May 17 21:01:55 PDT 2022 ON: 20.00 +20.0 19.86 -10.7 32.1 05 0B 2625 0911 Alarm State:  0
Tue May 17 21:00:53 PDT 2022 ON: 20.01 +20.0 19.87 -10.8 32.1 05 0B 261F 0926 Alarm State:  0
Tue May 17 20:59:52 PDT 2022 ON: 20.00 +20.0 19.87 -10.9 32.0 05 0B 2709 0911 Alarm State:  0
Tue May 17 20:58:50 PDT 2022 ON: 20.01 +20.0 19.88 -10.9 32.0 05 0A 2709 0926 Alarm State:  0
Tue May 17 20:57:49 PDT 2022 ON: 20.00 +20.0 19.87 -10.8 32.0 05 0B 2726 0911 Alarm State:  0
Tue May 17 20:56:47 PDT 2022 ON: 20.00 +20.0 19.86 -10.7 32.1 0E 0B 2815 091A Alarm State:  0
Tue May 17 20:55:46 PDT 2022 ON: 20.00 +20.0 19.87 -10.8 32.1 05 0B 280E 0905 Alarm State:  0
Tue May 17 20:54:44 PDT 2022 ON: 20.00 +20.0 19.88 -10.9 32.0 08 0A 2818 091A Alarm State:  0
Tue May 17 20:53:43 PDT 2022 ON: 20.01 +20.0 19.87 -10.9 31.9 05 0B 272E 0905 Alarm State:  0
Tue May 17 20:52:41 PDT 2022 ON: 20.00 +20.0 19.87 -10.8 32.1 05 0B 2716 091A Alarm State:  0
Tue May 17 20:51:40 PDT 2022 ON: 20.01 +20.0 19.87 -10.6 32.2 05 0B 2731 0905 Alarm State:  0
Tue May 17 20:50:38 PDT 2022 ON: 20.00 +20.0 19.87 -10.8 32.1 08 0B 282C 091A Alarm State:  0
Tue May 17 20:49:37 PDT 2022 ON: 20.01 +20.0 19.88 -11.0 31.9 0C 0A 280F 0905 Alarm State:  0
Tue May 17 20:48:35 PDT 2022 ON: 20.00 +20.0 19.87 -10.9 31.9 00 0B 282D 091A Alarm State:  0
Tue May 17 20:47:34 PDT 2022 ON: 20.01 +20.0 19.87 -10.8 32.1 0B 0B 2909 0903 Alarm State:  0
Tue May 17 20:46:32 PDT 2022 ON: 20.00 +20.0 19.87 -10.6 32.2 05 0B 2921 0918 Alarm State:  0
Tue May 17 20:45:31 PDT 2022 ON: 20.01 +20.0 19.87 -10.8 32.1 05 0B 292C 0903 Alarm State:  0
Tue May 17 20:44:29 PDT 2022 ON: 20.01 +20.0 19.87 -11.0 31.9 0C 0B 2920 0918 Alarm State:  0
Tue May 17 20:43:28 PDT 2022 ON: 20.00 +20.0 19.88 -11.0 31.8 06 0A 2921 0903 Alarm State:  0
Tue May 17 20:42:26 PDT 2022 ON: 20.00 +20.0 19.87 -10.7 32.1 05 0B 2A00 0918 Alarm State:  0
Tue May 17 20:41:25 PDT 2022 ON: 20.00 +20.0 19.88 -10.6 32.2 00 0A 2B00 0903 Alarm State:  0
Tue May 17 20:40:23 PDT 2022 ON: 20.01 +20.0 19.88 -10.8 32.1 00 0A 2A0D 0918 Alarm State:  0
Tue May 17 20:39:22 PDT 2022 ON: 20.00 +20.0 19.87 -10.9 32.0 05 0B 2A16 0903 Alarm State:  0
Tue May 17 20:38:20 PDT 2022 ON: 20.00 +20.0 19.87 -10.9 31.9 05 0B 2A28 0918 Alarm State:  0
Tue May 17 20:37:19 PDT 2022 ON: 20.01 +20.0 19.89 -10.7 32.1 00 0A 2A27 0903 Alarm State:  0
Tue May 17 20:36:17 PDT 2022 ON: 20.00 +20.0 19.87 -10.7 32.1 08 0B 2B20 0916 Alarm State:  0
Tue May 17 20:35:16 PDT 2022 ON: 20.01 +20.0 19.87 -10.8 32.1 05 0B 2B11 0901 Alarm State:  0
Tue May 17 20:34:14 PDT 2022 ON: 20.01 +20.0 19.88 -10.9 31.9 05 0A 2B0B 0916 Alarm State:  0
Tue May 17 20:33:13 PDT 2022 ON: 20.00 +20.0 19.87 -10.9 32.0 05 0B 2A1D 0901 Alarm State:  0
Tue May 17 20:32:11 PDT 2022 ON: 20.00 +20.0 19.87 -10.7 32.1 0B 0B 2A29 0916 Alarm State:  0
Tue May 17 20:31:10 PDT 2022 ON: 20.01 +20.0 19.87 -10.7 32.1 05 0B 2A32 0901 Alarm State:  0
Tue May 17 20:30:08 PDT 2022 ON: 20.00 +20.0 19.88 -10.8 32.0 05 0A 2B19 0916 Alarm State:  0
Tue May 17 20:29:07 PDT 2022 ON: 20.01 +20.0 19.87 -11.0 31.9 01 0B 2B08 0901 Alarm State:  0
Tue May 17 20:28:05 PDT 2022 ON: 20.00 +20.0 19.87 -10.8 32.0 05 0B 2A1D 0916 Alarm State:  0
Tue May 17 20:27:04 PDT 2022 ON: 20.00 +20.0 19.87 -10.7 32.2 00 0B 2A22 0901 Alarm State:  0
Tue May 17 20:26:02 PDT 2022 ON: 20.01 +20.0 19.87 -10.7 32.1 05 0B 2A32 0916 Alarm State:  0
Tue May 17 20:25:01 PDT 2022 ON: 20.01 +20.0 19.87 -10.9 32.0 05 0B 2B14 0901 Alarm State:  0
Tue May 17 20:23:59 PDT 2022 ON: 20.01 +20.0 19.88 -11.0 31.9 06 0A 2B00 0916 Alarm State:  0
Tue May 17 20:22:58 PDT 2022 ON: 20.00 +20.0 19.87 -10.8 32.1 00 0B 2A32 0901 Alarm State:  0
Tue May 17 20:21:56 PDT 2022 ON: 20.00 +20.0 19.87 -10.6 32.2 05 0B 2B1F 0916 Alarm State:  0
Tue May 17 20:20:55 PDT 2022 ON: 20.01 +20.0 19.87 -10.8 32.1 05 0B 2B0C 0901 Alarm State:  0
Tue May 17 20:19:53 PDT 2022 ON: 20.01 +20.0 19.88 -11.0 31.9 06 0A 2A1F 0916 Alarm State:  0
Tue May 17 20:18:52 PDT 2022 ON: 20.01 +20.0 19.88 -10.9 31.9 05 0A 2A04 0901 Alarm State:  0
Tue May 17 20:17:50 PDT 2022 ON: 20.00 +20.0 19.87 -10.7 32.2 05 0B 2911 0916 Alarm State:  0
Tue May 17 20:16:48 PDT 2022 ON: 20.00 +20.0 19.87 -10.6 32.2 05 0B 2A11 0901 Alarm State:  0
Tue May 17 20:15:47 PDT 2022 ON: 20.00 +20.0 19.87 -10.8 32.0 00 0B 2A2F 0916 Alarm State:  0
Tue May 17 20:14:45 PDT 2022 ON: 20.01 +20.0 19.88 -11.0 31.8 06 0A 2B19 0901 Alarm State:  0
Tue May 17 20:13:44 PDT 2022 ON: 20.00 +20.0 19.87 -10.9 31.9 05 0B 2A28 0916 Alarm State:  0
Tue May 17 20:12:42 PDT 2022 ON: 20.00 +20.0 19.87 -10.6 32.2 05 0B 2A1D 0901 Alarm State:  0
Tue May 17 20:11:41 PDT 2022 ON: 20.01 +20.0 19.88 -10.7 32.2 05 0A 2B12 0916 Alarm State:  0
Tue May 17 20:10:39 PDT 2022 ON: 20.01 +20.0 19.88 -10.9 32.1 0E 0A 2B03 0901 Alarm State:  0
Tue May 17 20:09:38 PDT 2022 ON: 20.00 +20.0 19.87 -11.0 31.9 06 0B 2A30 0916 Alarm State:  0
Tue May 17 20:08:36 PDT 2022 ON: 20.00 +20.0 19.87 -10.9 31.9 05 0B 2B00 0901 Alarm State:  0
Tue May 17 20:07:35 PDT 2022 ON: 20.01 +20.0 19.88 -10.7 32.1 05 0A 2B30 090E Alarm State:  0
Tue May 17 20:06:33 PDT 2022 ON: 20.00 +20.0 19.87 -10.7 32.2 0B 0B 2C25 0923 Alarm State:  0
Tue May 17 20:05:32 PDT 2022 ON: 20.00 +20.0 19.86 -10.8 32.1 05 0B 2C2E 090E Alarm State:  0
Tue May 17 20:04:30 PDT 2022 ON: 20.01 +20.0 19.88 -10.9 31.9 06 0A 2C26 0923 Alarm State:  0
Tue May 17 20:03:29 PDT 2022 ON: 20.00 +20.0 19.87 -10.9 32.0 05 0B 2C23 090E Alarm State:  0
Tue May 17 20:02:27 PDT 2022 ON: 20.01 +20.0 19.87 -10.7 32.1 06 0B 2D0E 0921 Alarm State:  0
Tue May 17 20:01:26 PDT 2022 ON: 20.00 +20.0 19.88 -10.6 32.2 06 0A 2D11 0908 Alarm State:  0
Tue May 17 20:00:24 PDT 2022 ON: 20.01 +20.0 19.88 -10.8 32.1 09 0A 2D2F 0919 Alarm State:  0
Tue May 17 19:59:23 PDT 2022 ON: 20.00 +20.0 19.88 -11.0 31.8 00 0A 2D14 0904 Alarm State:  0
Tue May 17 19:58:21 PDT 2022 ON: 20.00 +20.0 19.87 -10.8 32.0 00 0B 2E13 0919 Alarm State:  0
Tue May 17 19:57:20 PDT 2022 ON: 20.00 +20.0 19.86 -10.5 32.3 05 0B 2F1B 0923 Alarm State:  0
Tue May 17 19:56:18 PDT 2022 ON: 20.00 +20.0 19.86 -10.7 32.2 06 0B 2F2D 090F Alarm State:  0
Tue May 17 19:55:17 PDT 2022 ON: 20.01 +20.0 19.88 -11.1 31.9 06 0A 2F06 0923 Alarm State:  0
Tue May 17 19:54:15 PDT 2022 ON: 20.00 +20.0 19.87 -11.1 31.7 06 0B 2E19 090F Alarm State:  0
Tue May 17 19:53:14 PDT 2022 ON: 20.00 +20.0 19.87 -10.7 32.1 06 0B 2E2A 0923 Alarm State:  0
Tue May 17 19:52:12 PDT 2022 ON: 20.00 +20.0 19.86 -10.5 32.3 05 0B 2F1D 090F Alarm State:  0
Tue May 17 19:51:11 PDT 2022 ON: 20.00 +20.0 19.88 -10.8 32.1 06 0A 3021 0923 Alarm State:  0
Tue May 17 19:50:09 PDT 2022 ON: 20.01 +20.0 19.87 -11.1 31.8 06 0B 2F2E 090F Alarm State:  0
Tue May 17 19:49:08 PDT 2022 ON: 20.01 +20.0 19.87 -10.9 31.8 06 0B 2F25 0923 Alarm State:  0
Tue May 17 19:48:06 PDT 2022 ON: 20.00 +20.0 19.87 -10.6 32.2 00 0B 2F15 090F Alarm State:  0
Tue May 17 19:47:05 PDT 2022 ON: 20.01 +20.0 19.87 -10.6 32.2 06 0B 2F30 0923 Alarm State:  0
Tue May 17 19:46:03 PDT 2022 ON: 20.01 +20.0 19.88 -10.9 32.0 06 0A 3015 090F Alarm State:  0
Tue May 17 19:45:02 PDT 2022 ON: 20.01 +20.0 19.87 -11.1 31.8 0D 0B 2F17 0923 Alarm State:  0
Tue May 17 19:44:00 PDT 2022 ON: 20.00 +20.0 19.87 -10.9 31.9 06 0B 2F1B 090F Alarm State:  0
Tue May 17 19:42:59 PDT 2022 ON: 20.00 +20.0 19.87 -10.5 32.2 08 0B 301D 0923 Alarm State:  0
Tue May 17 19:41:57 PDT 2022 ON: 20.01 +20.0 19.87 -10.6 32.2 06 0B 3015 090F Alarm State:  0
Tue May 17 19:40:56 PDT 2022 ON: 20.01 +20.0 19.87 -10.9 32.0 00 0B 3008 0923 Alarm State:  0
Tue May 17 19:39:54 PDT 2022 ON: 20.01 +20.0 19.88 -11.1 31.8 06 0A 2E30 090F Alarm State:  0
Tue May 17 19:38:53 PDT 2022 ON: 20.00 +20.0 19.87 -10.8 32.0 0C 0B 2F1C 0923 Alarm State:  0
Tue May 17 19:37:51 PDT 2022 ON: 20.00 +20.0 19.86 -10.5 32.3 05 0B 3011 090D Alarm State:  0
Tue May 17 19:36:50 PDT 2022 ON: 20.00 +20.0 19.87 -10.7 32.2 0F 0B 2F2B 0921 Alarm State:  0
Tue May 17 19:35:48 PDT 2022 ON: 20.01 +20.0 19.88 -11.0 31.9 06 0A 3024 090D Alarm State:  0
Tue May 17 19:34:47 PDT 2022 ON: 20.01 +20.0 19.87 -11.1 31.7 06 0B 2F22 0921 Alarm State:  0
Tue May 17 19:33:45 PDT 2022 ON: 20.01 +20.0 19.88 -10.7 32.0 06 0A 3003 090D Alarm State:  0
Tue May 17 19:32:44 PDT 2022 ON: 20.00 +20.0 19.87 -10.4 32.3 0B 0B 3107 0913 Alarm State:  0
Tue May 17 19:31:42 PDT 2022 ON: 20.00 +20.0 19.86 -10.7 32.2 06 0B 3103 0928 Alarm State:  0
Tue May 17 19:30:41 PDT 2022 ON: 20.01 +20.0 19.87 -11.2 31.8 06 0B 3003 0913 Alarm State:  0
Tue May 17 19:29:39 PDT 2022 ON: 20.00 +20.0 19.88 -11.2 31.6 10 0A 2F1A 0928 Alarm State:  0
Tue May 17 19:28:38 PDT 2022 ON: 20.00 +20.0 19.87 -10.6 32.1 0C 0B 3024 0913 Alarm State:  0
Tue May 17 19:27:36 PDT 2022 ON: 20.00 +20.0 19.85 -10.2 32.4 05 0C 312F 090D Alarm State:  0
Tue May 17 19:26:35 PDT 2022 ON: 20.01 +20.0 19.87 -10.6 32.2 00 0B 3207 0921 Alarm State:  0
Tue May 17 19:25:33 PDT 2022 ON: 20.00 +20.0 19.87 -11.3 31.7 06 0B 321D 090D Alarm State:  0
Tue May 17 19:24:32 PDT 2022 ON: 20.01 +20.0 19.88 -11.2 31.5 01 0A 3117 0921 Alarm State:  0
Tue May 17 19:23:30 PDT 2022 ON: 20.00 +20.0 19.87 -10.4 32.2 05 0B 311D 0A0D Alarm State:  0
Tue May 17 19:22:29 PDT 2022 ON: 19.99 +20.0 19.85 -10.1 32.4 0A 0C 3227 0912 Alarm State:  0
Tue May 17 19:21:27 PDT 2022 ON: 20.00 +20.0 19.87 -10.7 32.1 00 0B 322D 0917 Alarm State:  0
Tue May 17 19:20:26 PDT 2022 ON: 20.02 +20.0 19.89 -11.6 31.3 0A 0A 312B 0902 Alarm State:  0
Tue May 17 19:19:24 PDT 2022 ON: 20.00 +20.0 19.89 -11.4 31.2 0E 0A 3030 0A17 Alarm State:  0
Tue May 17 19:18:23 PDT 2022 ON: 20.00 +20.0 19.86 -10.1 32.3 00 0B 3207 0920 Alarm State:  0
Tue May 17 19:17:21 PDT 2022 ON: 20.01 +20.0 19.85 - 9.8 32.4 07 0C 3231 0919 Alarm State:  0
Tue May 17 19:16:20 PDT 2022 ON: 20.03 +20.0 19.90 -11.3 31.3 06 0A 3127 0B04 Alarm State:  0
Tue May 17 19:15:18 PDT 2022 ON: 20.01 +20.0 19.89 -10.8 31.1 06 0B 301C 0C19 Alarm State:  0
Tue May 17 19:14:17 PDT 2022 ON: 19.98 +20.0 19.87 - 9.9 31.6 00 0C 3102 0C23 Alarm State:  0
Tue May 17 19:13:15 PDT 2022 ON: 19.96 +20.0 19.85 - 8.2 32.8 09 0D 320D 0B17 Alarm State:  0
Tue May 17 19:12:13 PDT 2022 ON: 19.95 +20.0 19.79 - 6.2 33.3 05 0F 331C 0A0C Alarm State:  0
Tue May 17 19:11:12 PDT 2022 ON: 20.01 +20.0 19.88 -11.0 31.8 06 0A 3314 0923 Alarm State:  0
Tue May 17 19:10:10 PDT 2022 ON: 20.00 +20.0 19.87 -10.5 32.3 05 0B 3319 090E Alarm State:  0
Tue May 17 19:09:09 PDT 2022 ON: 20.01 +20.0 19.87 -10.8 32.1 09 0B 3301 0923 Alarm State:  0
Tue May 17 19:08:07 PDT 2022 ON: 20.02 +20.0 19.89 -11.4 31.7 07 0A 312A 090E Alarm State:  0
Tue May 17 19:07:06 PDT 2022 ON: 20.01 +20.0 19.89 -11.5 31.4 07 0A 301F 0923 Alarm State:  0
Tue May 17 19:06:04 PDT 2022 ON: 20.00 +20.0 19.88 -10.8 32.0 00 0A 302C 090E Alarm State:  0
Tue May 17 19:05:03 PDT 2022 ON: 20.00 +20.0 19.87 -10.4 32.3 05 0B 312B 0923 Alarm State:  0
Tue May 17 19:04:01 PDT 2022 ON: 20.02 +20.0 19.88 -10.9 32.0 06 0A 3023 090E Alarm State:  0
Tue May 17 19:03:00 PDT 2022 ON: 20.01 +20.0 19.88 -11.6 31.5 07 0A 2F18 0923 Alarm State:  0
Tue May 17 19:01:58 PDT 2022 ON: 20.01 +20.0 19.89 -11.5 31.4 07 0A 2E0E 090E Alarm State:  0
Tue May 17 19:00:57 PDT 2022 ON: 20.00 +20.0 19.87 -10.6 32.1 00 0B 2E0C 091F Alarm State:  0
Tue May 17 18:59:55 PDT 2022 ON: 20.01 +20.0 19.87 -10.1 32.4 04 0B 2E15 0925 Alarm State:  0
Tue May 17 18:58:54 PDT 2022 ON: 20.02 +20.0 19.89 -12.0 30.9 08 0A 2D14 0911 Alarm State:  0
Tue May 17 18:57:52 PDT 2022 ON: 20.00 +20.0 19.88 -11.1 31.7 06 0A 2C0A 0925 Alarm State:  0
Tue May 17 18:56:51 PDT 2022 ON: 19.99 +20.0 19.86 -10.2 32.5 03 0B 2D15 091E Alarm State:  0
Tue May 17 18:55:49 PDT 2022 ON: 20.01 +20.0 19.88 -11.3 31.3 06 0A 2D15 0915 Alarm State:  0
Tue May 17 18:54:48 PDT 2022 ON: 20.00 +20.0 19.88 -11.4 31.4 07 0A 2C17 0900 Alarm State:  0
Tue May 17 18:53:46 PDT 2022 ON: 20.00 +20.0 19.88 -10.6 32.1 06 0A 2D00 0909 Alarm State:  0
Tue May 17 18:52:45 PDT 2022 ON: 20.00 +20.0 19.85 - 9.9 32.2 00 0C 2D2D 0913 Alarm State:  0
Tue May 17 18:51:43 PDT 2022 ON: 20.02 +20.0 19.90 -12.1 30.7 0E 09 2C28 0928 Alarm State:  0
Tue May 17 18:50:42 PDT 2022 ON: 19.99 +20.0 19.86 -10.8 31.8 00 0B 2C21 0907 Alarm State:  0
Tue May 17 18:49:40 PDT 2022 ON: 20.00 +20.0 19.85 - 9.9 32.3 06 0C 2D2C 0921 Alarm State:  0
Tue May 17 18:48:39 PDT 2022 ON: 20.01 +20.0 19.88 -11.5 31.2 0A 0A 2D07 090C Alarm State:  0
Tue May 17 18:47:37 PDT 2022 ON: 20.01 +20.0 19.89 -11.5 31.3 07 0A 2B2F 0921 Alarm State:  0
Tue May 17 18:46:36 PDT 2022 ON: 20.00 +20.0 19.87 -10.4 32.2 04 0B 2C25 090C Alarm State:  0
Tue May 17 18:45:34 PDT 2022 ON: 20.01 +20.0 19.85 -10.2 32.1 00 0C 2D2A 0909 Alarm State:  0
Tue May 17 18:44:33 PDT 2022 ON: 20.02 +20.0 19.89 -11.7 31.1 02 0A 2C20 091D Alarm State:  0
Tue May 17 18:43:31 PDT 2022 ON: 19.99 +20.0 19.87 -10.9 31.9 00 0B 2C08 092C Alarm State:  0
Tue May 17 18:42:30 PDT 2022 ON: 20.00 +20.0 19.86 -10.1 32.4 03 0B 2D12 0918 Alarm State:  0
Tue May 17 18:41:28 PDT 2022 ON: 20.01 +20.0 19.87 -10.6 31.9 00 0B 2D2E 091F Alarm State:  0
Tue May 17 18:40:27 PDT 2022 ON: 20.02 +20.0 19.90 -11.9 30.9 02 09 2C24 090A Alarm State:  0
Tue May 17 18:39:25 PDT 2022 ON: 20.01 +20.0 19.87 -10.6 32.0 05 0B 2C26 0911 Alarm State:  0
Tue May 17 18:38:24 PDT 2022 ON: 20.00 +20.0 19.87 -10.0 32.5 04 0B 2D2E 0910 Alarm State:  0
Tue May 17 18:37:22 PDT 2022 ON: 20.02 +20.0 19.88 -11.2 31.2 00 0A 2D2C 0909 Alarm State:  0
Tue May 17 18:36:21 PDT 2022 ON: 20.00 +20.0 19.88 -11.4 31.3 02 0A 2C24 091D Alarm State:  0
Tue May 17 18:35:19 PDT 2022 ON: 20.00 +20.0 19.87 -10.4 32.2 0B 0B 2D1B 0907 Alarm State:  0
Tue May 17 18:34:18 PDT 2022 ON: 20.01 +20.0 19.86 -10.1 32.2 00 0B 2E19 0926 Alarm State:  0
Tue May 17 18:33:16 PDT 2022 ON: 20.01 +20.0 19.89 -11.8 31.1 0E 0A 2D0E 0912 Alarm State:  0
Tue May 17 18:32:15 PDT 2022 ON: 20.00 +20.0 19.88 -10.8 32.0 0C 0A 2C24 0926 Alarm State:  0
Tue May 17 18:31:13 PDT 2022 ON: 20.00 +20.0 19.87 -10.2 32.4 05 0B 2D2D 0927 Alarm State:  0
Tue May 17 18:30:12 PDT 2022 ON: 20.02 +20.0 19.88 -11.2 31.5 01 0A 2D18 0912 Alarm State:  0
Tue May 17 18:29:10 PDT 2022 ON: 20.01 +20.0 19.88 -11.6 31.2 02 0A 2C0D 0927 Alarm State:  0
Tue May 17 18:28:09 PDT 2022 ON: 20.00 +20.0 19.87 -10.2 32.5 00 0B 2D0B 0A00 Alarm State:  0
Tue May 17 18:27:07 PDT 2022 ON: 20.01 +20.0 19.86 -10.5 32.1 08 0B 2D31 0906 Alarm State:  0
Tue May 17 18:26:06 PDT 2022 ON: 20.02 +20.0 19.89 -12.0 30.9 08 0A 2C27 091A Alarm State:  0
Tue May 17 18:25:04 PDT 2022 ON: 20.00 +20.0 19.88 -11.1 31.7 01 0A 2B2A 0906 Alarm State:  0
Tue May 17 18:24:03 PDT 2022 ON: 20.00 +20.0 19.86 -10.3 32.4 00 0B 2C32 0906 Alarm State:  0
Tue May 17 18:23:01 PDT 2022 ON: 20.02 +20.0 19.87 -11.0 31.6 0D 0B 2D07 091B Alarm State:  0
Tue May 17 18:22:00 PDT 2022 ON: 20.02 +20.0 19.89 -11.6 31.2 02 0A 2B30 0906 Alarm State:  0
Tue May 17 18:20:58 PDT 2022 ON: 20.00 +20.0 19.86 -10.6 32.1 05 0B 2C0D 091B Alarm State:  0
Tue May 17 18:19:57 PDT 2022 ON: 20.01 +20.0 19.87 -10.3 32.1 00 0B 2C20 0904 Alarm State:  0
Tue May 17 18:18:55 PDT 2022 ON: 20.02 +20.0 19.89 -12.1 30.8 00 0A 2B15 0919 Alarm State:  0
Tue May 17 18:17:54 PDT 2022 ON: 20.00 +20.0 19.89 -11.1 31.7 0C 0A 2A27 0904 Alarm State:  0
Tue May 17 18:16:52 PDT 2022 ON: 20.00 +20.0 19.86 -10.2 32.4 00 0B 2B30 091A Alarm State:  0
Tue May 17 18:15:51 PDT 2022 ON: 20.01 +20.0 19.86 -10.2 32.0 00 0B 2C24 090C Alarm State:  0
Tue May 17 18:14:49 PDT 2022 ON: 20.02 +20.0 19.89 -12.0 30.8 0B 0A 2B19 0921 Alarm State:  0
Tue May 17 18:13:48 PDT 2022 ON: 20.00 +20.0 19.88 -10.5 32.1 04 0A 2B24 090C Alarm State:  0
Tue May 17 18:12:46 PDT 2022 ON: 20.00 +20.0 19.86 - 9.9 32.4 03 0B 2C2D 090E Alarm State:  0
Tue May 17 18:11:44 PDT 2022 ON: 20.03 +20.0 19.91 -12.2 30.5 00 09 2C12 0922 Alarm State:  0
Tue May 17 18:10:43 PDT 2022 ON: 20.00 +20.0 19.87 -11.1 31.6 01 0B 2B15 090E Alarm State:  0
Tue May 17 18:09:41 PDT 2022 ON: 19.99 +20.0 19.85 -10.1 32.4 03 0C 2C0F 090E Alarm State:  0
Tue May 17 18:08:40 PDT 2022 ON: 20.02 +20.0 19.88 -11.1 31.3 01 0A 2C05 0911 Alarm State:  0
Tue May 17 18:07:38 PDT 2022 ON: 20.00 +20.0 19.89 -11.6 31.2 02 0A 2A2E 0925 Alarm State:  0
Tue May 17 18:06:37 PDT 2022 ON: 20.00 +20.0 19.87 -10.3 32.4 0A 0B 2B23 090B Alarm State:  0
Tue May 17 18:05:35 PDT 2022 ON: 20.01 +20.0 19.85 -10.1 32.0 00 0C 2C17 0909 Alarm State:  0
Tue May 17 18:04:34 PDT 2022 ON: 20.02 +20.0 19.90 -12.0 30.8 08 09 2B0C 091E Alarm State:  0
Tue May 17 18:03:32 PDT 2022 ON: 19.99 +20.0 19.87 -10.7 32.0 05 0B 2B01 0903 Alarm State:  0
Tue May 17 18:02:31 PDT 2022 ON: 19.99 +20.0 19.85 - 9.9 32.4 03 0C 2C08 0925 Alarm State:  0
Tue May 17 18:01:29 PDT 2022 ON: 20.02 +20.0 19.90 -11.8 31.2 08 09 2B1E 0906 Alarm State:  0
Tue May 17 18:00:28 PDT 2022 ON: 20.01 +20.0 19.87 -11.2 31.8 06 0B 2A13 091B Alarm State:  0
Tue May 17 17:59:26 PDT 2022 ON: 20.01 +20.0 19.87 -10.7 32.2 05 0B 2A04 0906 Alarm State:  0
Tue May 17 17:58:25 PDT 2022 ON: 20.02 +20.0 19.88 -11.2 31.9 06 0A 2901 091B Alarm State:  0
Tue May 17 17:57:23 PDT 2022 ON: 20.03 +20.0 19.89 -11.9 31.4 00 0A 272A 0906 Alarm State:  0
Tue May 17 17:56:22 PDT 2022 ON: 20.01 +20.0 19.89 -11.9 31.0 07 0A 261F 091B Alarm State:  0
Tue May 17 17:55:20 PDT 2022 ON: 20.01 +20.0 19.88 -10.9 31.9 05 0A 2608 0906 Alarm State:  0
Tue May 17 17:54:19 PDT 2022 ON: 20.00 +20.0 19.86 -10.4 32.3 00 0B 2703 090B Alarm State:  0
Tue May 17 17:53:17 PDT 2022 ON: 20.02 +20.0 19.89 -11.7 31.0 00 0A 262B 091F Alarm State:  0
Tue May 17 17:52:16 PDT 2022 ON: 20.00 +20.0 19.89 -11.8 30.9 07 0A 2520 090B Alarm State:  0
Tue May 17 17:51:14 PDT 2022 ON: 19.99 +20.0 19.86 -10.3 32.2 04 0B 262B 0921 Alarm State:  0
Tue May 17 17:50:13 PDT 2022 ON: 20.00 +20.0 19.84 - 9.7 32.5 06 0C 2802 0901 Alarm State:  0
Tue May 17 17:49:11 PDT 2022 ON: 20.02 +20.0 19.91 -12.7 30.5 09 09 270D 0912 Alarm State:  0
Tue May 17 17:48:10 PDT 2022 ON: 20.01 +20.0 19.90 -11.2 31.3 06 0A 2607 0A26 Alarm State:  0
Tue May 17 17:47:08 PDT 2022 ON: 19.99 +20.0 19.87 -10.0 32.1 03 0C 260F 0B05 Alarm State:  0
Tue May 17 17:46:07 PDT 2022 ON: 19.98 +20.0 19.81 - 8.3 32.6 07 0E 2719 092C Alarm State:  0
Tue May 17 17:45:05 PDT 2022 ON: 20.02 +20.0 19.89 -12.2 30.6 03 0A 2630 0900 Alarm State:  0
Tue May 17 17:44:04 PDT 2022 ON: 19.99 +20.0 19.87 -10.6 32.0 00 0B 2706 0917 Alarm State:  0
Tue May 17 17:43:02 PDT 2022 ON: 20.00 +20.0 19.87 -10.1 32.4 03 0B 2811 0911 Alarm State:  0
Tue May 17 17:42:01 PDT 2022 ON: 20.02 +20.0 19.88 -11.5 31.2 02 0A 280C 0924 Alarm State:  0
Tue May 17 17:40:59 PDT 2022 ON: 20.01 +20.0 19.89 -11.9 30.8 02 0A 2701 0910 Alarm State:  0
Tue May 17 17:39:58 PDT 2022 ON: 20.00 +20.0 19.87 -10.4 32.1 04 0B 272C 0922 Alarm State:  0
Tue May 17 17:38:56 PDT 2022 ON: 20.00 +20.0 19.86 - 9.9 32.5 00 0B 2904 0924 Alarm State:  0
Tue May 17 17:37:55 PDT 2022 ON: 20.02 +20.0 19.90 -12.3 30.7 08 09 282C 0918 Alarm State:  0
Tue May 17 17:36:53 PDT 2022 ON: 20.00 +20.0 19.89 -11.5 31.3 0D 0A 2731 0A04 Alarm State:  0
Tue May 17 17:35:52 PDT 2022 ON: 19.99 +20.0 19.86 -10.2 32.4 04 0B 282D 092C Alarm State:  0
Tue May 17 17:34:50 PDT 2022 ON: 19.99 +20.0 19.85 - 9.8 32.5 0A 0C 2A05 091E Alarm State:  0
Tue May 17 17:33:49 PDT 2022 ON: 20.03 +20.0 19.90 -12.3 30.8 03 09 292F 0918 Alarm State:  0
Tue May 17 17:32:47 PDT 2022 ON: 20.00 +20.0 19.88 -11.6 31.2 0A 0A 2909 0904 Alarm State:  0
Tue May 17 17:31:46 PDT 2022 ON: 20.00 +20.0 19.87 -10.3 32.2 04 0B 2A13 0A06 Alarm State:  0
Tue May 17 17:30:44 PDT 2022 ON: 19.98 +20.0 19.86 - 9.7 32.6 09 0B 2B1E 090C Alarm State:  0
Tue May 17 17:29:43 PDT 2022 ON: 20.03 +20.0 19.90 -12.2 30.4 00 09 2B03 0912 Alarm State:  0
Tue May 17 17:28:41 PDT 2022 ON: 20.01 +20.0 19.89 -11.4 31.2 02 0A 292B 0927 Alarm State:  0
Tue May 17 17:27:40 PDT 2022 ON: 19.99 +20.0 19.87 -10.3 32.0 0A 0C 2A25 0B06 Alarm State:  0
Tue May 17 17:26:38 PDT 2022 ON: 19.98 +20.0 19.84 - 9.1 32.8 02 0C 2B30 092C Alarm State:  0
Tue May 17 17:25:37 PDT 2022 ON: 20.02 +20.0 19.90 -12.3 30.6 09 09 2C16 0921 Alarm State:  0
Tue May 17 17:24:35 PDT 2022 ON: 20.00 +20.0 19.87 -11.2 31.6 09 0B 2B1D 090B Alarm State:  0
Tue May 17 17:23:34 PDT 2022 ON: 20.00 +20.0 19.86 -10.1 32.4 0D 0B 2C1D 091A Alarm State:  0
Tue May 17 17:22:32 PDT 2022 ON: 20.01 +20.0 19.86 -10.0 32.0 00 0B 2D10 0917 Alarm State:  0
Tue May 17 17:21:31 PDT 2022 ON: 20.02 +20.0 19.89 -11.9 30.7 08 0A 2C06 0A02 Alarm State:  0
Tue May 17 17:20:29 PDT 2022 ON: 19.99 +20.0 19.89 -10.6 31.8 00 0B 2B1F 0B15 Alarm State:  0
Tue May 17 17:19:28 PDT 2022 ON: 19.98 +20.0 19.86 - 9.7 32.6 06 0C 2C29 0A0A Alarm State:  0
Tue May 17 17:18:26 PDT 2022 ON: 20.01 +20.0 19.83 - 9.5 31.6 00 0D 2D30 0918 Alarm State:  0
Tue May 17 17:17:25 PDT 2022 ON: 20.01 +20.0 19.89 -11.4 31.4 02 0A 2C2E 0903 Alarm State:  0
Tue May 17 17:16:23 PDT 2022 ON: 20.00 +20.0 19.87 -10.2 32.4 00 0B 2D11 0925 Alarm State:  0
Tue May 17 17:15:22 PDT 2022 ON: 20.01 +20.0 19.86 -10.5 31.8 00 0B 2E01 0914 Alarm State:  0
Tue May 17 17:14:20 PDT 2022 ON: 20.01 +20.0 19.90 -11.8 31.1 0E 0A 2C29 0A00 Alarm State:  0
Tue May 17 17:13:19 PDT 2022 ON: 20.00 +20.0 19.89 -10.7 31.6 0C 0B 2B31 0B14 Alarm State:  0
Tue May 17 17:12:17 PDT 2022 ON: 19.98 +20.0 19.86 - 9.7 32.2 02 0C 2D09 0B04 Alarm State:  0
Tue May 17 17:11:15 PDT 2022 ON: 19.98 +20.0 19.82 - 8.2 32.8 0B 0D 2E13 092B Alarm State:  0
Tue May 17 17:10:14 PDT 2022 ON: 20.02 +20.0 19.89 -11.8 31.1 08 0A 2D32 0922 Alarm State:  0
Tue May 17 17:09:12 PDT 2022 ON: 20.00 +20.0 19.88 -11.1 31.7 06 0A 2D23 090D Alarm State:  0
Tue May 17 17:08:11 PDT 2022 ON: 19.99 +20.0 19.86 -10.2 32.3 0B 0B 2E2C 0919 Alarm State:  0
Tue May 17 17:07:09 PDT 2022 ON: 20.01 +20.0 19.86 -10.0 32.2 00 0B 2F28 0916 Alarm State:  0
Tue May 17 17:06:08 PDT 2022 ON: 20.02 +20.0 19.91 -11.9 31.0 08 09 2E21 0902 Alarm State:  0
Tue May 17 17:05:06 PDT 2022 ON: 20.00 +20.0 19.87 -10.9 31.8 00 0B 2D31 0916 Alarm State:  0
Tue May 17 17:04:05 PDT 2022 ON: 19.99 +20.0 19.86 -10.2 32.5 04 0C 2E32 0A00 Alarm State:  0
Tue May 17 17:03:03 PDT 2022 ON: 20.02 +20.0 19.89 -11.3 31.2 01 0A 2E27 0905 Alarm State:  0
Tue May 17 17:02:02 PDT 2022 ON: 20.01 +20.0 19.89 -11.3 31.5 06 0A 2E01 091A Alarm State:  0
Tue May 17 17:01:00 PDT 2022 ON: 19.99 +20.0 19.86 -10.4 32.2 05 0B 2E0A 091C Alarm State:  0
Tue May 17 16:59:59 PDT 2022 ON: 20.01 +20.0 19.87 -10.3 32.1 00 0B 2E1A 091B Alarm State:  0
Tue May 17 16:58:57 PDT 2022 ON: 20.01 +20.0 19.89 -11.9 30.9 08 0A 2D10 0906 Alarm State:  0
Tue May 17 16:57:56 PDT 2022 ON: 20.00 +20.0 19.86 -10.7 31.9 05 0B 2D1A 0917 Alarm State:  0
Tue May 17 16:56:54 PDT 2022 ON: 20.00 +20.0 19.85 - 9.8 32.4 00 0C 2E24 0912 Alarm State:  0
Tue May 17 16:55:53 PDT 2022 ON: 20.02 +20.0 19.88 -11.6 30.9 02 0A 2E02 0927 Alarm State:  0
Tue May 17 16:54:51 PDT 2022 ON: 20.00 +20.0 19.88 -11.2 31.7 0A 0A 2C2F 0912 Alarm State:  0
Tue May 17 16:53:50 PDT 2022 ON: 20.00 +20.0 19.86 -10.3 32.3 00 0B 2D24 0927 Alarm State:  0
Tue May 17 16:52:48 PDT 2022 ON: 20.01 +20.0 19.86 -10.4 32.0 00 0B 2E16 0913 Alarm State:  0
Tue May 17 16:51:47 PDT 2022 ON: 20.02 +20.0 19.90 -12.0 31.0 0E 09 2D0B 0928 Alarm State:  0
Tue May 17 16:50:45 PDT 2022 ON: 20.00 +20.0 19.87 -10.9 31.8 05 0B 2C01 0913 Alarm State:  0
Tue May 17 16:49:44 PDT 2022 ON: 20.00 +20.0 19.87 -10.3 32.4 00 0B 2C21 0928 Alarm State:  0
Tue May 17 16:48:42 PDT 2022 ON: 20.02 +20.0 19.88 -11.4 31.2 00 0A 2C18 0913 Alarm State:  0
Tue May 17 16:47:41 PDT 2022 ON: 20.01 +20.0 19.89 -11.6 31.2 07 0A 2B0D 0928 Alarm State:  0
Tue May 17 16:46:39 PDT 2022 ON: 20.00 +20.0 19.88 -10.5 32.2 05 0A 2C07 0905 Alarm State:  0
Tue May 17 16:45:38 PDT 2022 ON: 20.00 +20.0 19.87 -10.1 32.4 00 0B 2D0C 091F Alarm State:  0
Tue May 17 16:44:36 PDT 2022 ON: 20.03 +20.0 19.91 -12.3 30.4 00 09 2C1B 090B Alarm State:  0
Tue May 17 16:43:35 PDT 2022 ON: 19.99 +20.0 19.88 -10.9 31.7 0B 0A 2B2F 0913 Alarm State:  0
Tue May 17 16:42:33 PDT 2022 ON: 19.99 +20.0 19.85 -10.0 32.4 03 0C 2D07 090B Alarm State:  0
Tue May 17 16:41:32 PDT 2022 ON: 20.02 +20.0 19.86 -10.5 31.7 00 0B 2D24 090B Alarm State:  0
Tue May 17 16:40:30 PDT 2022 ON: 20.01 +20.0 19.89 -11.7 31.1 02 0A 2C19 0920 Alarm State:  0
Tue May 17 16:39:29 PDT 2022 ON: 19.99 +20.0 19.86 -10.5 32.1 00 0B 2C14 0930 Alarm State:  0
Tue May 17 16:38:27 PDT 2022 ON: 20.00 +20.0 19.84 - 9.8 32.3 06 0C 2D1D 0909 Alarm State:  0
Tue May 17 16:37:26 PDT 2022 ON: 20.01 +20.0 19.89 -12.2 30.8 0F 0A 2C2B 091D Alarm State:  0
Tue May 17 16:36:24 PDT 2022 ON: 20.00 +20.0 19.87 -10.8 31.9 05 0B 2C0D 0907 Alarm State:  0
Tue May 17 16:35:23 PDT 2022 ON: 20.00 +20.0 19.87 -10.3 32.4 05 0B 2D0D 0907 Alarm State:  0
Tue May 17 16:34:21 PDT 2022 ON: 20.02 +20.0 19.89 -11.8 30.6 08 0A 2C22 091C Alarm State:  0
Tue May 17 16:33:20 PDT 2022 ON: 20.01 +20.0 19.88 -11.2 31.6 0C 0A 2B32 0907 Alarm State:  0
Tue May 17 16:32:18 PDT 2022 ON: 19.99 +20.0 19.86 -10.4 32.3 04 0B 2C03 091A Alarm State:  0
Tue May 17 16:31:17 PDT 2022 ON: 20.02 +20.0 19.86 -10.9 31.7 00 0B 2B1F 0928 Alarm State:  0
Tue May 17 16:30:15 PDT 2022 ON: 20.01 +20.0 19.89 -11.8 31.1 0E 0A 2A14 0914 Alarm State:  0
Tue May 17 16:29:14 PDT 2022 ON: 20.00 +20.0 19.87 -10.7 32.1 00 0B 2A17 0926 Alarm State:  0
Tue May 17 16:28:12 PDT 2022 ON: 20.00 +20.0 19.85 - 9.8 32.3 03 0C 2B14 0921 Alarm State:  0
Tue May 17 16:27:11 PDT 2022 ON: 20.02 +20.0 19.90 -12.1 30.9 08 09 2A0E 090C Alarm State:  0
Tue May 17 16:26:09 PDT 2022 ON: 20.01 +20.0 19.89 -11.4 31.5 06 0A 290B 0921 Alarm State:  0
Tue May 17 16:25:08 PDT 2022 ON: 20.00 +20.0 19.86 -10.4 32.3 00 0B 292C 0923 Alarm State:  0
Tue May 17 16:24:06 PDT 2022 ON: 20.00 +20.0 19.84 - 9.8 32.3 02 0C 2B02 0901 Alarm State:  0
Tue May 17 16:23:05 PDT 2022 ON: 20.03 +20.0 19.90 -12.3 30.6 0F 09 2A06 0915 Alarm State:  0
Tue May 17 16:22:03 PDT 2022 ON: 19.99 +20.0 19.87 -10.9 31.9 00 0B 2925 0920 Alarm State:  0
Tue May 17 16:21:02 PDT 2022 ON: 20.00 +20.0 19.86 -10.0 32.4 03 0B 2A2F 0918 Alarm State:  0
Tue May 17 16:20:00 PDT 2022 ON: 20.02 +20.0 19.89 -11.9 30.4 00 0A 2A15 0904 Alarm State:  0
Tue May 17 16:18:59 PDT 2022 ON: 20.00 +20.0 19.87 -11.1 31.5 01 0B 2913 0918 Alarm State:  0
Tue May 17 16:17:57 PDT 2022 ON: 19.99 +20.0 19.85 -10.1 32.4 03 0C 2A08 0921 Alarm State:  0
Tue May 17 16:16:56 PDT 2022 ON: 20.02 +20.0 19.86 -10.8 31.7 00 0B 2A11 0925 Alarm State:  0
Tue May 17 16:15:54 PDT 2022 ON: 20.01 +20.0 19.89 -12.0 30.7 0E 0A 2906 0911 Alarm State:  0
Tue May 17 16:14:53 PDT 2022 ON: 20.01 +20.0 19.88 -10.6 32.0 0B 0A 2903 0925 Alarm State:  0
Tue May 17 16:13:51 PDT 2022 ON: 19.99 +20.0 19.86 - 9.9 32.5 03 0B 2A08 092F Alarm State:  0
Tue May 17 16:12:50 PDT 2022 ON: 20.01 +20.0 19.86 -10.7 31.6 05 0B 2A25 090D Alarm State:  0
Tue May 17 16:11:48 PDT 2022 ON: 20.01 +20.0 19.89 -11.8 30.9 0A 0A 291A 0922 Alarm State:  0
Tue May 17 16:10:46 PDT 2022 ON: 20.00 +20.0 19.86 -10.1 32.4 03 0B 2A0A 0918 Alarm State:  0
Tue May 17 16:09:45 PDT 2022 ON: 20.01 +20.0 19.86 -10.5 32.2 04 0B 2B05 090B Alarm State:  0
Tue May 17 16:08:43 PDT 2022 ON: 20.01 +20.0 19.87 -11.1 31.9 06 0B 2B06 091F Alarm State:  0
Tue May 17 16:07:42 PDT 2022 ON: 20.01 +20.0 19.88 -11.2 31.6 0C 0A 2A15 090B Alarm State:  0
Tue May 17 16:06:40 PDT 2022 ON: 19.99 +20.0 19.86 -10.5 32.2 04 0B 2B19 090F Alarm State:  0
Tue May 17 16:05:39 PDT 2022 ON: 20.00 +20.0 19.86 -10.2 32.4 04 0B 2C24 090D Alarm State:  0
Tue May 17 16:04:37 PDT 2022 ON: 20.01 +20.0 19.86 -10.7 32.1 00 0B 2D18 091D Alarm State:  0
Tue May 17 16:03:36 PDT 2022 ON: 20.00 +20.0 19.87 -11.2 31.7 06 0B 2D0A 0909 Alarm State:  0
Tue May 17 16:02:34 PDT 2022 ON: 20.00 +20.0 19.86 -10.9 31.8 05 0B 2D13 0911 Alarm State:  0
Tue May 17 16:01:33 PDT 2022 ON: 20.00 +20.0 19.86 -10.2 32.4 05 0B 2E1E 0926 Alarm State:  0
Tue May 17 16:00:31 PDT 2022 ON: 20.01 +20.0 19.87 -10.3 32.3 05 0B 2F18 0924 Alarm State:  0
Tue May 17 15:59:30 PDT 2022 ON: 20.01 +20.0 19.87 -11.0 31.9 06 0B 2E25 0910 Alarm State:  0
Tue May 17 15:58:28 PDT 2022 ON: 20.00 +20.0 19.88 -11.2 31.5 01 0A 2E1E 0924 Alarm State:  0
Tue May 17 15:57:27 PDT 2022 ON: 20.00 +20.0 19.87 -10.4 32.2 05 0B 2F21 0A02 Alarm State:  0
Tue May 17 15:56:25 PDT 2022 ON: 19.99 +20.0 19.85 -10.1 32.4 04 0C 302B 091D Alarm State:  0
Tue May 17 15:55:24 PDT 2022 ON: 20.01 +20.0 19.86 -10.0 32.3 00 0B 312A 0900 Alarm State:  0
Tue May 17 15:54:22 PDT 2022 ON: 20.02 +20.0 19.89 -11.4 31.6 00 0A 3026 0914 Alarm State:  0
Tue May 17 15:53:21 PDT 2022 ON: 20.01 +20.0 19.88 -11.5 31.0 07 0A 2F23 0900 Alarm State:  0
Tue May 17 15:52:19 PDT 2022 ON: 20.00 +20.0 19.88 -10.3 32.1 00 0B 2F14 0A14 Alarm State:  0
Tue May 17 15:51:18 PDT 2022 ON: 19.99 +20.0 19.85 - 9.6 32.5 06 0C 301F 091C Alarm State:  0
Tue May 17 15:50:16 PDT 2022 ON: 20.02 +20.0 19.87 -10.7 32.0 06 0B 302A 090E Alarm State:  0
Tue May 17 15:49:15 PDT 2022 ON: 20.01 +20.0 19.88 -10.8 31.6 06 0B 2F21 0A23 Alarm State:  0
Tue May 17 15:48:13 PDT 2022 ON: 20.00 +20.0 19.88 -10.3 31.5 05 0C 2F30 0C0E Alarm State:  0
Tue May 17 15:47:12 PDT 2022 ON: 19.97 +20.0 19.86 - 9.2 32.4 00 0C 3108 0B24 Alarm State:  0
Tue May 17 15:46:10 PDT 2022 ON: 19.95 +20.0 19.82 - 7.5 33.3 02 0E 3212 0A19 Alarm State:  0
Tue May 17 15:45:09 PDT 2022 ON: 20.02 +20.0 19.87 - 9.7 31.7 00 0B 330B 0925 Alarm State:  0